<?xml version="1.0" encoding="UTF-8" standalone="no" ?>
<gpx xmlns="http://www.topografix.com/GPX/1/1" xmlns:xsi="http://www.w3.org/2001/XMLSchema-instance" xsi:schemaLocation="http://www.topografix.com/GPX/1/1 http://www.topografix.com/GPX/1/1/gpx.xsd" version="1.1" creator="VisuGPX - https://www.visugpx.com">
  <metadata>
    <name>bois archevèque &amp; foret verte</name>
    <desc><![CDATA[sortie vtt avec mon fils]]></desc>
  </metadata>
  <trk>
    <name><![CDATA[Track 2011-01-09 14:27]]></name>
    <trkseg>
      <trkpt lat="49.48204" lon="1.05458">
        <ele>66</ele>
        <time>2011-01-09T13:34:04Z</time>
      </trkpt>
      <trkpt lat="49.48211" lon="1.05445">
        <ele>69</ele>
        <time>2011-01-09T13:35:51Z</time>
      </trkpt>
      <trkpt lat="49.4821" lon="1.05428">
        <ele>69</ele>
        <time>2011-01-09T13:35:54Z</time>
      </trkpt>
      <trkpt lat="49.48202" lon="1.05415">
        <ele>69</ele>
        <time>2011-01-09T13:35:57Z</time>
      </trkpt>
      <trkpt lat="49.48194" lon="1.05407">
        <ele>70</ele>
        <time>2011-01-09T13:36:00Z</time>
      </trkpt>
      <trkpt lat="49.48187" lon="1.05396">
        <ele>70</ele>
        <time>2011-01-09T13:36:03Z</time>
      </trkpt>
      <trkpt lat="49.48183" lon="1.05383">
        <ele>70</ele>
        <time>2011-01-09T13:36:06Z</time>
      </trkpt>
      <trkpt lat="49.4818" lon="1.05364">
        <ele>70</ele>
        <time>2011-01-09T13:36:10Z</time>
      </trkpt>
      <trkpt lat="49.48178" lon="1.05346">
        <ele>70</ele>
        <time>2011-01-09T13:36:14Z</time>
      </trkpt>
      <trkpt lat="49.48177" lon="1.05331">
        <ele>70</ele>
        <time>2011-01-09T13:36:17Z</time>
      </trkpt>
      <trkpt lat="49.48177" lon="1.05312">
        <ele>70</ele>
        <time>2011-01-09T13:36:20Z</time>
      </trkpt>
      <trkpt lat="49.48177" lon="1.05293">
        <ele>71</ele>
        <time>2011-01-09T13:36:23Z</time>
      </trkpt>
      <trkpt lat="49.48176" lon="1.05273">
        <ele>71</ele>
        <time>2011-01-09T13:36:26Z</time>
      </trkpt>
      <trkpt lat="49.48176" lon="1.05254">
        <ele>72</ele>
        <time>2011-01-09T13:36:29Z</time>
      </trkpt>
      <trkpt lat="49.48176" lon="1.05235">
        <ele>72</ele>
        <time>2011-01-09T13:36:32Z</time>
      </trkpt>
      <trkpt lat="49.48176" lon="1.05218">
        <ele>72</ele>
        <time>2011-01-09T13:36:35Z</time>
      </trkpt>
      <trkpt lat="49.48175" lon="1.05201">
        <ele>72</ele>
        <time>2011-01-09T13:36:39Z</time>
      </trkpt>
      <trkpt lat="49.48165" lon="1.05198">
        <ele>73</ele>
        <time>2011-01-09T13:36:44Z</time>
      </trkpt>
      <trkpt lat="49.48156" lon="1.05203">
        <ele>73</ele>
        <time>2011-01-09T13:36:47Z</time>
      </trkpt>
      <trkpt lat="49.48148" lon="1.05209">
        <ele>73</ele>
        <time>2011-01-09T13:36:50Z</time>
      </trkpt>
      <trkpt lat="49.48138" lon="1.05216">
        <ele>73</ele>
        <time>2011-01-09T13:36:53Z</time>
      </trkpt>
      <trkpt lat="49.48128" lon="1.05222">
        <ele>73</ele>
        <time>2011-01-09T13:36:56Z</time>
      </trkpt>
      <trkpt lat="49.4812" lon="1.05228">
        <ele>74</ele>
        <time>2011-01-09T13:36:59Z</time>
      </trkpt>
      <trkpt lat="49.4811" lon="1.05235">
        <ele>74</ele>
        <time>2011-01-09T13:37:02Z</time>
      </trkpt>
      <trkpt lat="49.48101" lon="1.05233">
        <ele>74</ele>
        <time>2011-01-09T13:37:05Z</time>
      </trkpt>
      <trkpt lat="49.48093" lon="1.05222">
        <ele>74</ele>
        <time>2011-01-09T13:37:08Z</time>
      </trkpt>
      <trkpt lat="49.4809" lon="1.05205">
        <ele>74</ele>
        <time>2011-01-09T13:37:12Z</time>
      </trkpt>
      <trkpt lat="49.4809" lon="1.0519">
        <ele>74</ele>
        <time>2011-01-09T13:37:15Z</time>
      </trkpt>
      <trkpt lat="49.4809" lon="1.05175">
        <ele>75</ele>
        <time>2011-01-09T13:37:18Z</time>
      </trkpt>
      <trkpt lat="49.48091" lon="1.0516">
        <ele>75</ele>
        <time>2011-01-09T13:37:21Z</time>
      </trkpt>
      <trkpt lat="49.48089" lon="1.05145">
        <ele>75</ele>
        <time>2011-01-09T13:37:24Z</time>
      </trkpt>
      <trkpt lat="49.48084" lon="1.05132">
        <ele>75</ele>
        <time>2011-01-09T13:37:27Z</time>
      </trkpt>
      <trkpt lat="49.48075" lon="1.05125">
        <ele>75</ele>
        <time>2011-01-09T13:37:32Z</time>
      </trkpt>
      <trkpt lat="49.48065" lon="1.05115">
        <ele>76</ele>
        <time>2011-01-09T13:37:42Z</time>
      </trkpt>
      <trkpt lat="49.48056" lon="1.05117">
        <ele>77</ele>
        <time>2011-01-09T13:37:46Z</time>
      </trkpt>
      <trkpt lat="49.48047" lon="1.05123">
        <ele>77</ele>
        <time>2011-01-09T13:37:49Z</time>
      </trkpt>
      <trkpt lat="49.48037" lon="1.05123">
        <ele>77</ele>
        <time>2011-01-09T13:37:52Z</time>
      </trkpt>
      <trkpt lat="49.48025" lon="1.05123">
        <ele>78</ele>
        <time>2011-01-09T13:37:56Z</time>
      </trkpt>
      <trkpt lat="49.48015" lon="1.05128">
        <ele>78</ele>
        <time>2011-01-09T13:38:00Z</time>
      </trkpt>
      <trkpt lat="49.48006" lon="1.05136">
        <ele>79</ele>
        <time>2011-01-09T13:38:04Z</time>
      </trkpt>
      <trkpt lat="49.47999" lon="1.05147">
        <ele>80</ele>
        <time>2011-01-09T13:38:08Z</time>
      </trkpt>
      <trkpt lat="49.47992" lon="1.05158">
        <ele>81</ele>
        <time>2011-01-09T13:38:12Z</time>
      </trkpt>
      <trkpt lat="49.47984" lon="1.05166">
        <ele>81</ele>
        <time>2011-01-09T13:38:16Z</time>
      </trkpt>
      <trkpt lat="49.47976" lon="1.05177">
        <ele>82</ele>
        <time>2011-01-09T13:38:21Z</time>
      </trkpt>
      <trkpt lat="49.47969" lon="1.0519">
        <ele>83</ele>
        <time>2011-01-09T13:38:26Z</time>
      </trkpt>
      <trkpt lat="49.47961" lon="1.05198">
        <ele>84</ele>
        <time>2011-01-09T13:38:30Z</time>
      </trkpt>
      <trkpt lat="49.47954" lon="1.05209">
        <ele>85</ele>
        <time>2011-01-09T13:38:34Z</time>
      </trkpt>
      <trkpt lat="49.47946" lon="1.0522">
        <ele>86</ele>
        <time>2011-01-09T13:38:38Z</time>
      </trkpt>
      <trkpt lat="49.47937" lon="1.05237">
        <ele>87</ele>
        <time>2011-01-09T13:38:44Z</time>
      </trkpt>
      <trkpt lat="49.47929" lon="1.05248">
        <ele>88</ele>
        <time>2011-01-09T13:38:48Z</time>
      </trkpt>
      <trkpt lat="49.47917" lon="1.05265">
        <ele>90</ele>
        <time>2011-01-09T13:38:56Z</time>
      </trkpt>
      <trkpt lat="49.4791" lon="1.05276">
        <ele>91</ele>
        <time>2011-01-09T13:39:00Z</time>
      </trkpt>
      <trkpt lat="49.47901" lon="1.05286">
        <ele>92</ele>
        <time>2011-01-09T13:39:04Z</time>
      </trkpt>
      <trkpt lat="49.4789" lon="1.05301">
        <ele>93</ele>
        <time>2011-01-09T13:39:10Z</time>
      </trkpt>
      <trkpt lat="49.47881" lon="1.05314">
        <ele>95</ele>
        <time>2011-01-09T13:39:16Z</time>
      </trkpt>
      <trkpt lat="49.47872" lon="1.05325">
        <ele>97</ele>
        <time>2011-01-09T13:39:32Z</time>
      </trkpt>
      <trkpt lat="49.47866" lon="1.05338">
        <ele>99</ele>
        <time>2011-01-09T13:39:44Z</time>
      </trkpt>
      <trkpt lat="49.47856" lon="1.05336">
        <ele>103</ele>
        <time>2011-01-09T13:39:55Z</time>
      </trkpt>
      <trkpt lat="49.47848" lon="1.05323">
        <ele>103</ele>
        <time>2011-01-09T13:39:58Z</time>
      </trkpt>
      <trkpt lat="49.47842" lon="1.0531">
        <ele>104</ele>
        <time>2011-01-09T13:40:01Z</time>
      </trkpt>
      <trkpt lat="49.47834" lon="1.05299">
        <ele>105</ele>
        <time>2011-01-09T13:40:06Z</time>
      </trkpt>
      <trkpt lat="49.47824" lon="1.05293">
        <ele>105</ele>
        <time>2011-01-09T13:40:09Z</time>
      </trkpt>
      <trkpt lat="49.47815" lon="1.05289">
        <ele>105</ele>
        <time>2011-01-09T13:40:11Z</time>
      </trkpt>
      <trkpt lat="49.47802" lon="1.05286">
        <ele>105</ele>
        <time>2011-01-09T13:40:14Z</time>
      </trkpt>
      <trkpt lat="49.47792" lon="1.05282">
        <ele>105</ele>
        <time>2011-01-09T13:40:17Z</time>
      </trkpt>
      <trkpt lat="49.47782" lon="1.05282">
        <ele>106</ele>
        <time>2011-01-09T13:40:20Z</time>
      </trkpt>
      <trkpt lat="49.47771" lon="1.05291">
        <ele>106</ele>
        <time>2011-01-09T13:40:23Z</time>
      </trkpt>
      <trkpt lat="49.47764" lon="1.05304">
        <ele>106</ele>
        <time>2011-01-09T13:40:26Z</time>
      </trkpt>
      <trkpt lat="49.47757" lon="1.05314">
        <ele>106</ele>
        <time>2011-01-09T13:40:29Z</time>
      </trkpt>
      <trkpt lat="49.47751" lon="1.05325">
        <ele>106</ele>
        <time>2011-01-09T13:40:32Z</time>
      </trkpt>
      <trkpt lat="49.47744" lon="1.05338">
        <ele>107</ele>
        <time>2011-01-09T13:40:35Z</time>
      </trkpt>
      <trkpt lat="49.47737" lon="1.05349">
        <ele>107</ele>
        <time>2011-01-09T13:40:38Z</time>
      </trkpt>
      <trkpt lat="49.4773" lon="1.05361">
        <ele>107</ele>
        <time>2011-01-09T13:40:41Z</time>
      </trkpt>
      <trkpt lat="49.47723" lon="1.05376">
        <ele>107</ele>
        <time>2011-01-09T13:40:45Z</time>
      </trkpt>
      <trkpt lat="49.47718" lon="1.05389">
        <ele>107</ele>
        <time>2011-01-09T13:40:48Z</time>
      </trkpt>
      <trkpt lat="49.47711" lon="1.054">
        <ele>107</ele>
        <time>2011-01-09T13:40:51Z</time>
      </trkpt>
      <trkpt lat="49.47704" lon="1.05415">
        <ele>107</ele>
        <time>2011-01-09T13:40:55Z</time>
      </trkpt>
      <trkpt lat="49.47696" lon="1.0543">
        <ele>108</ele>
        <time>2011-01-09T13:40:59Z</time>
      </trkpt>
      <trkpt lat="49.47691" lon="1.05443">
        <ele>108</ele>
        <time>2011-01-09T13:41:03Z</time>
      </trkpt>
      <trkpt lat="49.47684" lon="1.05456">
        <ele>108</ele>
        <time>2011-01-09T13:41:07Z</time>
      </trkpt>
      <trkpt lat="49.47677" lon="1.05469">
        <ele>109</ele>
        <time>2011-01-09T13:41:11Z</time>
      </trkpt>
      <trkpt lat="49.47669" lon="1.05479">
        <ele>109</ele>
        <time>2011-01-09T13:41:14Z</time>
      </trkpt>
      <trkpt lat="49.47663" lon="1.0549">
        <ele>109</ele>
        <time>2011-01-09T13:41:17Z</time>
      </trkpt>
      <trkpt lat="49.47655" lon="1.05501">
        <ele>110</ele>
        <time>2011-01-09T13:41:20Z</time>
      </trkpt>
      <trkpt lat="49.47647" lon="1.05512">
        <ele>110</ele>
        <time>2011-01-09T13:41:23Z</time>
      </trkpt>
      <trkpt lat="49.47639" lon="1.0552">
        <ele>111</ele>
        <time>2011-01-09T13:41:25Z</time>
      </trkpt>
      <trkpt lat="49.47627" lon="1.05531">
        <ele>111</ele>
        <time>2011-01-09T13:41:28Z</time>
      </trkpt>
      <trkpt lat="49.47619" lon="1.05537">
        <ele>111</ele>
        <time>2011-01-09T13:41:30Z</time>
      </trkpt>
      <trkpt lat="49.4761" lon="1.05544">
        <ele>112</ele>
        <time>2011-01-09T13:41:32Z</time>
      </trkpt>
      <trkpt lat="49.47601" lon="1.05552">
        <ele>112</ele>
        <time>2011-01-09T13:41:35Z</time>
      </trkpt>
      <trkpt lat="49.4759" lon="1.05561">
        <ele>113</ele>
        <time>2011-01-09T13:41:38Z</time>
      </trkpt>
      <trkpt lat="49.4758" lon="1.0557">
        <ele>113</ele>
        <time>2011-01-09T13:41:41Z</time>
      </trkpt>
      <trkpt lat="49.47572" lon="1.05578">
        <ele>114</ele>
        <time>2011-01-09T13:41:44Z</time>
      </trkpt>
      <trkpt lat="49.47562" lon="1.05587">
        <ele>114</ele>
        <time>2011-01-09T13:41:47Z</time>
      </trkpt>
      <trkpt lat="49.47553" lon="1.05597">
        <ele>114</ele>
        <time>2011-01-09T13:41:50Z</time>
      </trkpt>
      <trkpt lat="49.47543" lon="1.05606">
        <ele>117</ele>
        <time>2011-01-09T13:41:53Z</time>
      </trkpt>
      <trkpt lat="49.47531" lon="1.05615">
        <ele>118</ele>
        <time>2011-01-09T13:41:56Z</time>
      </trkpt>
      <trkpt lat="49.4752" lon="1.05619">
        <ele>119</ele>
        <time>2011-01-09T13:41:59Z</time>
      </trkpt>
      <trkpt lat="49.4751" lon="1.05621">
        <ele>119</ele>
        <time>2011-01-09T13:42:02Z</time>
      </trkpt>
      <trkpt lat="49.475" lon="1.05625">
        <ele>119</ele>
        <time>2011-01-09T13:42:05Z</time>
      </trkpt>
      <trkpt lat="49.47491" lon="1.05636">
        <ele>119</ele>
        <time>2011-01-09T13:42:08Z</time>
      </trkpt>
      <trkpt lat="49.47486" lon="1.05651">
        <ele>119</ele>
        <time>2011-01-09T13:42:11Z</time>
      </trkpt>
      <trkpt lat="49.47477" lon="1.05688">
        <ele>122</ele>
        <time>2011-01-09T13:42:19Z</time>
      </trkpt>
      <trkpt lat="49.47474" lon="1.05705">
        <ele>124</ele>
        <time>2011-01-09T13:42:23Z</time>
      </trkpt>
      <trkpt lat="49.47473" lon="1.0572">
        <ele>126</ele>
        <time>2011-01-09T13:42:27Z</time>
      </trkpt>
      <trkpt lat="49.47476" lon="1.05735">
        <ele>127</ele>
        <time>2011-01-09T13:42:30Z</time>
      </trkpt>
      <trkpt lat="49.47459" lon="1.05752">
        <ele>137</ele>
        <time>2011-01-09T13:42:52Z</time>
      </trkpt>
      <trkpt lat="49.47451" lon="1.05743">
        <ele>140</ele>
        <time>2011-01-09T13:42:57Z</time>
      </trkpt>
      <trkpt lat="49.47443" lon="1.05728">
        <ele>142</ele>
        <time>2011-01-09T13:43:02Z</time>
      </trkpt>
      <trkpt lat="49.47436" lon="1.05716">
        <ele>143</ele>
        <time>2011-01-09T13:43:05Z</time>
      </trkpt>
      <trkpt lat="49.47432" lon="1.05703">
        <ele>145</ele>
        <time>2011-01-09T13:43:19Z</time>
      </trkpt>
      <trkpt lat="49.47427" lon="1.05683">
        <ele>144</ele>
        <time>2011-01-09T13:43:57Z</time>
      </trkpt>
      <trkpt lat="49.47423" lon="1.05664">
        <ele>144</ele>
        <time>2011-01-09T13:44:02Z</time>
      </trkpt>
      <trkpt lat="49.47418" lon="1.05651">
        <ele>143</ele>
        <time>2011-01-09T13:44:08Z</time>
      </trkpt>
      <trkpt lat="49.47409" lon="1.05649">
        <ele>143</ele>
        <time>2011-01-09T13:44:12Z</time>
      </trkpt>
      <trkpt lat="49.47399" lon="1.05649">
        <ele>143</ele>
        <time>2011-01-09T13:44:17Z</time>
      </trkpt>
      <trkpt lat="49.47391" lon="1.05638">
        <ele>142</ele>
        <time>2011-01-09T13:44:24Z</time>
      </trkpt>
      <trkpt lat="49.47389" lon="1.05623">
        <ele>142</ele>
        <time>2011-01-09T13:45:04Z</time>
      </trkpt>
      <trkpt lat="49.47385" lon="1.0561">
        <ele>142</ele>
        <time>2011-01-09T13:45:10Z</time>
      </trkpt>
      <trkpt lat="49.4738" lon="1.05597">
        <ele>143</ele>
        <time>2011-01-09T13:45:15Z</time>
      </trkpt>
      <trkpt lat="49.47374" lon="1.05585">
        <ele>143</ele>
        <time>2011-01-09T13:45:21Z</time>
      </trkpt>
      <trkpt lat="49.47369" lon="1.05572">
        <ele>144</ele>
        <time>2011-01-09T13:45:27Z</time>
      </trkpt>
      <trkpt lat="49.47361" lon="1.05563">
        <ele>144</ele>
        <time>2011-01-09T13:45:32Z</time>
      </trkpt>
      <trkpt lat="49.47353" lon="1.05557">
        <ele>144</ele>
        <time>2011-01-09T13:45:36Z</time>
      </trkpt>
      <trkpt lat="49.47343" lon="1.05555">
        <ele>144</ele>
        <time>2011-01-09T13:45:42Z</time>
      </trkpt>
      <trkpt lat="49.47333" lon="1.05555">
        <ele>145</ele>
        <time>2011-01-09T13:45:47Z</time>
      </trkpt>
      <trkpt lat="49.47324" lon="1.05555">
        <ele>146</ele>
        <time>2011-01-09T13:45:54Z</time>
      </trkpt>
      <trkpt lat="49.47317" lon="1.05567">
        <ele>148</ele>
        <time>2011-01-09T13:46:03Z</time>
      </trkpt>
      <trkpt lat="49.47313" lon="1.05582">
        <ele>150</ele>
        <time>2011-01-09T13:46:12Z</time>
      </trkpt>
      <trkpt lat="49.47309" lon="1.05595">
        <ele>151</ele>
        <time>2011-01-09T13:46:18Z</time>
      </trkpt>
      <trkpt lat="49.47302" lon="1.05608">
        <ele>152</ele>
        <time>2011-01-09T13:46:26Z</time>
      </trkpt>
      <trkpt lat="49.47293" lon="1.05634">
        <ele>154</ele>
        <time>2011-01-09T13:46:38Z</time>
      </trkpt>
      <trkpt lat="49.47286" lon="1.05647">
        <ele>155</ele>
        <time>2011-01-09T13:46:43Z</time>
      </trkpt>
      <trkpt lat="49.47279" lon="1.05662">
        <ele>156</ele>
        <time>2011-01-09T13:46:48Z</time>
      </trkpt>
      <trkpt lat="49.47271" lon="1.05673">
        <ele>158</ele>
        <time>2011-01-09T13:46:52Z</time>
      </trkpt>
      <trkpt lat="49.47264" lon="1.05681">
        <ele>159</ele>
        <time>2011-01-09T13:46:56Z</time>
      </trkpt>
      <trkpt lat="49.47256" lon="1.0569">
        <ele>160</ele>
        <time>2011-01-09T13:47:00Z</time>
      </trkpt>
      <trkpt lat="49.47249" lon="1.05698">
        <ele>161</ele>
        <time>2011-01-09T13:47:05Z</time>
      </trkpt>
      <trkpt lat="49.4724" lon="1.05707">
        <ele>162</ele>
        <time>2011-01-09T13:47:11Z</time>
      </trkpt>
      <trkpt lat="49.47233" lon="1.05716">
        <ele>163</ele>
        <time>2011-01-09T13:47:17Z</time>
      </trkpt>
      <trkpt lat="49.47225" lon="1.05726">
        <ele>165</ele>
        <time>2011-01-09T13:47:23Z</time>
      </trkpt>
      <trkpt lat="49.47219" lon="1.05739">
        <ele>166</ele>
        <time>2011-01-09T13:47:29Z</time>
      </trkpt>
      <trkpt lat="49.47212" lon="1.0575">
        <ele>167</ele>
        <time>2011-01-09T13:47:34Z</time>
      </trkpt>
      <trkpt lat="49.47206" lon="1.05761">
        <ele>168</ele>
        <time>2011-01-09T13:47:39Z</time>
      </trkpt>
      <trkpt lat="49.47198" lon="1.05771">
        <ele>169</ele>
        <time>2011-01-09T13:47:44Z</time>
      </trkpt>
      <trkpt lat="49.47189" lon="1.0578">
        <ele>170</ele>
        <time>2011-01-09T13:47:49Z</time>
      </trkpt>
      <trkpt lat="49.47181" lon="1.05788">
        <ele>170</ele>
        <time>2011-01-09T13:47:53Z</time>
      </trkpt>
      <trkpt lat="49.47171" lon="1.05799">
        <ele>171</ele>
        <time>2011-01-09T13:47:57Z</time>
      </trkpt>
      <trkpt lat="49.47163" lon="1.05808">
        <ele>171</ele>
        <time>2011-01-09T13:48:01Z</time>
      </trkpt>
      <trkpt lat="49.47155" lon="1.05819">
        <ele>171</ele>
        <time>2011-01-09T13:48:05Z</time>
      </trkpt>
      <trkpt lat="49.47139" lon="1.05838">
        <ele>170</ele>
        <time>2011-01-09T13:48:14Z</time>
      </trkpt>
      <trkpt lat="49.47129" lon="1.05846">
        <ele>170</ele>
        <time>2011-01-09T13:48:18Z</time>
      </trkpt>
      <trkpt lat="49.4712" lon="1.05853">
        <ele>171</ele>
        <time>2011-01-09T13:48:22Z</time>
      </trkpt>
      <trkpt lat="49.47101" lon="1.05864">
        <ele>171</ele>
        <time>2011-01-09T13:48:28Z</time>
      </trkpt>
      <trkpt lat="49.47092" lon="1.05868">
        <ele>171</ele>
        <time>2011-01-09T13:48:30Z</time>
      </trkpt>
      <trkpt lat="49.47081" lon="1.0587">
        <ele>172</ele>
        <time>2011-01-09T13:48:33Z</time>
      </trkpt>
      <trkpt lat="49.47072" lon="1.05872">
        <ele>172</ele>
        <time>2011-01-09T13:48:36Z</time>
      </trkpt>
      <trkpt lat="49.47059" lon="1.05876">
        <ele>173</ele>
        <time>2011-01-09T13:48:40Z</time>
      </trkpt>
      <trkpt lat="49.47046" lon="1.05881">
        <ele>173</ele>
        <time>2011-01-09T13:48:43Z</time>
      </trkpt>
      <trkpt lat="49.47035" lon="1.05885">
        <ele>173</ele>
        <time>2011-01-09T13:48:46Z</time>
      </trkpt>
      <trkpt lat="49.47024" lon="1.05887">
        <ele>173</ele>
        <time>2011-01-09T13:48:49Z</time>
      </trkpt>
      <trkpt lat="49.47012" lon="1.05891">
        <ele>173</ele>
        <time>2011-01-09T13:48:53Z</time>
      </trkpt>
      <trkpt lat="49.47002" lon="1.05896">
        <ele>173</ele>
        <time>2011-01-09T13:48:56Z</time>
      </trkpt>
      <trkpt lat="49.46991" lon="1.05898">
        <ele>173</ele>
        <time>2011-01-09T13:49:00Z</time>
      </trkpt>
      <trkpt lat="49.46982" lon="1.05902">
        <ele>173</ele>
        <time>2011-01-09T13:49:04Z</time>
      </trkpt>
      <trkpt lat="49.46971" lon="1.05904">
        <ele>174</ele>
        <time>2011-01-09T13:49:08Z</time>
      </trkpt>
      <trkpt lat="49.46959" lon="1.05906">
        <ele>174</ele>
        <time>2011-01-09T13:49:13Z</time>
      </trkpt>
      <trkpt lat="49.46948" lon="1.05911">
        <ele>174</ele>
        <time>2011-01-09T13:49:18Z</time>
      </trkpt>
      <trkpt lat="49.46938" lon="1.05915">
        <ele>174</ele>
        <time>2011-01-09T13:49:23Z</time>
      </trkpt>
      <trkpt lat="49.46927" lon="1.05917">
        <ele>174</ele>
        <time>2011-01-09T13:49:27Z</time>
      </trkpt>
      <trkpt lat="49.46915" lon="1.05922">
        <ele>175</ele>
        <time>2011-01-09T13:49:31Z</time>
      </trkpt>
      <trkpt lat="49.46905" lon="1.05924">
        <ele>175</ele>
        <time>2011-01-09T13:49:34Z</time>
      </trkpt>
      <trkpt lat="49.46892" lon="1.05928">
        <ele>175</ele>
        <time>2011-01-09T13:49:38Z</time>
      </trkpt>
      <trkpt lat="49.46881" lon="1.0593">
        <ele>175</ele>
        <time>2011-01-09T13:49:42Z</time>
      </trkpt>
      <trkpt lat="49.46869" lon="1.05932">
        <ele>176</ele>
        <time>2011-01-09T13:49:46Z</time>
      </trkpt>
      <trkpt lat="49.46857" lon="1.05934">
        <ele>176</ele>
        <time>2011-01-09T13:49:50Z</time>
      </trkpt>
      <trkpt lat="49.46846" lon="1.05937">
        <ele>176</ele>
        <time>2011-01-09T13:49:53Z</time>
      </trkpt>
      <trkpt lat="49.46837" lon="1.05939">
        <ele>177</ele>
        <time>2011-01-09T13:49:56Z</time>
      </trkpt>
      <trkpt lat="49.46826" lon="1.05939">
        <ele>177</ele>
        <time>2011-01-09T13:49:59Z</time>
      </trkpt>
      <trkpt lat="49.46814" lon="1.05939">
        <ele>177</ele>
        <time>2011-01-09T13:50:02Z</time>
      </trkpt>
      <trkpt lat="49.46803" lon="1.05937">
        <ele>177</ele>
        <time>2011-01-09T13:50:05Z</time>
      </trkpt>
      <trkpt lat="49.46795" lon="1.05932">
        <ele>177</ele>
        <time>2011-01-09T13:50:08Z</time>
      </trkpt>
      <trkpt lat="49.46792" lon="1.05915">
        <ele>177</ele>
        <time>2011-01-09T13:50:13Z</time>
      </trkpt>
      <trkpt lat="49.46796" lon="1.059">
        <ele>177</ele>
        <time>2011-01-09T13:50:17Z</time>
      </trkpt>
      <trkpt lat="49.46807" lon="1.05874">
        <ele>176</ele>
        <time>2011-01-09T13:50:29Z</time>
      </trkpt>
      <trkpt lat="49.46809" lon="1.05859">
        <ele>175</ele>
        <time>2011-01-09T13:50:38Z</time>
      </trkpt>
      <trkpt lat="49.46809" lon="1.05842">
        <ele>174</ele>
        <time>2011-01-09T13:50:42Z</time>
      </trkpt>
      <trkpt lat="49.46808" lon="1.05827">
        <ele>174</ele>
        <time>2011-01-09T13:50:45Z</time>
      </trkpt>
      <trkpt lat="49.46806" lon="1.05808">
        <ele>174</ele>
        <time>2011-01-09T13:50:49Z</time>
      </trkpt>
      <trkpt lat="49.46817" lon="1.05758">
        <ele>172</ele>
        <time>2011-01-09T13:50:57Z</time>
      </trkpt>
      <trkpt lat="49.46835" lon="1.05748">
        <ele>172</ele>
        <time>2011-01-09T13:51:18Z</time>
      </trkpt>
      <trkpt lat="49.46826" lon="1.05756">
        <ele>172</ele>
        <time>2011-01-09T13:51:23Z</time>
      </trkpt>
      <trkpt lat="49.46815" lon="1.05765">
        <ele>171</ele>
        <time>2011-01-09T13:51:29Z</time>
      </trkpt>
      <trkpt lat="49.46806" lon="1.05771">
        <ele>171</ele>
        <time>2011-01-09T13:51:33Z</time>
      </trkpt>
      <trkpt lat="49.46794" lon="1.05773">
        <ele>171</ele>
        <time>2011-01-09T13:51:36Z</time>
      </trkpt>
      <trkpt lat="49.46781" lon="1.05776">
        <ele>170</ele>
        <time>2011-01-09T13:51:39Z</time>
      </trkpt>
      <trkpt lat="49.46768" lon="1.05776">
        <ele>169</ele>
        <time>2011-01-09T13:51:42Z</time>
      </trkpt>
      <trkpt lat="49.46758" lon="1.05778">
        <ele>169</ele>
        <time>2011-01-09T13:51:44Z</time>
      </trkpt>
      <trkpt lat="49.46746" lon="1.05778">
        <ele>168</ele>
        <time>2011-01-09T13:51:47Z</time>
      </trkpt>
      <trkpt lat="49.46735" lon="1.05778">
        <ele>168</ele>
        <time>2011-01-09T13:51:50Z</time>
      </trkpt>
      <trkpt lat="49.46723" lon="1.0578">
        <ele>168</ele>
        <time>2011-01-09T13:51:54Z</time>
      </trkpt>
      <trkpt lat="49.46711" lon="1.05782">
        <ele>168</ele>
        <time>2011-01-09T13:51:58Z</time>
      </trkpt>
      <trkpt lat="49.46699" lon="1.05782">
        <ele>167</ele>
        <time>2011-01-09T13:52:02Z</time>
      </trkpt>
      <trkpt lat="49.46689" lon="1.05782">
        <ele>167</ele>
        <time>2011-01-09T13:52:06Z</time>
      </trkpt>
      <trkpt lat="49.4668" lon="1.05786">
        <ele>167</ele>
        <time>2011-01-09T13:52:11Z</time>
      </trkpt>
      <trkpt lat="49.4667" lon="1.05784">
        <ele>166</ele>
        <time>2011-01-09T13:52:21Z</time>
      </trkpt>
      <trkpt lat="49.46659" lon="1.0578">
        <ele>166</ele>
        <time>2011-01-09T13:52:26Z</time>
      </trkpt>
      <trkpt lat="49.46648" lon="1.05778">
        <ele>165</ele>
        <time>2011-01-09T13:52:30Z</time>
      </trkpt>
      <trkpt lat="49.46636" lon="1.0578">
        <ele>164</ele>
        <time>2011-01-09T13:52:34Z</time>
      </trkpt>
      <trkpt lat="49.46622" lon="1.05782">
        <ele>161</ele>
        <time>2011-01-09T13:52:37Z</time>
      </trkpt>
      <trkpt lat="49.46612" lon="1.05786">
        <ele>160</ele>
        <time>2011-01-09T13:52:40Z</time>
      </trkpt>
      <trkpt lat="49.46603" lon="1.05791">
        <ele>156</ele>
        <time>2011-01-09T13:53:02Z</time>
      </trkpt>
      <trkpt lat="49.4659" lon="1.05803">
        <ele>153</ele>
        <time>2011-01-09T13:54:22Z</time>
      </trkpt>
      <trkpt lat="49.4658" lon="1.05808">
        <ele>153</ele>
        <time>2011-01-09T13:54:23Z</time>
      </trkpt>
      <trkpt lat="49.46571" lon="1.05812">
        <ele>153</ele>
        <time>2011-01-09T13:54:24Z</time>
      </trkpt>
      <trkpt lat="49.46562" lon="1.05816">
        <ele>153</ele>
        <time>2011-01-09T13:54:25Z</time>
      </trkpt>
      <trkpt lat="49.46549" lon="1.05821">
        <ele>152</ele>
        <time>2011-01-09T13:54:27Z</time>
      </trkpt>
      <trkpt lat="49.4654" lon="1.05825">
        <ele>151</ele>
        <time>2011-01-09T13:54:30Z</time>
      </trkpt>
      <trkpt lat="49.4653" lon="1.05827">
        <ele>151</ele>
        <time>2011-01-09T13:54:34Z</time>
      </trkpt>
      <trkpt lat="49.4652" lon="1.05829">
        <ele>151</ele>
        <time>2011-01-09T13:54:37Z</time>
      </trkpt>
      <trkpt lat="49.46511" lon="1.05829">
        <ele>151</ele>
        <time>2011-01-09T13:54:41Z</time>
      </trkpt>
      <trkpt lat="49.46496" lon="1.05829">
        <ele>151</ele>
        <time>2011-01-09T13:54:48Z</time>
      </trkpt>
      <trkpt lat="49.46483" lon="1.05831">
        <ele>150</ele>
        <time>2011-01-09T13:54:56Z</time>
      </trkpt>
      <trkpt lat="49.46472" lon="1.05831">
        <ele>151</ele>
        <time>2011-01-09T13:55:00Z</time>
      </trkpt>
      <trkpt lat="49.46462" lon="1.05834">
        <ele>151</ele>
        <time>2011-01-09T13:55:04Z</time>
      </trkpt>
      <trkpt lat="49.46453" lon="1.05834">
        <ele>152</ele>
        <time>2011-01-09T13:55:07Z</time>
      </trkpt>
      <trkpt lat="49.4644" lon="1.05836">
        <ele>152</ele>
        <time>2011-01-09T13:55:12Z</time>
      </trkpt>
      <trkpt lat="49.4643" lon="1.05838">
        <ele>152</ele>
        <time>2011-01-09T13:55:16Z</time>
      </trkpt>
      <trkpt lat="49.46418" lon="1.05838">
        <ele>153</ele>
        <time>2011-01-09T13:55:20Z</time>
      </trkpt>
      <trkpt lat="49.46406" lon="1.05838">
        <ele>153</ele>
        <time>2011-01-09T13:55:24Z</time>
      </trkpt>
      <trkpt lat="49.46397" lon="1.05838">
        <ele>153</ele>
        <time>2011-01-09T13:55:27Z</time>
      </trkpt>
      <trkpt lat="49.46385" lon="1.0584">
        <ele>153</ele>
        <time>2011-01-09T13:55:39Z</time>
      </trkpt>
      <trkpt lat="49.46376" lon="1.05844">
        <ele>152</ele>
        <time>2011-01-09T13:55:43Z</time>
      </trkpt>
      <trkpt lat="49.46368" lon="1.05853">
        <ele>152</ele>
        <time>2011-01-09T13:55:48Z</time>
      </trkpt>
      <trkpt lat="49.46359" lon="1.05859">
        <ele>152</ele>
        <time>2011-01-09T13:55:53Z</time>
      </trkpt>
      <trkpt lat="49.46351" lon="1.05866">
        <ele>152</ele>
        <time>2011-01-09T13:55:58Z</time>
      </trkpt>
      <trkpt lat="49.46342" lon="1.0587">
        <ele>151</ele>
        <time>2011-01-09T13:56:02Z</time>
      </trkpt>
      <trkpt lat="49.46334" lon="1.05874">
        <ele>151</ele>
        <time>2011-01-09T13:56:06Z</time>
      </trkpt>
      <trkpt lat="49.46325" lon="1.05883">
        <ele>151</ele>
        <time>2011-01-09T13:56:11Z</time>
      </trkpt>
      <trkpt lat="49.46314" lon="1.05883">
        <ele>151</ele>
        <time>2011-01-09T13:56:18Z</time>
      </trkpt>
      <trkpt lat="49.46303" lon="1.05881">
        <ele>152</ele>
        <time>2011-01-09T13:56:25Z</time>
      </trkpt>
      <trkpt lat="49.46293" lon="1.05887">
        <ele>152</ele>
        <time>2011-01-09T13:56:29Z</time>
      </trkpt>
      <trkpt lat="49.46284" lon="1.05891">
        <ele>152</ele>
        <time>2011-01-09T13:56:32Z</time>
      </trkpt>
      <trkpt lat="49.46275" lon="1.05898">
        <ele>153</ele>
        <time>2011-01-09T13:56:36Z</time>
      </trkpt>
      <trkpt lat="49.46265" lon="1.05906">
        <ele>153</ele>
        <time>2011-01-09T13:56:40Z</time>
      </trkpt>
      <trkpt lat="49.46254" lon="1.05915">
        <ele>153</ele>
        <time>2011-01-09T13:56:44Z</time>
      </trkpt>
      <trkpt lat="49.46246" lon="1.05922">
        <ele>154</ele>
        <time>2011-01-09T13:56:48Z</time>
      </trkpt>
      <trkpt lat="49.46236" lon="1.0593">
        <ele>154</ele>
        <time>2011-01-09T13:56:52Z</time>
      </trkpt>
      <trkpt lat="49.46226" lon="1.05939">
        <ele>154</ele>
        <time>2011-01-09T13:56:56Z</time>
      </trkpt>
      <trkpt lat="49.46218" lon="1.05949">
        <ele>155</ele>
        <time>2011-01-09T13:57:00Z</time>
      </trkpt>
      <trkpt lat="49.4621" lon="1.05958">
        <ele>155</ele>
        <time>2011-01-09T13:57:04Z</time>
      </trkpt>
      <trkpt lat="49.46202" lon="1.05964">
        <ele>155</ele>
        <time>2011-01-09T13:57:08Z</time>
      </trkpt>
      <trkpt lat="49.46193" lon="1.05971">
        <ele>155</ele>
        <time>2011-01-09T13:57:12Z</time>
      </trkpt>
      <trkpt lat="49.46184" lon="1.05975">
        <ele>155</ele>
        <time>2011-01-09T13:57:16Z</time>
      </trkpt>
      <trkpt lat="49.46175" lon="1.05977">
        <ele>155</ele>
        <time>2011-01-09T13:57:20Z</time>
      </trkpt>
      <trkpt lat="49.46167" lon="1.05986">
        <ele>155</ele>
        <time>2011-01-09T13:57:31Z</time>
      </trkpt>
      <trkpt lat="49.46162" lon="1.05999">
        <ele>155</ele>
        <time>2011-01-09T13:57:46Z</time>
      </trkpt>
      <trkpt lat="49.46153" lon="1.06005">
        <ele>155</ele>
        <time>2011-01-09T13:57:56Z</time>
      </trkpt>
      <trkpt lat="49.46145" lon="1.06009">
        <ele>156</ele>
        <time>2011-01-09T13:58:07Z</time>
      </trkpt>
      <trkpt lat="49.46136" lon="1.06016">
        <ele>156</ele>
        <time>2011-01-09T13:58:13Z</time>
      </trkpt>
      <trkpt lat="49.46128" lon="1.06022">
        <ele>157</ele>
        <time>2011-01-09T13:58:19Z</time>
      </trkpt>
      <trkpt lat="49.46119" lon="1.06031">
        <ele>157</ele>
        <time>2011-01-09T13:58:26Z</time>
      </trkpt>
      <trkpt lat="49.46111" lon="1.0604">
        <ele>158</ele>
        <time>2011-01-09T13:58:33Z</time>
      </trkpt>
      <trkpt lat="49.46103" lon="1.06046">
        <ele>158</ele>
        <time>2011-01-09T13:58:40Z</time>
      </trkpt>
      <trkpt lat="49.46095" lon="1.06055">
        <ele>158</ele>
        <time>2011-01-09T13:58:47Z</time>
      </trkpt>
      <trkpt lat="49.46086" lon="1.06052">
        <ele>158</ele>
        <time>2011-01-09T13:59:14Z</time>
      </trkpt>
      <trkpt lat="49.46077" lon="1.06061">
        <ele>157</ele>
        <time>2011-01-09T13:59:54Z</time>
      </trkpt>
      <trkpt lat="49.46067" lon="1.06061">
        <ele>157</ele>
        <time>2011-01-09T13:59:59Z</time>
      </trkpt>
      <trkpt lat="49.46058" lon="1.06061">
        <ele>156</ele>
        <time>2011-01-09T14:00:05Z</time>
      </trkpt>
      <trkpt lat="49.46048" lon="1.06057">
        <ele>155</ele>
        <time>2011-01-09T14:00:10Z</time>
      </trkpt>
      <trkpt lat="49.46037" lon="1.06055">
        <ele>155</ele>
        <time>2011-01-09T14:00:15Z</time>
      </trkpt>
      <trkpt lat="49.46028" lon="1.06052">
        <ele>155</ele>
        <time>2011-01-09T14:00:20Z</time>
      </trkpt>
      <trkpt lat="49.46018" lon="1.06052">
        <ele>154</ele>
        <time>2011-01-09T14:00:41Z</time>
      </trkpt>
      <trkpt lat="49.46018" lon="1.06067">
        <ele>153</ele>
        <time>2011-01-09T14:01:06Z</time>
      </trkpt>
      <trkpt lat="49.46019" lon="1.06082">
        <ele>151</ele>
        <time>2011-01-09T14:01:25Z</time>
      </trkpt>
      <trkpt lat="49.4602" lon="1.06097">
        <ele>149</ele>
        <time>2011-01-09T14:01:41Z</time>
      </trkpt>
      <trkpt lat="49.46022" lon="1.06112">
        <ele>146</ele>
        <time>2011-01-09T14:01:55Z</time>
      </trkpt>
      <trkpt lat="49.46019" lon="1.06128">
        <ele>145</ele>
        <time>2011-01-09T14:02:08Z</time>
      </trkpt>
      <trkpt lat="49.46023" lon="1.06143">
        <ele>145</ele>
        <time>2011-01-09T14:02:31Z</time>
      </trkpt>
      <trkpt lat="49.46027" lon="1.06158">
        <ele>145</ele>
        <time>2011-01-09T14:02:57Z</time>
      </trkpt>
      <trkpt lat="49.46032" lon="1.0617">
        <ele>146</ele>
        <time>2011-01-09T14:03:10Z</time>
      </trkpt>
      <trkpt lat="49.46034" lon="1.06185">
        <ele>146</ele>
        <time>2011-01-09T14:03:31Z</time>
      </trkpt>
      <trkpt lat="49.4603" lon="1.062">
        <ele>148</ele>
        <time>2011-01-09T14:03:37Z</time>
      </trkpt>
      <trkpt lat="49.46029" lon="1.06215">
        <ele>150</ele>
        <time>2011-01-09T14:03:45Z</time>
      </trkpt>
      <trkpt lat="49.46032" lon="1.0623">
        <ele>155</ele>
        <time>2011-01-09T14:04:11Z</time>
      </trkpt>
      <trkpt lat="49.46036" lon="1.06243">
        <ele>157</ele>
        <time>2011-01-09T14:04:24Z</time>
      </trkpt>
      <trkpt lat="49.46038" lon="1.06258">
        <ele>160</ele>
        <time>2011-01-09T14:04:47Z</time>
      </trkpt>
      <trkpt lat="49.46042" lon="1.06273">
        <ele>164</ele>
        <time>2011-01-09T14:05:04Z</time>
      </trkpt>
      <trkpt lat="49.46048" lon="1.06284">
        <ele>167</ele>
        <time>2011-01-09T14:05:40Z</time>
      </trkpt>
      <trkpt lat="49.46044" lon="1.06297">
        <ele>170</ele>
        <time>2011-01-09T14:07:39Z</time>
      </trkpt>
      <trkpt lat="49.46035" lon="1.06303">
        <ele>171</ele>
        <time>2011-01-09T14:07:45Z</time>
      </trkpt>
      <trkpt lat="49.46029" lon="1.06314">
        <ele>173</ele>
        <time>2011-01-09T14:07:53Z</time>
      </trkpt>
      <trkpt lat="49.46036" lon="1.06323">
        <ele>175</ele>
        <time>2011-01-09T14:08:04Z</time>
      </trkpt>
      <trkpt lat="49.46043" lon="1.0631">
        <ele>176</ele>
        <time>2011-01-09T14:08:09Z</time>
      </trkpt>
      <trkpt lat="49.46049" lon="1.06299">
        <ele>177</ele>
        <time>2011-01-09T14:08:12Z</time>
      </trkpt>
      <trkpt lat="49.46056" lon="1.06286">
        <ele>177</ele>
        <time>2011-01-09T14:08:17Z</time>
      </trkpt>
      <trkpt lat="49.46064" lon="1.06278">
        <ele>177</ele>
        <time>2011-01-09T14:08:23Z</time>
      </trkpt>
      <trkpt lat="49.46074" lon="1.06269">
        <ele>177</ele>
        <time>2011-01-09T14:08:27Z</time>
      </trkpt>
      <trkpt lat="49.46094" lon="1.06263">
        <ele>178</ele>
        <time>2011-01-09T14:08:36Z</time>
      </trkpt>
      <trkpt lat="49.46104" lon="1.06269">
        <ele>178</ele>
        <time>2011-01-09T14:08:40Z</time>
      </trkpt>
      <trkpt lat="49.46114" lon="1.06278">
        <ele>177</ele>
        <time>2011-01-09T14:08:45Z</time>
      </trkpt>
      <trkpt lat="49.46123" lon="1.06286">
        <ele>177</ele>
        <time>2011-01-09T14:08:50Z</time>
      </trkpt>
      <trkpt lat="49.46132" lon="1.06295">
        <ele>176</ele>
        <time>2011-01-09T14:08:55Z</time>
      </trkpt>
      <trkpt lat="49.4614" lon="1.06301">
        <ele>176</ele>
        <time>2011-01-09T14:09:00Z</time>
      </trkpt>
      <trkpt lat="49.46148" lon="1.0631">
        <ele>176</ele>
        <time>2011-01-09T14:09:04Z</time>
      </trkpt>
      <trkpt lat="49.46157" lon="1.06318">
        <ele>176</ele>
        <time>2011-01-09T14:09:08Z</time>
      </trkpt>
      <trkpt lat="49.46164" lon="1.06327">
        <ele>176</ele>
        <time>2011-01-09T14:09:12Z</time>
      </trkpt>
      <trkpt lat="49.46172" lon="1.06336">
        <ele>177</ele>
        <time>2011-01-09T14:09:17Z</time>
      </trkpt>
      <trkpt lat="49.4618" lon="1.06344">
        <ele>177</ele>
        <time>2011-01-09T14:09:21Z</time>
      </trkpt>
      <trkpt lat="49.46189" lon="1.06351">
        <ele>178</ele>
        <time>2011-01-09T14:09:24Z</time>
      </trkpt>
      <trkpt lat="49.46196" lon="1.06359">
        <ele>178</ele>
        <time>2011-01-09T14:09:27Z</time>
      </trkpt>
      <trkpt lat="49.46206" lon="1.0637">
        <ele>178</ele>
        <time>2011-01-09T14:09:31Z</time>
      </trkpt>
      <trkpt lat="49.46216" lon="1.06379">
        <ele>178</ele>
        <time>2011-01-09T14:09:34Z</time>
      </trkpt>
      <trkpt lat="49.46226" lon="1.06385">
        <ele>178</ele>
        <time>2011-01-09T14:09:38Z</time>
      </trkpt>
      <trkpt lat="49.46238" lon="1.06387">
        <ele>178</ele>
        <time>2011-01-09T14:09:43Z</time>
      </trkpt>
      <trkpt lat="49.46248" lon="1.06387">
        <ele>179</ele>
        <time>2011-01-09T14:09:47Z</time>
      </trkpt>
      <trkpt lat="49.46258" lon="1.06385">
        <ele>179</ele>
        <time>2011-01-09T14:09:51Z</time>
      </trkpt>
      <trkpt lat="49.46267" lon="1.06389">
        <ele>181</ele>
        <time>2011-01-09T14:09:58Z</time>
      </trkpt>
      <trkpt lat="49.46275" lon="1.06398">
        <ele>181</ele>
        <time>2011-01-09T14:10:01Z</time>
      </trkpt>
      <trkpt lat="49.46285" lon="1.06409">
        <ele>182</ele>
        <time>2011-01-09T14:10:05Z</time>
      </trkpt>
      <trkpt lat="49.46294" lon="1.06415">
        <ele>183</ele>
        <time>2011-01-09T14:10:08Z</time>
      </trkpt>
      <trkpt lat="49.46302" lon="1.06424">
        <ele>184</ele>
        <time>2011-01-09T14:10:11Z</time>
      </trkpt>
      <trkpt lat="49.46312" lon="1.0643">
        <ele>184</ele>
        <time>2011-01-09T14:10:14Z</time>
      </trkpt>
      <trkpt lat="49.46324" lon="1.06434">
        <ele>185</ele>
        <time>2011-01-09T14:10:18Z</time>
      </trkpt>
      <trkpt lat="49.46335" lon="1.06439">
        <ele>186</ele>
        <time>2011-01-09T14:10:22Z</time>
      </trkpt>
      <trkpt lat="49.46345" lon="1.06445">
        <ele>187</ele>
        <time>2011-01-09T14:10:26Z</time>
      </trkpt>
      <trkpt lat="49.46354" lon="1.06454">
        <ele>187</ele>
        <time>2011-01-09T14:10:30Z</time>
      </trkpt>
      <trkpt lat="49.4636" lon="1.06464">
        <ele>187</ele>
        <time>2011-01-09T14:10:34Z</time>
      </trkpt>
      <trkpt lat="49.46362" lon="1.06479">
        <ele>188</ele>
        <time>2011-01-09T14:10:40Z</time>
      </trkpt>
      <trkpt lat="49.46372" lon="1.06475">
        <ele>188</ele>
        <time>2011-01-09T14:10:48Z</time>
      </trkpt>
      <trkpt lat="49.46379" lon="1.06464">
        <ele>188</ele>
        <time>2011-01-09T14:10:51Z</time>
      </trkpt>
      <trkpt lat="49.46383" lon="1.06447">
        <ele>188</ele>
        <time>2011-01-09T14:10:54Z</time>
      </trkpt>
      <trkpt lat="49.46386" lon="1.0643">
        <ele>188</ele>
        <time>2011-01-09T14:10:57Z</time>
      </trkpt>
      <trkpt lat="49.46388" lon="1.06411">
        <ele>188</ele>
        <time>2011-01-09T14:11:00Z</time>
      </trkpt>
      <trkpt lat="49.46389" lon="1.06389">
        <ele>188</ele>
        <time>2011-01-09T14:11:03Z</time>
      </trkpt>
      <trkpt lat="49.46386" lon="1.06374">
        <ele>188</ele>
        <time>2011-01-09T14:11:06Z</time>
      </trkpt>
      <trkpt lat="49.46379" lon="1.06364">
        <ele>187</ele>
        <time>2011-01-09T14:11:08Z</time>
      </trkpt>
      <trkpt lat="49.46366" lon="1.06359">
        <ele>186</ele>
        <time>2011-01-09T14:11:10Z</time>
      </trkpt>
      <trkpt lat="49.46354" lon="1.06351">
        <ele>186</ele>
        <time>2011-01-09T14:11:12Z</time>
      </trkpt>
      <trkpt lat="49.46344" lon="1.06346">
        <ele>185</ele>
        <time>2011-01-09T14:11:14Z</time>
      </trkpt>
      <trkpt lat="49.46334" lon="1.06342">
        <ele>186</ele>
        <time>2011-01-09T14:11:16Z</time>
      </trkpt>
      <trkpt lat="49.46324" lon="1.0634">
        <ele>186</ele>
        <time>2011-01-09T14:11:18Z</time>
      </trkpt>
      <trkpt lat="49.46311" lon="1.0634">
        <ele>186</ele>
        <time>2011-01-09T14:11:21Z</time>
      </trkpt>
      <trkpt lat="49.46301" lon="1.06349">
        <ele>186</ele>
        <time>2011-01-09T14:11:24Z</time>
      </trkpt>
      <trkpt lat="49.46294" lon="1.06359">
        <ele>186</ele>
        <time>2011-01-09T14:11:27Z</time>
      </trkpt>
      <trkpt lat="49.46287" lon="1.06372">
        <ele>186</ele>
        <time>2011-01-09T14:11:30Z</time>
      </trkpt>
      <trkpt lat="49.46281" lon="1.06387">
        <ele>186</ele>
        <time>2011-01-09T14:11:33Z</time>
      </trkpt>
      <trkpt lat="49.4627" lon="1.06394">
        <ele>186</ele>
        <time>2011-01-09T14:11:36Z</time>
      </trkpt>
      <trkpt lat="49.46258" lon="1.06396">
        <ele>187</ele>
        <time>2011-01-09T14:11:39Z</time>
      </trkpt>
      <trkpt lat="49.46247" lon="1.06396">
        <ele>187</ele>
        <time>2011-01-09T14:11:42Z</time>
      </trkpt>
      <trkpt lat="49.46236" lon="1.06396">
        <ele>186</ele>
        <time>2011-01-09T14:11:45Z</time>
      </trkpt>
      <trkpt lat="49.46225" lon="1.06391">
        <ele>186</ele>
        <time>2011-01-09T14:11:48Z</time>
      </trkpt>
      <trkpt lat="49.46216" lon="1.06385">
        <ele>186</ele>
        <time>2011-01-09T14:11:51Z</time>
      </trkpt>
      <trkpt lat="49.46207" lon="1.06376">
        <ele>186</ele>
        <time>2011-01-09T14:11:54Z</time>
      </trkpt>
      <trkpt lat="49.46209" lon="1.06357">
        <ele>186</ele>
        <time>2011-01-09T14:12:01Z</time>
      </trkpt>
      <trkpt lat="49.46217" lon="1.06349">
        <ele>186</ele>
        <time>2011-01-09T14:12:04Z</time>
      </trkpt>
      <trkpt lat="49.46224" lon="1.06338">
        <ele>185</ele>
        <time>2011-01-09T14:12:07Z</time>
      </trkpt>
      <trkpt lat="49.46229" lon="1.06325">
        <ele>185</ele>
        <time>2011-01-09T14:12:10Z</time>
      </trkpt>
      <trkpt lat="49.46234" lon="1.06312">
        <ele>185</ele>
        <time>2011-01-09T14:12:13Z</time>
      </trkpt>
      <trkpt lat="49.46242" lon="1.06297">
        <ele>184</ele>
        <time>2011-01-09T14:12:17Z</time>
      </trkpt>
      <trkpt lat="49.46251" lon="1.06291">
        <ele>184</ele>
        <time>2011-01-09T14:12:20Z</time>
      </trkpt>
      <trkpt lat="49.46262" lon="1.06282">
        <ele>184</ele>
        <time>2011-01-09T14:12:24Z</time>
      </trkpt>
      <trkpt lat="49.4627" lon="1.06278">
        <ele>184</ele>
        <time>2011-01-09T14:12:27Z</time>
      </trkpt>
      <trkpt lat="49.46282" lon="1.06276">
        <ele>184</ele>
        <time>2011-01-09T14:12:30Z</time>
      </trkpt>
      <trkpt lat="49.46293" lon="1.06273">
        <ele>185</ele>
        <time>2011-01-09T14:12:33Z</time>
      </trkpt>
      <trkpt lat="49.46305" lon="1.06271">
        <ele>185</ele>
        <time>2011-01-09T14:12:36Z</time>
      </trkpt>
      <trkpt lat="49.4632" lon="1.06267">
        <ele>186</ele>
        <time>2011-01-09T14:12:41Z</time>
      </trkpt>
      <trkpt lat="49.46332" lon="1.06263">
        <ele>186</ele>
        <time>2011-01-09T14:12:46Z</time>
      </trkpt>
      <trkpt lat="49.46342" lon="1.06258">
        <ele>187</ele>
        <time>2011-01-09T14:12:51Z</time>
      </trkpt>
      <trkpt lat="49.46352" lon="1.06256">
        <ele>187</ele>
        <time>2011-01-09T14:12:55Z</time>
      </trkpt>
      <trkpt lat="49.4637" lon="1.06252">
        <ele>188</ele>
        <time>2011-01-09T14:13:04Z</time>
      </trkpt>
      <trkpt lat="49.46379" lon="1.06243">
        <ele>189</ele>
        <time>2011-01-09T14:13:07Z</time>
      </trkpt>
      <trkpt lat="49.46385" lon="1.06233">
        <ele>189</ele>
        <time>2011-01-09T14:13:10Z</time>
      </trkpt>
      <trkpt lat="49.46393" lon="1.06224">
        <ele>189</ele>
        <time>2011-01-09T14:13:13Z</time>
      </trkpt>
      <trkpt lat="49.46416" lon="1.06211">
        <ele>189</ele>
        <time>2011-01-09T14:13:21Z</time>
      </trkpt>
      <trkpt lat="49.46425" lon="1.06207">
        <ele>189</ele>
        <time>2011-01-09T14:13:25Z</time>
      </trkpt>
      <trkpt lat="49.46434" lon="1.06203">
        <ele>189</ele>
        <time>2011-01-09T14:13:28Z</time>
      </trkpt>
      <trkpt lat="49.46454" lon="1.06207">
        <ele>190</ele>
        <time>2011-01-09T14:13:33Z</time>
      </trkpt>
      <trkpt lat="49.46463" lon="1.06213">
        <ele>190</ele>
        <time>2011-01-09T14:13:36Z</time>
      </trkpt>
      <trkpt lat="49.46475" lon="1.06224">
        <ele>191</ele>
        <time>2011-01-09T14:13:40Z</time>
      </trkpt>
      <trkpt lat="49.46487" lon="1.06233">
        <ele>192</ele>
        <time>2011-01-09T14:13:43Z</time>
      </trkpt>
      <trkpt lat="49.46496" lon="1.06237">
        <ele>192</ele>
        <time>2011-01-09T14:13:45Z</time>
      </trkpt>
      <trkpt lat="49.46505" lon="1.06243">
        <ele>192</ele>
        <time>2011-01-09T14:13:47Z</time>
      </trkpt>
      <trkpt lat="49.46517" lon="1.0625">
        <ele>193</ele>
        <time>2011-01-09T14:13:50Z</time>
      </trkpt>
      <trkpt lat="49.46528" lon="1.06256">
        <ele>193</ele>
        <time>2011-01-09T14:13:53Z</time>
      </trkpt>
      <trkpt lat="49.46538" lon="1.06263">
        <ele>194</ele>
        <time>2011-01-09T14:13:56Z</time>
      </trkpt>
      <trkpt lat="49.46548" lon="1.06269">
        <ele>194</ele>
        <time>2011-01-09T14:13:59Z</time>
      </trkpt>
      <trkpt lat="49.4656" lon="1.06278">
        <ele>195</ele>
        <time>2011-01-09T14:14:02Z</time>
      </trkpt>
      <trkpt lat="49.4657" lon="1.06282">
        <ele>195</ele>
        <time>2011-01-09T14:14:05Z</time>
      </trkpt>
      <trkpt lat="49.46579" lon="1.06297">
        <ele>195</ele>
        <time>2011-01-09T14:14:17Z</time>
      </trkpt>
      <trkpt lat="49.46575" lon="1.06312">
        <ele>194</ele>
        <time>2011-01-09T14:14:24Z</time>
      </trkpt>
      <trkpt lat="49.46565" lon="1.06323">
        <ele>194</ele>
        <time>2011-01-09T14:14:28Z</time>
      </trkpt>
      <trkpt lat="49.46557" lon="1.06331">
        <ele>193</ele>
        <time>2011-01-09T14:14:31Z</time>
      </trkpt>
      <trkpt lat="49.46548" lon="1.06342">
        <ele>192</ele>
        <time>2011-01-09T14:14:34Z</time>
      </trkpt>
      <trkpt lat="49.46538" lon="1.06353">
        <ele>192</ele>
        <time>2011-01-09T14:14:37Z</time>
      </trkpt>
      <trkpt lat="49.46529" lon="1.06361">
        <ele>191</ele>
        <time>2011-01-09T14:14:40Z</time>
      </trkpt>
      <trkpt lat="49.46519" lon="1.0637">
        <ele>191</ele>
        <time>2011-01-09T14:14:43Z</time>
      </trkpt>
      <trkpt lat="49.46509" lon="1.06381">
        <ele>192</ele>
        <time>2011-01-09T14:14:46Z</time>
      </trkpt>
      <trkpt lat="49.465" lon="1.06391">
        <ele>193</ele>
        <time>2011-01-09T14:14:49Z</time>
      </trkpt>
      <trkpt lat="49.46489" lon="1.064">
        <ele>193</ele>
        <time>2011-01-09T14:14:52Z</time>
      </trkpt>
      <trkpt lat="49.46479" lon="1.06411">
        <ele>194</ele>
        <time>2011-01-09T14:14:55Z</time>
      </trkpt>
      <trkpt lat="49.4647" lon="1.06421">
        <ele>194</ele>
        <time>2011-01-09T14:14:58Z</time>
      </trkpt>
      <trkpt lat="49.4646" lon="1.0643">
        <ele>194</ele>
        <time>2011-01-09T14:15:01Z</time>
      </trkpt>
      <trkpt lat="49.46449" lon="1.06441">
        <ele>194</ele>
        <time>2011-01-09T14:15:04Z</time>
      </trkpt>
      <trkpt lat="49.4644" lon="1.06452">
        <ele>194</ele>
        <time>2011-01-09T14:15:07Z</time>
      </trkpt>
      <trkpt lat="49.4643" lon="1.06462">
        <ele>193</ele>
        <time>2011-01-09T14:15:10Z</time>
      </trkpt>
      <trkpt lat="49.46418" lon="1.06473">
        <ele>193</ele>
        <time>2011-01-09T14:15:13Z</time>
      </trkpt>
      <trkpt lat="49.46409" lon="1.06486">
        <ele>193</ele>
        <time>2011-01-09T14:15:16Z</time>
      </trkpt>
      <trkpt lat="49.46398" lon="1.06497">
        <ele>193</ele>
        <time>2011-01-09T14:15:19Z</time>
      </trkpt>
      <trkpt lat="49.46393" lon="1.06514">
        <ele>193</ele>
        <time>2011-01-09T14:15:22Z</time>
      </trkpt>
      <trkpt lat="49.46388" lon="1.06531">
        <ele>192</ele>
        <time>2011-01-09T14:15:25Z</time>
      </trkpt>
      <trkpt lat="49.46382" lon="1.06546">
        <ele>191</ele>
        <time>2011-01-09T14:15:28Z</time>
      </trkpt>
      <trkpt lat="49.46374" lon="1.06561">
        <ele>190</ele>
        <time>2011-01-09T14:15:31Z</time>
      </trkpt>
      <trkpt lat="49.46367" lon="1.06574">
        <ele>189</ele>
        <time>2011-01-09T14:15:34Z</time>
      </trkpt>
      <trkpt lat="49.46358" lon="1.06587">
        <ele>189</ele>
        <time>2011-01-09T14:15:37Z</time>
      </trkpt>
      <trkpt lat="49.46351" lon="1.066">
        <ele>189</ele>
        <time>2011-01-09T14:15:40Z</time>
      </trkpt>
      <trkpt lat="49.46343" lon="1.06612">
        <ele>189</ele>
        <time>2011-01-09T14:15:43Z</time>
      </trkpt>
      <trkpt lat="49.46337" lon="1.06623">
        <ele>189</ele>
        <time>2011-01-09T14:15:46Z</time>
      </trkpt>
      <trkpt lat="49.4633" lon="1.06634">
        <ele>189</ele>
        <time>2011-01-09T14:15:49Z</time>
      </trkpt>
      <trkpt lat="49.46334" lon="1.06649">
        <ele>190</ele>
        <time>2011-01-09T14:15:57Z</time>
      </trkpt>
      <trkpt lat="49.46342" lon="1.06655">
        <ele>190</ele>
        <time>2011-01-09T14:16:01Z</time>
      </trkpt>
      <trkpt lat="49.46351" lon="1.06664">
        <ele>190</ele>
        <time>2011-01-09T14:16:05Z</time>
      </trkpt>
      <trkpt lat="49.46358" lon="1.06673">
        <ele>190</ele>
        <time>2011-01-09T14:16:09Z</time>
      </trkpt>
      <trkpt lat="49.46367" lon="1.06679">
        <ele>190</ele>
        <time>2011-01-09T14:16:13Z</time>
      </trkpt>
      <trkpt lat="49.46375" lon="1.0669">
        <ele>190</ele>
        <time>2011-01-09T14:16:17Z</time>
      </trkpt>
      <trkpt lat="49.46384" lon="1.06698">
        <ele>190</ele>
        <time>2011-01-09T14:16:20Z</time>
      </trkpt>
      <trkpt lat="49.46393" lon="1.06709">
        <ele>190</ele>
        <time>2011-01-09T14:16:23Z</time>
      </trkpt>
      <trkpt lat="49.46401" lon="1.06715">
        <ele>191</ele>
        <time>2011-01-09T14:16:26Z</time>
      </trkpt>
      <trkpt lat="49.46411" lon="1.06726">
        <ele>191</ele>
        <time>2011-01-09T14:16:29Z</time>
      </trkpt>
      <trkpt lat="49.4642" lon="1.06737">
        <ele>191</ele>
        <time>2011-01-09T14:16:32Z</time>
      </trkpt>
      <trkpt lat="49.4643" lon="1.06752">
        <ele>192</ele>
        <time>2011-01-09T14:16:35Z</time>
      </trkpt>
      <trkpt lat="49.4644" lon="1.06765">
        <ele>194</ele>
        <time>2011-01-09T14:16:38Z</time>
      </trkpt>
      <trkpt lat="49.46449" lon="1.06778">
        <ele>194</ele>
        <time>2011-01-09T14:16:41Z</time>
      </trkpt>
      <trkpt lat="49.4646" lon="1.06791">
        <ele>194</ele>
        <time>2011-01-09T14:16:44Z</time>
      </trkpt>
      <trkpt lat="49.46467" lon="1.06801">
        <ele>194</ele>
        <time>2011-01-09T14:16:46Z</time>
      </trkpt>
      <trkpt lat="49.46474" lon="1.0681">
        <ele>194</ele>
        <time>2011-01-09T14:16:49Z</time>
      </trkpt>
      <trkpt lat="49.46482" lon="1.06823">
        <ele>194</ele>
        <time>2011-01-09T14:16:54Z</time>
      </trkpt>
      <trkpt lat="49.4649" lon="1.06836">
        <ele>195</ele>
        <time>2011-01-09T14:16:59Z</time>
      </trkpt>
      <trkpt lat="49.46499" lon="1.06846">
        <ele>195</ele>
        <time>2011-01-09T14:17:03Z</time>
      </trkpt>
      <trkpt lat="49.46506" lon="1.06857">
        <ele>195</ele>
        <time>2011-01-09T14:17:06Z</time>
      </trkpt>
      <trkpt lat="49.46513" lon="1.06868">
        <ele>196</ele>
        <time>2011-01-09T14:17:09Z</time>
      </trkpt>
      <trkpt lat="49.4652" lon="1.06881">
        <ele>197</ele>
        <time>2011-01-09T14:17:12Z</time>
      </trkpt>
      <trkpt lat="49.46527" lon="1.06891">
        <ele>198</ele>
        <time>2011-01-09T14:17:14Z</time>
      </trkpt>
      <trkpt lat="49.46534" lon="1.06909">
        <ele>200</ele>
        <time>2011-01-09T14:17:17Z</time>
      </trkpt>
      <trkpt lat="49.46538" lon="1.06921">
        <ele>203</ele>
        <time>2011-01-09T14:17:19Z</time>
      </trkpt>
      <trkpt lat="49.46547" lon="1.06936">
        <ele>205</ele>
        <time>2011-01-09T14:17:22Z</time>
      </trkpt>
      <trkpt lat="49.46563" lon="1.06962">
        <ele>205</ele>
        <time>2011-01-09T14:17:27Z</time>
      </trkpt>
      <trkpt lat="49.46578" lon="1.06988">
        <ele>205</ele>
        <time>2011-01-09T14:17:32Z</time>
      </trkpt>
      <trkpt lat="49.46585" lon="1.07001">
        <ele>205</ele>
        <time>2011-01-09T14:17:34Z</time>
      </trkpt>
      <trkpt lat="49.46591" lon="1.07016">
        <ele>206</ele>
        <time>2011-01-09T14:17:37Z</time>
      </trkpt>
      <trkpt lat="49.46595" lon="1.07033">
        <ele>205</ele>
        <time>2011-01-09T14:17:40Z</time>
      </trkpt>
      <trkpt lat="49.46592" lon="1.0705">
        <ele>203</ele>
        <time>2011-01-09T14:17:47Z</time>
      </trkpt>
      <trkpt lat="49.46589" lon="1.07065">
        <ele>202</ele>
        <time>2011-01-09T14:17:50Z</time>
      </trkpt>
      <trkpt lat="49.46592" lon="1.07085">
        <ele>202</ele>
        <time>2011-01-09T14:17:53Z</time>
      </trkpt>
      <trkpt lat="49.46593" lon="1.071">
        <ele>201</ele>
        <time>2011-01-09T14:17:56Z</time>
      </trkpt>
      <trkpt lat="49.46601" lon="1.07112">
        <ele>199</ele>
        <time>2011-01-09T14:18:13Z</time>
      </trkpt>
      <trkpt lat="49.46611" lon="1.07115">
        <ele>199</ele>
        <time>2011-01-09T14:18:16Z</time>
      </trkpt>
      <trkpt lat="49.4662" lon="1.07127">
        <ele>199</ele>
        <time>2011-01-09T14:18:19Z</time>
      </trkpt>
      <trkpt lat="49.46629" lon="1.07142">
        <ele>198</ele>
        <time>2011-01-09T14:18:22Z</time>
      </trkpt>
      <trkpt lat="49.46634" lon="1.07155">
        <ele>198</ele>
        <time>2011-01-09T14:18:24Z</time>
      </trkpt>
      <trkpt lat="49.46639" lon="1.07168">
        <ele>198</ele>
        <time>2011-01-09T14:18:26Z</time>
      </trkpt>
      <trkpt lat="49.46647" lon="1.07185">
        <ele>198</ele>
        <time>2011-01-09T14:18:29Z</time>
      </trkpt>
      <trkpt lat="49.46651" lon="1.07198">
        <ele>198</ele>
        <time>2011-01-09T14:18:31Z</time>
      </trkpt>
      <trkpt lat="49.4666" lon="1.07215">
        <ele>198</ele>
        <time>2011-01-09T14:18:34Z</time>
      </trkpt>
      <trkpt lat="49.46668" lon="1.0723">
        <ele>198</ele>
        <time>2011-01-09T14:18:37Z</time>
      </trkpt>
      <trkpt lat="49.46677" lon="1.07248">
        <ele>198</ele>
        <time>2011-01-09T14:18:40Z</time>
      </trkpt>
      <trkpt lat="49.46684" lon="1.07265">
        <ele>197</ele>
        <time>2011-01-09T14:18:43Z</time>
      </trkpt>
      <trkpt lat="49.46693" lon="1.0728">
        <ele>197</ele>
        <time>2011-01-09T14:18:46Z</time>
      </trkpt>
      <trkpt lat="49.467" lon="1.07297">
        <ele>197</ele>
        <time>2011-01-09T14:18:49Z</time>
      </trkpt>
      <trkpt lat="49.46708" lon="1.07312">
        <ele>197</ele>
        <time>2011-01-09T14:18:52Z</time>
      </trkpt>
      <trkpt lat="49.46717" lon="1.07329">
        <ele>197</ele>
        <time>2011-01-09T14:18:55Z</time>
      </trkpt>
      <trkpt lat="49.46725" lon="1.07344">
        <ele>197</ele>
        <time>2011-01-09T14:18:58Z</time>
      </trkpt>
      <trkpt lat="49.46732" lon="1.07359">
        <ele>197</ele>
        <time>2011-01-09T14:19:01Z</time>
      </trkpt>
      <trkpt lat="49.4674" lon="1.07374">
        <ele>197</ele>
        <time>2011-01-09T14:19:04Z</time>
      </trkpt>
      <trkpt lat="49.46749" lon="1.07391">
        <ele>198</ele>
        <time>2011-01-09T14:19:07Z</time>
      </trkpt>
      <trkpt lat="49.46757" lon="1.07409">
        <ele>200</ele>
        <time>2011-01-09T14:19:10Z</time>
      </trkpt>
      <trkpt lat="49.46764" lon="1.07421">
        <ele>200</ele>
        <time>2011-01-09T14:19:12Z</time>
      </trkpt>
      <trkpt lat="49.4677" lon="1.07434">
        <ele>200</ele>
        <time>2011-01-09T14:19:14Z</time>
      </trkpt>
      <trkpt lat="49.46777" lon="1.07447">
        <ele>201</ele>
        <time>2011-01-09T14:19:16Z</time>
      </trkpt>
      <trkpt lat="49.46783" lon="1.07462">
        <ele>201</ele>
        <time>2011-01-09T14:19:18Z</time>
      </trkpt>
      <trkpt lat="49.4679" lon="1.07477">
        <ele>202</ele>
        <time>2011-01-09T14:19:20Z</time>
      </trkpt>
      <trkpt lat="49.46796" lon="1.07492">
        <ele>202</ele>
        <time>2011-01-09T14:19:22Z</time>
      </trkpt>
      <trkpt lat="49.46802" lon="1.07505">
        <ele>202</ele>
        <time>2011-01-09T14:19:24Z</time>
      </trkpt>
      <trkpt lat="49.46809" lon="1.0752">
        <ele>202</ele>
        <time>2011-01-09T14:19:26Z</time>
      </trkpt>
      <trkpt lat="49.46815" lon="1.07533">
        <ele>202</ele>
        <time>2011-01-09T14:19:28Z</time>
      </trkpt>
      <trkpt lat="49.46822" lon="1.07548">
        <ele>201</ele>
        <time>2011-01-09T14:19:30Z</time>
      </trkpt>
      <trkpt lat="49.46828" lon="1.07561">
        <ele>201</ele>
        <time>2011-01-09T14:19:32Z</time>
      </trkpt>
      <trkpt lat="49.46836" lon="1.07574">
        <ele>200</ele>
        <time>2011-01-09T14:19:34Z</time>
      </trkpt>
      <trkpt lat="49.46841" lon="1.07587">
        <ele>200</ele>
        <time>2011-01-09T14:19:36Z</time>
      </trkpt>
      <trkpt lat="49.46849" lon="1.07602">
        <ele>200</ele>
        <time>2011-01-09T14:19:38Z</time>
      </trkpt>
      <trkpt lat="49.46855" lon="1.07615">
        <ele>200</ele>
        <time>2011-01-09T14:19:40Z</time>
      </trkpt>
      <trkpt lat="49.46861" lon="1.07627">
        <ele>200</ele>
        <time>2011-01-09T14:19:42Z</time>
      </trkpt>
      <trkpt lat="49.46869" lon="1.07642">
        <ele>200</ele>
        <time>2011-01-09T14:19:44Z</time>
      </trkpt>
      <trkpt lat="49.46875" lon="1.07655">
        <ele>200</ele>
        <time>2011-01-09T14:19:46Z</time>
      </trkpt>
      <trkpt lat="49.46884" lon="1.07666">
        <ele>200</ele>
        <time>2011-01-09T14:19:48Z</time>
      </trkpt>
      <trkpt lat="49.46892" lon="1.07677">
        <ele>200</ele>
        <time>2011-01-09T14:19:50Z</time>
      </trkpt>
      <trkpt lat="49.46902" lon="1.07687">
        <ele>199</ele>
        <time>2011-01-09T14:19:52Z</time>
      </trkpt>
      <trkpt lat="49.46913" lon="1.07696">
        <ele>199</ele>
        <time>2011-01-09T14:19:54Z</time>
      </trkpt>
      <trkpt lat="49.46925" lon="1.07698">
        <ele>198</ele>
        <time>2011-01-09T14:19:56Z</time>
      </trkpt>
      <trkpt lat="49.46936" lon="1.07702">
        <ele>198</ele>
        <time>2011-01-09T14:19:58Z</time>
      </trkpt>
      <trkpt lat="49.46948" lon="1.07702">
        <ele>198</ele>
        <time>2011-01-09T14:20:00Z</time>
      </trkpt>
      <trkpt lat="49.4696" lon="1.07702">
        <ele>198</ele>
        <time>2011-01-09T14:20:02Z</time>
      </trkpt>
      <trkpt lat="49.46973" lon="1.07698">
        <ele>198</ele>
        <time>2011-01-09T14:20:04Z</time>
      </trkpt>
      <trkpt lat="49.46985" lon="1.07696">
        <ele>197</ele>
        <time>2011-01-09T14:20:06Z</time>
      </trkpt>
      <trkpt lat="49.46997" lon="1.07692">
        <ele>196</ele>
        <time>2011-01-09T14:20:08Z</time>
      </trkpt>
      <trkpt lat="49.47007" lon="1.07687">
        <ele>195</ele>
        <time>2011-01-09T14:20:10Z</time>
      </trkpt>
      <trkpt lat="49.47019" lon="1.07683">
        <ele>194</ele>
        <time>2011-01-09T14:20:12Z</time>
      </trkpt>
      <trkpt lat="49.47032" lon="1.07677">
        <ele>194</ele>
        <time>2011-01-09T14:20:14Z</time>
      </trkpt>
      <trkpt lat="49.47044" lon="1.07675">
        <ele>193</ele>
        <time>2011-01-09T14:20:16Z</time>
      </trkpt>
      <trkpt lat="49.47056" lon="1.0767">
        <ele>193</ele>
        <time>2011-01-09T14:20:18Z</time>
      </trkpt>
      <trkpt lat="49.47067" lon="1.07668">
        <ele>192</ele>
        <time>2011-01-09T14:20:20Z</time>
      </trkpt>
      <trkpt lat="49.47078" lon="1.07666">
        <ele>192</ele>
        <time>2011-01-09T14:20:22Z</time>
      </trkpt>
      <trkpt lat="49.47088" lon="1.07664">
        <ele>191</ele>
        <time>2011-01-09T14:20:24Z</time>
      </trkpt>
      <trkpt lat="49.47098" lon="1.07662">
        <ele>191</ele>
        <time>2011-01-09T14:20:26Z</time>
      </trkpt>
      <trkpt lat="49.47109" lon="1.07662">
        <ele>188</ele>
        <time>2011-01-09T14:20:28Z</time>
      </trkpt>
      <trkpt lat="49.4712" lon="1.0766">
        <ele>187</ele>
        <time>2011-01-09T14:20:30Z</time>
      </trkpt>
      <trkpt lat="49.47131" lon="1.07657">
        <ele>187</ele>
        <time>2011-01-09T14:20:32Z</time>
      </trkpt>
      <trkpt lat="49.47141" lon="1.07655">
        <ele>187</ele>
        <time>2011-01-09T14:20:34Z</time>
      </trkpt>
      <trkpt lat="49.47153" lon="1.07653">
        <ele>188</ele>
        <time>2011-01-09T14:20:36Z</time>
      </trkpt>
      <trkpt lat="49.47165" lon="1.07651">
        <ele>188</ele>
        <time>2011-01-09T14:20:38Z</time>
      </trkpt>
      <trkpt lat="49.47177" lon="1.07647">
        <ele>188</ele>
        <time>2011-01-09T14:20:40Z</time>
      </trkpt>
      <trkpt lat="49.47189" lon="1.0764">
        <ele>188</ele>
        <time>2011-01-09T14:20:42Z</time>
      </trkpt>
      <trkpt lat="49.47199" lon="1.07634">
        <ele>188</ele>
        <time>2011-01-09T14:20:44Z</time>
      </trkpt>
      <trkpt lat="49.47209" lon="1.07623">
        <ele>188</ele>
        <time>2011-01-09T14:20:46Z</time>
      </trkpt>
      <trkpt lat="49.4722" lon="1.07612">
        <ele>189</ele>
        <time>2011-01-09T14:20:48Z</time>
      </trkpt>
      <trkpt lat="49.47229" lon="1.07602">
        <ele>189</ele>
        <time>2011-01-09T14:20:50Z</time>
      </trkpt>
      <trkpt lat="49.47239" lon="1.07593">
        <ele>189</ele>
        <time>2011-01-09T14:20:52Z</time>
      </trkpt>
      <trkpt lat="49.47249" lon="1.07582">
        <ele>189</ele>
        <time>2011-01-09T14:20:54Z</time>
      </trkpt>
      <trkpt lat="49.47258" lon="1.07574">
        <ele>189</ele>
        <time>2011-01-09T14:20:56Z</time>
      </trkpt>
      <trkpt lat="49.47269" lon="1.07567">
        <ele>189</ele>
        <time>2011-01-09T14:20:58Z</time>
      </trkpt>
      <trkpt lat="49.47279" lon="1.07559">
        <ele>189</ele>
        <time>2011-01-09T14:21:00Z</time>
      </trkpt>
      <trkpt lat="49.47293" lon="1.07557">
        <ele>189</ele>
        <time>2011-01-09T14:21:03Z</time>
      </trkpt>
      <trkpt lat="49.47302" lon="1.07559">
        <ele>189</ele>
        <time>2011-01-09T14:21:05Z</time>
      </trkpt>
      <trkpt lat="49.47311" lon="1.07563">
        <ele>188</ele>
        <time>2011-01-09T14:21:07Z</time>
      </trkpt>
      <trkpt lat="49.47321" lon="1.07567">
        <ele>188</ele>
        <time>2011-01-09T14:21:09Z</time>
      </trkpt>
      <trkpt lat="49.47332" lon="1.07576">
        <ele>188</ele>
        <time>2011-01-09T14:21:12Z</time>
      </trkpt>
      <trkpt lat="49.47343" lon="1.07587">
        <ele>188</ele>
        <time>2011-01-09T14:21:15Z</time>
      </trkpt>
      <trkpt lat="49.47353" lon="1.07602">
        <ele>188</ele>
        <time>2011-01-09T14:21:18Z</time>
      </trkpt>
      <trkpt lat="49.4736" lon="1.0761">
        <ele>188</ele>
        <time>2011-01-09T14:21:20Z</time>
      </trkpt>
      <trkpt lat="49.4737" lon="1.07621">
        <ele>187</ele>
        <time>2011-01-09T14:21:22Z</time>
      </trkpt>
      <trkpt lat="49.47379" lon="1.07632">
        <ele>187</ele>
        <time>2011-01-09T14:21:24Z</time>
      </trkpt>
      <trkpt lat="49.47387" lon="1.07642">
        <ele>186</ele>
        <time>2011-01-09T14:21:26Z</time>
      </trkpt>
      <trkpt lat="49.47396" lon="1.07655">
        <ele>186</ele>
        <time>2011-01-09T14:21:28Z</time>
      </trkpt>
      <trkpt lat="49.47404" lon="1.07664">
        <ele>186</ele>
        <time>2011-01-09T14:21:30Z</time>
      </trkpt>
      <trkpt lat="49.47413" lon="1.07675">
        <ele>187</ele>
        <time>2011-01-09T14:21:32Z</time>
      </trkpt>
      <trkpt lat="49.47423" lon="1.07687">
        <ele>188</ele>
        <time>2011-01-09T14:21:35Z</time>
      </trkpt>
      <trkpt lat="49.47431" lon="1.07698">
        <ele>188</ele>
        <time>2011-01-09T14:21:38Z</time>
      </trkpt>
      <trkpt lat="49.47442" lon="1.07713">
        <ele>188</ele>
        <time>2011-01-09T14:21:41Z</time>
      </trkpt>
      <trkpt lat="49.47449" lon="1.07724">
        <ele>188</ele>
        <time>2011-01-09T14:21:43Z</time>
      </trkpt>
      <trkpt lat="49.47457" lon="1.07733">
        <ele>188</ele>
        <time>2011-01-09T14:21:45Z</time>
      </trkpt>
      <trkpt lat="49.47466" lon="1.07748">
        <ele>188</ele>
        <time>2011-01-09T14:21:48Z</time>
      </trkpt>
      <trkpt lat="49.47473" lon="1.07758">
        <ele>188</ele>
        <time>2011-01-09T14:21:50Z</time>
      </trkpt>
      <trkpt lat="49.47479" lon="1.07769">
        <ele>189</ele>
        <time>2011-01-09T14:21:52Z</time>
      </trkpt>
      <trkpt lat="49.47486" lon="1.07782">
        <ele>190</ele>
        <time>2011-01-09T14:21:54Z</time>
      </trkpt>
      <trkpt lat="49.47491" lon="1.07795">
        <ele>191</ele>
        <time>2011-01-09T14:21:56Z</time>
      </trkpt>
      <trkpt lat="49.47498" lon="1.07808">
        <ele>192</ele>
        <time>2011-01-09T14:21:58Z</time>
      </trkpt>
      <trkpt lat="49.47504" lon="1.07821">
        <ele>193</ele>
        <time>2011-01-09T14:22:00Z</time>
      </trkpt>
      <trkpt lat="49.4751" lon="1.07833">
        <ele>193</ele>
        <time>2011-01-09T14:22:02Z</time>
      </trkpt>
      <trkpt lat="49.47517" lon="1.07846">
        <ele>193</ele>
        <time>2011-01-09T14:22:04Z</time>
      </trkpt>
      <trkpt lat="49.47523" lon="1.07859">
        <ele>194</ele>
        <time>2011-01-09T14:22:06Z</time>
      </trkpt>
      <trkpt lat="49.47529" lon="1.07874">
        <ele>194</ele>
        <time>2011-01-09T14:22:08Z</time>
      </trkpt>
      <trkpt lat="49.47534" lon="1.07887">
        <ele>194</ele>
        <time>2011-01-09T14:22:10Z</time>
      </trkpt>
      <trkpt lat="49.47539" lon="1.079">
        <ele>194</ele>
        <time>2011-01-09T14:22:12Z</time>
      </trkpt>
      <trkpt lat="49.47545" lon="1.07915">
        <ele>195</ele>
        <time>2011-01-09T14:22:14Z</time>
      </trkpt>
      <trkpt lat="49.4755" lon="1.0793">
        <ele>195</ele>
        <time>2011-01-09T14:22:16Z</time>
      </trkpt>
      <trkpt lat="49.47557" lon="1.07945">
        <ele>195</ele>
        <time>2011-01-09T14:22:18Z</time>
      </trkpt>
      <trkpt lat="49.47563" lon="1.07962">
        <ele>195</ele>
        <time>2011-01-09T14:22:20Z</time>
      </trkpt>
      <trkpt lat="49.47568" lon="1.07977">
        <ele>195</ele>
        <time>2011-01-09T14:22:22Z</time>
      </trkpt>
      <trkpt lat="49.47574" lon="1.0799">
        <ele>195</ele>
        <time>2011-01-09T14:22:24Z</time>
      </trkpt>
      <trkpt lat="49.47579" lon="1.08003">
        <ele>195</ele>
        <time>2011-01-09T14:22:26Z</time>
      </trkpt>
      <trkpt lat="49.47586" lon="1.08018">
        <ele>196</ele>
        <time>2011-01-09T14:22:28Z</time>
      </trkpt>
      <trkpt lat="49.47591" lon="1.08031">
        <ele>196</ele>
        <time>2011-01-09T14:22:30Z</time>
      </trkpt>
      <trkpt lat="49.47596" lon="1.08044">
        <ele>197</ele>
        <time>2011-01-09T14:22:32Z</time>
      </trkpt>
      <trkpt lat="49.47601" lon="1.08057">
        <ele>197</ele>
        <time>2011-01-09T14:22:34Z</time>
      </trkpt>
      <trkpt lat="49.47605" lon="1.08069">
        <ele>198</ele>
        <time>2011-01-09T14:22:36Z</time>
      </trkpt>
      <trkpt lat="49.4761" lon="1.08084">
        <ele>198</ele>
        <time>2011-01-09T14:22:38Z</time>
      </trkpt>
      <trkpt lat="49.47616" lon="1.08099">
        <ele>197</ele>
        <time>2011-01-09T14:22:40Z</time>
      </trkpt>
      <trkpt lat="49.4762" lon="1.08114">
        <ele>197</ele>
        <time>2011-01-09T14:22:42Z</time>
      </trkpt>
      <trkpt lat="49.47624" lon="1.08132">
        <ele>196</ele>
        <time>2011-01-09T14:22:44Z</time>
      </trkpt>
      <trkpt lat="49.47627" lon="1.08147">
        <ele>195</ele>
        <time>2011-01-09T14:22:46Z</time>
      </trkpt>
      <trkpt lat="49.47632" lon="1.0816">
        <ele>195</ele>
        <time>2011-01-09T14:22:48Z</time>
      </trkpt>
      <trkpt lat="49.47637" lon="1.08179">
        <ele>194</ele>
        <time>2011-01-09T14:22:51Z</time>
      </trkpt>
      <trkpt lat="49.47641" lon="1.08196">
        <ele>194</ele>
        <time>2011-01-09T14:22:54Z</time>
      </trkpt>
      <trkpt lat="49.47646" lon="1.08213">
        <ele>194</ele>
        <time>2011-01-09T14:22:57Z</time>
      </trkpt>
      <trkpt lat="49.47652" lon="1.0823">
        <ele>194</ele>
        <time>2011-01-09T14:23:00Z</time>
      </trkpt>
      <trkpt lat="49.47656" lon="1.08243">
        <ele>194</ele>
        <time>2011-01-09T14:23:02Z</time>
      </trkpt>
      <trkpt lat="49.47664" lon="1.0826">
        <ele>194</ele>
        <time>2011-01-09T14:23:05Z</time>
      </trkpt>
      <trkpt lat="49.47669" lon="1.08273">
        <ele>194</ele>
        <time>2011-01-09T14:23:07Z</time>
      </trkpt>
      <trkpt lat="49.47674" lon="1.08288">
        <ele>194</ele>
        <time>2011-01-09T14:23:09Z</time>
      </trkpt>
      <trkpt lat="49.47679" lon="1.08308">
        <ele>194</ele>
        <time>2011-01-09T14:23:12Z</time>
      </trkpt>
      <trkpt lat="49.47682" lon="1.08323">
        <ele>194</ele>
        <time>2011-01-09T14:23:14Z</time>
      </trkpt>
      <trkpt lat="49.47686" lon="1.08342">
        <ele>194</ele>
        <time>2011-01-09T14:23:17Z</time>
      </trkpt>
      <trkpt lat="49.47692" lon="1.08359">
        <ele>194</ele>
        <time>2011-01-09T14:23:20Z</time>
      </trkpt>
      <trkpt lat="49.47697" lon="1.08378">
        <ele>194</ele>
        <time>2011-01-09T14:23:23Z</time>
      </trkpt>
      <trkpt lat="49.47701" lon="1.08391">
        <ele>194</ele>
        <time>2011-01-09T14:23:25Z</time>
      </trkpt>
      <trkpt lat="49.47705" lon="1.08406">
        <ele>194</ele>
        <time>2011-01-09T14:23:27Z</time>
      </trkpt>
      <trkpt lat="49.47709" lon="1.08426">
        <ele>194</ele>
        <time>2011-01-09T14:23:30Z</time>
      </trkpt>
      <trkpt lat="49.47712" lon="1.08441">
        <ele>194</ele>
        <time>2011-01-09T14:23:32Z</time>
      </trkpt>
      <trkpt lat="49.47715" lon="1.08456">
        <ele>194</ele>
        <time>2011-01-09T14:23:34Z</time>
      </trkpt>
      <trkpt lat="49.4772" lon="1.08475">
        <ele>194</ele>
        <time>2011-01-09T14:23:37Z</time>
      </trkpt>
      <trkpt lat="49.47724" lon="1.08492">
        <ele>194</ele>
        <time>2011-01-09T14:23:40Z</time>
      </trkpt>
      <trkpt lat="49.47728" lon="1.08511">
        <ele>195</ele>
        <time>2011-01-09T14:23:43Z</time>
      </trkpt>
      <trkpt lat="49.47733" lon="1.08531">
        <ele>195</ele>
        <time>2011-01-09T14:23:46Z</time>
      </trkpt>
      <trkpt lat="49.47735" lon="1.08546">
        <ele>195</ele>
        <time>2011-01-09T14:23:48Z</time>
      </trkpt>
      <trkpt lat="49.47737" lon="1.08565">
        <ele>195</ele>
        <time>2011-01-09T14:23:51Z</time>
      </trkpt>
      <trkpt lat="49.4774" lon="1.08584">
        <ele>195</ele>
        <time>2011-01-09T14:23:54Z</time>
      </trkpt>
      <trkpt lat="49.47742" lon="1.08604">
        <ele>195</ele>
        <time>2011-01-09T14:23:57Z</time>
      </trkpt>
      <trkpt lat="49.47744" lon="1.08623">
        <ele>195</ele>
        <time>2011-01-09T14:24:00Z</time>
      </trkpt>
      <trkpt lat="49.47748" lon="1.08642">
        <ele>195</ele>
        <time>2011-01-09T14:24:03Z</time>
      </trkpt>
      <trkpt lat="49.47751" lon="1.08662">
        <ele>194</ele>
        <time>2011-01-09T14:24:06Z</time>
      </trkpt>
      <trkpt lat="49.47754" lon="1.08679">
        <ele>194</ele>
        <time>2011-01-09T14:24:09Z</time>
      </trkpt>
      <trkpt lat="49.47756" lon="1.08698">
        <ele>194</ele>
        <time>2011-01-09T14:24:12Z</time>
      </trkpt>
      <trkpt lat="49.47758" lon="1.08715">
        <ele>194</ele>
        <time>2011-01-09T14:24:15Z</time>
      </trkpt>
      <trkpt lat="49.4776" lon="1.0873">
        <ele>194</ele>
        <time>2011-01-09T14:24:18Z</time>
      </trkpt>
      <trkpt lat="49.47764" lon="1.08745">
        <ele>194</ele>
        <time>2011-01-09T14:24:21Z</time>
      </trkpt>
      <trkpt lat="49.47766" lon="1.0876">
        <ele>194</ele>
        <time>2011-01-09T14:24:24Z</time>
      </trkpt>
      <trkpt lat="49.47768" lon="1.08778">
        <ele>195</ele>
        <time>2011-01-09T14:24:27Z</time>
      </trkpt>
      <trkpt lat="49.47767" lon="1.08795">
        <ele>195</ele>
        <time>2011-01-09T14:24:30Z</time>
      </trkpt>
      <trkpt lat="49.47768" lon="1.08812">
        <ele>195</ele>
        <time>2011-01-09T14:24:33Z</time>
      </trkpt>
      <trkpt lat="49.47769" lon="1.08829">
        <ele>195</ele>
        <time>2011-01-09T14:24:36Z</time>
      </trkpt>
      <trkpt lat="49.47771" lon="1.08846">
        <ele>195</ele>
        <time>2011-01-09T14:24:39Z</time>
      </trkpt>
      <trkpt lat="49.47772" lon="1.08863">
        <ele>196</ele>
        <time>2011-01-09T14:24:42Z</time>
      </trkpt>
      <trkpt lat="49.47774" lon="1.08878">
        <ele>196</ele>
        <time>2011-01-09T14:24:45Z</time>
      </trkpt>
      <trkpt lat="49.47774" lon="1.08896">
        <ele>196</ele>
        <time>2011-01-09T14:24:48Z</time>
      </trkpt>
      <trkpt lat="49.47775" lon="1.08911">
        <ele>196</ele>
        <time>2011-01-09T14:24:51Z</time>
      </trkpt>
      <trkpt lat="49.47777" lon="1.08928">
        <ele>196</ele>
        <time>2011-01-09T14:24:54Z</time>
      </trkpt>
      <trkpt lat="49.47778" lon="1.08945">
        <ele>196</ele>
        <time>2011-01-09T14:24:57Z</time>
      </trkpt>
      <trkpt lat="49.47778" lon="1.0896">
        <ele>196</ele>
        <time>2011-01-09T14:25:00Z</time>
      </trkpt>
      <trkpt lat="49.47778" lon="1.08975">
        <ele>197</ele>
        <time>2011-01-09T14:25:03Z</time>
      </trkpt>
      <trkpt lat="49.47777" lon="1.0899">
        <ele>197</ele>
        <time>2011-01-09T14:25:06Z</time>
      </trkpt>
      <trkpt lat="49.47768" lon="1.09001">
        <ele>197</ele>
        <time>2011-01-09T14:25:10Z</time>
      </trkpt>
      <trkpt lat="49.47757" lon="1.09003">
        <ele>197</ele>
        <time>2011-01-09T14:25:13Z</time>
      </trkpt>
      <trkpt lat="49.47748" lon="1.09005">
        <ele>197</ele>
        <time>2011-01-09T14:25:16Z</time>
      </trkpt>
      <trkpt lat="49.47737" lon="1.09007">
        <ele>198</ele>
        <time>2011-01-09T14:25:19Z</time>
      </trkpt>
      <trkpt lat="49.47727" lon="1.09009">
        <ele>198</ele>
        <time>2011-01-09T14:25:22Z</time>
      </trkpt>
      <trkpt lat="49.47716" lon="1.09014">
        <ele>198</ele>
        <time>2011-01-09T14:25:25Z</time>
      </trkpt>
      <trkpt lat="49.47706" lon="1.09018">
        <ele>199</ele>
        <time>2011-01-09T14:25:28Z</time>
      </trkpt>
      <trkpt lat="49.47695" lon="1.0902">
        <ele>199</ele>
        <time>2011-01-09T14:25:31Z</time>
      </trkpt>
      <trkpt lat="49.47684" lon="1.09022">
        <ele>200</ele>
        <time>2011-01-09T14:25:34Z</time>
      </trkpt>
      <trkpt lat="49.47675" lon="1.09022">
        <ele>200</ele>
        <time>2011-01-09T14:25:37Z</time>
      </trkpt>
      <trkpt lat="49.47665" lon="1.09026">
        <ele>200</ele>
        <time>2011-01-09T14:25:41Z</time>
      </trkpt>
      <trkpt lat="49.47664" lon="1.09041">
        <ele>201</ele>
        <time>2011-01-09T14:25:45Z</time>
      </trkpt>
      <trkpt lat="49.47668" lon="1.09056">
        <ele>202</ele>
        <time>2011-01-09T14:25:48Z</time>
      </trkpt>
      <trkpt lat="49.47672" lon="1.09071">
        <ele>202</ele>
        <time>2011-01-09T14:25:51Z</time>
      </trkpt>
      <trkpt lat="49.47676" lon="1.09087">
        <ele>203</ele>
        <time>2011-01-09T14:25:54Z</time>
      </trkpt>
      <trkpt lat="49.47679" lon="1.09104">
        <ele>203</ele>
        <time>2011-01-09T14:25:57Z</time>
      </trkpt>
      <trkpt lat="49.4768" lon="1.09119">
        <ele>204</ele>
        <time>2011-01-09T14:26:00Z</time>
      </trkpt>
      <trkpt lat="49.47679" lon="1.09153">
        <ele>206</ele>
        <time>2011-01-09T14:26:06Z</time>
      </trkpt>
      <trkpt lat="49.47675" lon="1.09168">
        <ele>206</ele>
        <time>2011-01-09T14:26:09Z</time>
      </trkpt>
      <trkpt lat="49.47672" lon="1.09183">
        <ele>207</ele>
        <time>2011-01-09T14:26:12Z</time>
      </trkpt>
      <trkpt lat="49.4767" lon="1.092">
        <ele>207</ele>
        <time>2011-01-09T14:26:15Z</time>
      </trkpt>
      <trkpt lat="49.4767" lon="1.09217">
        <ele>207</ele>
        <time>2011-01-09T14:26:18Z</time>
      </trkpt>
      <trkpt lat="49.47676" lon="1.0923">
        <ele>207</ele>
        <time>2011-01-09T14:26:21Z</time>
      </trkpt>
      <trkpt lat="49.47683" lon="1.09239">
        <ele>207</ele>
        <time>2011-01-09T14:26:25Z</time>
      </trkpt>
      <trkpt lat="49.47697" lon="1.09265">
        <ele>209</ele>
        <time>2011-01-09T14:26:38Z</time>
      </trkpt>
      <trkpt lat="49.47703" lon="1.09277">
        <ele>209</ele>
        <time>2011-01-09T14:26:42Z</time>
      </trkpt>
      <trkpt lat="49.47712" lon="1.09286">
        <ele>209</ele>
        <time>2011-01-09T14:26:46Z</time>
      </trkpt>
      <trkpt lat="49.47722" lon="1.0929">
        <ele>209</ele>
        <time>2011-01-09T14:26:49Z</time>
      </trkpt>
      <trkpt lat="49.47733" lon="1.09293">
        <ele>209</ele>
        <time>2011-01-09T14:26:52Z</time>
      </trkpt>
      <trkpt lat="49.47743" lon="1.09297">
        <ele>209</ele>
        <time>2011-01-09T14:26:55Z</time>
      </trkpt>
      <trkpt lat="49.47754" lon="1.09299">
        <ele>209</ele>
        <time>2011-01-09T14:26:58Z</time>
      </trkpt>
      <trkpt lat="49.47765" lon="1.09301">
        <ele>209</ele>
        <time>2011-01-09T14:27:01Z</time>
      </trkpt>
      <trkpt lat="49.47775" lon="1.09303">
        <ele>209</ele>
        <time>2011-01-09T14:27:04Z</time>
      </trkpt>
      <trkpt lat="49.47785" lon="1.09305">
        <ele>209</ele>
        <time>2011-01-09T14:27:07Z</time>
      </trkpt>
      <trkpt lat="49.47795" lon="1.09305">
        <ele>209</ele>
        <time>2011-01-09T14:27:10Z</time>
      </trkpt>
      <trkpt lat="49.47806" lon="1.09305">
        <ele>209</ele>
        <time>2011-01-09T14:27:13Z</time>
      </trkpt>
      <trkpt lat="49.47817" lon="1.09305">
        <ele>210</ele>
        <time>2011-01-09T14:27:16Z</time>
      </trkpt>
      <trkpt lat="49.47827" lon="1.09305">
        <ele>210</ele>
        <time>2011-01-09T14:27:18Z</time>
      </trkpt>
      <trkpt lat="49.47837" lon="1.09305">
        <ele>209</ele>
        <time>2011-01-09T14:27:20Z</time>
      </trkpt>
      <trkpt lat="49.47847" lon="1.09308">
        <ele>208</ele>
        <time>2011-01-09T14:27:22Z</time>
      </trkpt>
      <trkpt lat="49.47858" lon="1.09308">
        <ele>208</ele>
        <time>2011-01-09T14:27:24Z</time>
      </trkpt>
      <trkpt lat="49.4787" lon="1.0931">
        <ele>207</ele>
        <time>2011-01-09T14:27:27Z</time>
      </trkpt>
      <trkpt lat="49.4788" lon="1.09303">
        <ele>207</ele>
        <time>2011-01-09T14:27:32Z</time>
      </trkpt>
      <trkpt lat="49.47889" lon="1.09303">
        <ele>207</ele>
        <time>2011-01-09T14:27:38Z</time>
      </trkpt>
      <trkpt lat="49.479" lon="1.09305">
        <ele>207</ele>
        <time>2011-01-09T14:27:43Z</time>
      </trkpt>
      <trkpt lat="49.47911" lon="1.09308">
        <ele>207</ele>
        <time>2011-01-09T14:27:47Z</time>
      </trkpt>
      <trkpt lat="49.4792" lon="1.09308">
        <ele>206</ele>
        <time>2011-01-09T14:27:53Z</time>
      </trkpt>
      <trkpt lat="49.47928" lon="1.09316">
        <ele>206</ele>
        <time>2011-01-09T14:27:58Z</time>
      </trkpt>
      <trkpt lat="49.47939" lon="1.0932">
        <ele>207</ele>
        <time>2011-01-09T14:28:01Z</time>
      </trkpt>
      <trkpt lat="49.47948" lon="1.09323">
        <ele>207</ele>
        <time>2011-01-09T14:28:03Z</time>
      </trkpt>
      <trkpt lat="49.47959" lon="1.09323">
        <ele>206</ele>
        <time>2011-01-09T14:28:05Z</time>
      </trkpt>
      <trkpt lat="49.47971" lon="1.09323">
        <ele>205</ele>
        <time>2011-01-09T14:28:07Z</time>
      </trkpt>
      <trkpt lat="49.47983" lon="1.09323">
        <ele>205</ele>
        <time>2011-01-09T14:28:09Z</time>
      </trkpt>
      <trkpt lat="49.47995" lon="1.09323">
        <ele>204</ele>
        <time>2011-01-09T14:28:11Z</time>
      </trkpt>
      <trkpt lat="49.48007" lon="1.09323">
        <ele>203</ele>
        <time>2011-01-09T14:28:13Z</time>
      </trkpt>
      <trkpt lat="49.4802" lon="1.09323">
        <ele>203</ele>
        <time>2011-01-09T14:28:15Z</time>
      </trkpt>
      <trkpt lat="49.48031" lon="1.09323">
        <ele>202</ele>
        <time>2011-01-09T14:28:17Z</time>
      </trkpt>
      <trkpt lat="49.48042" lon="1.09323">
        <ele>202</ele>
        <time>2011-01-09T14:28:19Z</time>
      </trkpt>
      <trkpt lat="49.48051" lon="1.09323">
        <ele>202</ele>
        <time>2011-01-09T14:28:21Z</time>
      </trkpt>
      <trkpt lat="49.48062" lon="1.09325">
        <ele>202</ele>
        <time>2011-01-09T14:28:23Z</time>
      </trkpt>
      <trkpt lat="49.48074" lon="1.09325">
        <ele>202</ele>
        <time>2011-01-09T14:28:25Z</time>
      </trkpt>
      <trkpt lat="49.48086" lon="1.09325">
        <ele>202</ele>
        <time>2011-01-09T14:28:27Z</time>
      </trkpt>
      <trkpt lat="49.48098" lon="1.09327">
        <ele>202</ele>
        <time>2011-01-09T14:28:29Z</time>
      </trkpt>
      <trkpt lat="49.48111" lon="1.09327">
        <ele>202</ele>
        <time>2011-01-09T14:28:31Z</time>
      </trkpt>
      <trkpt lat="49.48124" lon="1.09329">
        <ele>202</ele>
        <time>2011-01-09T14:28:33Z</time>
      </trkpt>
      <trkpt lat="49.48137" lon="1.09329">
        <ele>202</ele>
        <time>2011-01-09T14:28:35Z</time>
      </trkpt>
      <trkpt lat="49.4815" lon="1.09331">
        <ele>202</ele>
        <time>2011-01-09T14:28:37Z</time>
      </trkpt>
      <trkpt lat="49.48163" lon="1.09331">
        <ele>202</ele>
        <time>2011-01-09T14:28:39Z</time>
      </trkpt>
      <trkpt lat="49.48177" lon="1.09329">
        <ele>202</ele>
        <time>2011-01-09T14:28:41Z</time>
      </trkpt>
      <trkpt lat="49.48191" lon="1.09329">
        <ele>202</ele>
        <time>2011-01-09T14:28:43Z</time>
      </trkpt>
      <trkpt lat="49.48205" lon="1.09329">
        <ele>202</ele>
        <time>2011-01-09T14:28:45Z</time>
      </trkpt>
      <trkpt lat="49.48219" lon="1.09329">
        <ele>202</ele>
        <time>2011-01-09T14:28:47Z</time>
      </trkpt>
      <trkpt lat="49.48233" lon="1.09329">
        <ele>202</ele>
        <time>2011-01-09T14:28:49Z</time>
      </trkpt>
      <trkpt lat="49.48248" lon="1.09331">
        <ele>201</ele>
        <time>2011-01-09T14:28:51Z</time>
      </trkpt>
      <trkpt lat="49.48264" lon="1.09335">
        <ele>201</ele>
        <time>2011-01-09T14:28:53Z</time>
      </trkpt>
      <trkpt lat="49.48279" lon="1.0934">
        <ele>201</ele>
        <time>2011-01-09T14:28:55Z</time>
      </trkpt>
      <trkpt lat="49.48294" lon="1.09348">
        <ele>201</ele>
        <time>2011-01-09T14:28:57Z</time>
      </trkpt>
      <trkpt lat="49.48309" lon="1.09359">
        <ele>201</ele>
        <time>2011-01-09T14:28:59Z</time>
      </trkpt>
      <trkpt lat="49.48322" lon="1.0937">
        <ele>200</ele>
        <time>2011-01-09T14:29:01Z</time>
      </trkpt>
      <trkpt lat="49.48333" lon="1.09378">
        <ele>200</ele>
        <time>2011-01-09T14:29:03Z</time>
      </trkpt>
      <trkpt lat="49.48344" lon="1.09387">
        <ele>199</ele>
        <time>2011-01-09T14:29:06Z</time>
      </trkpt>
      <trkpt lat="49.48351" lon="1.09398">
        <ele>199</ele>
        <time>2011-01-09T14:29:09Z</time>
      </trkpt>
      <trkpt lat="49.48352" lon="1.09415">
        <ele>196</ele>
        <time>2011-01-09T14:29:37Z</time>
      </trkpt>
      <trkpt lat="49.48347" lon="1.09443">
        <ele>196</ele>
        <time>2011-01-09T14:30:17Z</time>
      </trkpt>
      <trkpt lat="49.48343" lon="1.09458">
        <ele>196</ele>
        <time>2011-01-09T14:30:22Z</time>
      </trkpt>
      <trkpt lat="49.48342" lon="1.09473">
        <ele>196</ele>
        <time>2011-01-09T14:30:26Z</time>
      </trkpt>
      <trkpt lat="49.48342" lon="1.09488">
        <ele>195</ele>
        <time>2011-01-09T14:30:41Z</time>
      </trkpt>
      <trkpt lat="49.48344" lon="1.09507">
        <ele>194</ele>
        <time>2011-01-09T14:30:56Z</time>
      </trkpt>
      <trkpt lat="49.48348" lon="1.09522">
        <ele>193</ele>
        <time>2011-01-09T14:31:03Z</time>
      </trkpt>
      <trkpt lat="49.48356" lon="1.09533">
        <ele>193</ele>
        <time>2011-01-09T14:31:10Z</time>
      </trkpt>
      <trkpt lat="49.48364" lon="1.09556">
        <ele>193</ele>
        <time>2011-01-09T14:31:28Z</time>
      </trkpt>
      <trkpt lat="49.48358" lon="1.09569">
        <ele>193</ele>
        <time>2011-01-09T14:31:52Z</time>
      </trkpt>
      <trkpt lat="49.48358" lon="1.09597">
        <ele>193</ele>
        <time>2011-01-09T14:32:05Z</time>
      </trkpt>
      <trkpt lat="49.48357" lon="1.09612">
        <ele>193</ele>
        <time>2011-01-09T14:32:12Z</time>
      </trkpt>
      <trkpt lat="49.48358" lon="1.09627">
        <ele>194</ele>
        <time>2011-01-09T14:32:22Z</time>
      </trkpt>
      <trkpt lat="49.48357" lon="1.09642">
        <ele>194</ele>
        <time>2011-01-09T14:32:28Z</time>
      </trkpt>
      <trkpt lat="49.48361" lon="1.09657">
        <ele>193</ele>
        <time>2011-01-09T14:32:34Z</time>
      </trkpt>
      <trkpt lat="49.48367" lon="1.0967">
        <ele>193</ele>
        <time>2011-01-09T14:32:38Z</time>
      </trkpt>
      <trkpt lat="49.48373" lon="1.09685">
        <ele>192</ele>
        <time>2011-01-09T14:32:42Z</time>
      </trkpt>
      <trkpt lat="49.48378" lon="1.097">
        <ele>191</ele>
        <time>2011-01-09T14:32:47Z</time>
      </trkpt>
      <trkpt lat="49.4838" lon="1.09715">
        <ele>191</ele>
        <time>2011-01-09T14:32:51Z</time>
      </trkpt>
      <trkpt lat="49.48381" lon="1.0973">
        <ele>191</ele>
        <time>2011-01-09T14:32:55Z</time>
      </trkpt>
      <trkpt lat="49.48384" lon="1.09745">
        <ele>190</ele>
        <time>2011-01-09T14:33:00Z</time>
      </trkpt>
      <trkpt lat="49.48386" lon="1.0976">
        <ele>190</ele>
        <time>2011-01-09T14:33:05Z</time>
      </trkpt>
      <trkpt lat="49.4839" lon="1.09773">
        <ele>192</ele>
        <time>2011-01-09T14:33:14Z</time>
      </trkpt>
      <trkpt lat="49.48393" lon="1.09788">
        <ele>194</ele>
        <time>2011-01-09T14:33:26Z</time>
      </trkpt>
      <trkpt lat="49.48398" lon="1.09801">
        <ele>197</ele>
        <time>2011-01-09T14:33:41Z</time>
      </trkpt>
      <trkpt lat="49.48404" lon="1.09812">
        <ele>198</ele>
        <time>2011-01-09T14:33:51Z</time>
      </trkpt>
      <trkpt lat="49.48405" lon="1.09827">
        <ele>199</ele>
        <time>2011-01-09T14:34:00Z</time>
      </trkpt>
      <trkpt lat="49.48405" lon="1.09842">
        <ele>200</ele>
        <time>2011-01-09T14:34:08Z</time>
      </trkpt>
      <trkpt lat="49.48401" lon="1.09857">
        <ele>200</ele>
        <time>2011-01-09T14:34:18Z</time>
      </trkpt>
      <trkpt lat="49.48402" lon="1.09872">
        <ele>200</ele>
        <time>2011-01-09T14:34:26Z</time>
      </trkpt>
      <trkpt lat="49.48406" lon="1.09885">
        <ele>200</ele>
        <time>2011-01-09T14:34:32Z</time>
      </trkpt>
      <trkpt lat="49.48414" lon="1.09893">
        <ele>200</ele>
        <time>2011-01-09T14:34:37Z</time>
      </trkpt>
      <trkpt lat="49.48422" lon="1.099">
        <ele>199</ele>
        <time>2011-01-09T14:34:42Z</time>
      </trkpt>
      <trkpt lat="49.48431" lon="1.09904">
        <ele>200</ele>
        <time>2011-01-09T14:34:52Z</time>
      </trkpt>
      <trkpt lat="49.4844" lon="1.0991">
        <ele>202</ele>
        <time>2011-01-09T14:35:00Z</time>
      </trkpt>
      <trkpt lat="49.48448" lon="1.09915">
        <ele>202</ele>
        <time>2011-01-09T14:35:05Z</time>
      </trkpt>
      <trkpt lat="49.48458" lon="1.09919">
        <ele>203</ele>
        <time>2011-01-09T14:35:09Z</time>
      </trkpt>
      <trkpt lat="49.48467" lon="1.09919">
        <ele>204</ele>
        <time>2011-01-09T14:35:14Z</time>
      </trkpt>
      <trkpt lat="49.48477" lon="1.09917">
        <ele>205</ele>
        <time>2011-01-09T14:35:20Z</time>
      </trkpt>
      <trkpt lat="49.48487" lon="1.09915">
        <ele>206</ele>
        <time>2011-01-09T14:35:25Z</time>
      </trkpt>
      <trkpt lat="49.48496" lon="1.09915">
        <ele>207</ele>
        <time>2011-01-09T14:35:31Z</time>
      </trkpt>
      <trkpt lat="49.48506" lon="1.09919">
        <ele>207</ele>
        <time>2011-01-09T14:35:37Z</time>
      </trkpt>
      <trkpt lat="49.48514" lon="1.09928">
        <ele>207</ele>
        <time>2011-01-09T14:35:42Z</time>
      </trkpt>
      <trkpt lat="49.48521" lon="1.09938">
        <ele>206</ele>
        <time>2011-01-09T14:35:48Z</time>
      </trkpt>
      <trkpt lat="49.48528" lon="1.09951">
        <ele>205</ele>
        <time>2011-01-09T14:35:53Z</time>
      </trkpt>
      <trkpt lat="49.48536" lon="1.09956">
        <ele>204</ele>
        <time>2011-01-09T14:35:58Z</time>
      </trkpt>
      <trkpt lat="49.48546" lon="1.09958">
        <ele>203</ele>
        <time>2011-01-09T14:36:03Z</time>
      </trkpt>
      <trkpt lat="49.48557" lon="1.0996">
        <ele>203</ele>
        <time>2011-01-09T14:36:08Z</time>
      </trkpt>
      <trkpt lat="49.48566" lon="1.09958">
        <ele>204</ele>
        <time>2011-01-09T14:36:15Z</time>
      </trkpt>
      <trkpt lat="49.48575" lon="1.09962">
        <ele>204</ele>
        <time>2011-01-09T14:36:22Z</time>
      </trkpt>
      <trkpt lat="49.48582" lon="1.09973">
        <ele>204</ele>
        <time>2011-01-09T14:36:29Z</time>
      </trkpt>
      <trkpt lat="49.48591" lon="1.09977">
        <ele>204</ele>
        <time>2011-01-09T14:36:35Z</time>
      </trkpt>
      <trkpt lat="49.48599" lon="1.09986">
        <ele>205</ele>
        <time>2011-01-09T14:36:42Z</time>
      </trkpt>
      <trkpt lat="49.48609" lon="1.09992">
        <ele>206</ele>
        <time>2011-01-09T14:36:49Z</time>
      </trkpt>
      <trkpt lat="49.48617" lon="1.10003">
        <ele>207</ele>
        <time>2011-01-09T14:36:55Z</time>
      </trkpt>
      <trkpt lat="49.48625" lon="1.10011">
        <ele>208</ele>
        <time>2011-01-09T14:37:00Z</time>
      </trkpt>
      <trkpt lat="49.48634" lon="1.10018">
        <ele>209</ele>
        <time>2011-01-09T14:37:05Z</time>
      </trkpt>
      <trkpt lat="49.48642" lon="1.10022">
        <ele>210</ele>
        <time>2011-01-09T14:37:13Z</time>
      </trkpt>
      <trkpt lat="49.48651" lon="1.10026">
        <ele>211</ele>
        <time>2011-01-09T14:37:21Z</time>
      </trkpt>
      <trkpt lat="49.48661" lon="1.10022">
        <ele>211</ele>
        <time>2011-01-09T14:37:26Z</time>
      </trkpt>
      <trkpt lat="49.4867" lon="1.10018">
        <ele>212</ele>
        <time>2011-01-09T14:37:31Z</time>
      </trkpt>
      <trkpt lat="49.4868" lon="1.10016">
        <ele>213</ele>
        <time>2011-01-09T14:37:37Z</time>
      </trkpt>
      <trkpt lat="49.48689" lon="1.10005">
        <ele>213</ele>
        <time>2011-01-09T14:37:43Z</time>
      </trkpt>
      <trkpt lat="49.48698" lon="1.09998">
        <ele>214</ele>
        <time>2011-01-09T14:37:48Z</time>
      </trkpt>
      <trkpt lat="49.48714" lon="1.09979">
        <ele>215</ele>
        <time>2011-01-09T14:38:00Z</time>
      </trkpt>
      <trkpt lat="49.48723" lon="1.09975">
        <ele>215</ele>
        <time>2011-01-09T14:38:06Z</time>
      </trkpt>
      <trkpt lat="49.48732" lon="1.09975">
        <ele>215</ele>
        <time>2011-01-09T14:38:12Z</time>
      </trkpt>
      <trkpt lat="49.48742" lon="1.09968">
        <ele>215</ele>
        <time>2011-01-09T14:38:19Z</time>
      </trkpt>
      <trkpt lat="49.48751" lon="1.09962">
        <ele>215</ele>
        <time>2011-01-09T14:38:25Z</time>
      </trkpt>
      <trkpt lat="49.48769" lon="1.0996">
        <ele>214</ele>
        <time>2011-01-09T14:38:42Z</time>
      </trkpt>
      <trkpt lat="49.48779" lon="1.09958">
        <ele>214</ele>
        <time>2011-01-09T14:38:58Z</time>
      </trkpt>
      <trkpt lat="49.48787" lon="1.09951">
        <ele>214</ele>
        <time>2011-01-09T14:39:04Z</time>
      </trkpt>
      <trkpt lat="49.48796" lon="1.09945">
        <ele>214</ele>
        <time>2011-01-09T14:39:10Z</time>
      </trkpt>
      <trkpt lat="49.48804" lon="1.09938">
        <ele>214</ele>
        <time>2011-01-09T14:39:16Z</time>
      </trkpt>
      <trkpt lat="49.48813" lon="1.09932">
        <ele>214</ele>
        <time>2011-01-09T14:39:31Z</time>
      </trkpt>
      <trkpt lat="49.48823" lon="1.0993">
        <ele>214</ele>
        <time>2011-01-09T14:39:40Z</time>
      </trkpt>
      <trkpt lat="49.48833" lon="1.0993">
        <ele>214</ele>
        <time>2011-01-09T14:39:46Z</time>
      </trkpt>
      <trkpt lat="49.48843" lon="1.0993">
        <ele>213</ele>
        <time>2011-01-09T14:39:52Z</time>
      </trkpt>
      <trkpt lat="49.48853" lon="1.09928">
        <ele>213</ele>
        <time>2011-01-09T14:40:00Z</time>
      </trkpt>
      <trkpt lat="49.48863" lon="1.09928">
        <ele>213</ele>
        <time>2011-01-09T14:40:07Z</time>
      </trkpt>
      <trkpt lat="49.48873" lon="1.09926">
        <ele>213</ele>
        <time>2011-01-09T14:40:12Z</time>
      </trkpt>
      <trkpt lat="49.48884" lon="1.09923">
        <ele>213</ele>
        <time>2011-01-09T14:40:16Z</time>
      </trkpt>
      <trkpt lat="49.48892" lon="1.09919">
        <ele>213</ele>
        <time>2011-01-09T14:40:19Z</time>
      </trkpt>
      <trkpt lat="49.48902" lon="1.09919">
        <ele>213</ele>
        <time>2011-01-09T14:40:23Z</time>
      </trkpt>
      <trkpt lat="49.48912" lon="1.09917">
        <ele>214</ele>
        <time>2011-01-09T14:40:28Z</time>
      </trkpt>
      <trkpt lat="49.48921" lon="1.09915">
        <ele>214</ele>
        <time>2011-01-09T14:40:32Z</time>
      </trkpt>
      <trkpt lat="49.4893" lon="1.09919">
        <ele>214</ele>
        <time>2011-01-09T14:40:36Z</time>
      </trkpt>
      <trkpt lat="49.48938" lon="1.09923">
        <ele>215</ele>
        <time>2011-01-09T14:40:41Z</time>
      </trkpt>
      <trkpt lat="49.48948" lon="1.09928">
        <ele>215</ele>
        <time>2011-01-09T14:40:47Z</time>
      </trkpt>
      <trkpt lat="49.48958" lon="1.09932">
        <ele>215</ele>
        <time>2011-01-09T14:40:54Z</time>
      </trkpt>
      <trkpt lat="49.48967" lon="1.09934">
        <ele>216</ele>
        <time>2011-01-09T14:41:00Z</time>
      </trkpt>
      <trkpt lat="49.48977" lon="1.09936">
        <ele>216</ele>
        <time>2011-01-09T14:41:05Z</time>
      </trkpt>
      <trkpt lat="49.48986" lon="1.09945">
        <ele>217</ele>
        <time>2011-01-09T14:41:10Z</time>
      </trkpt>
      <trkpt lat="49.48994" lon="1.09956">
        <ele>217</ele>
        <time>2011-01-09T14:41:14Z</time>
      </trkpt>
      <trkpt lat="49.49001" lon="1.09966">
        <ele>218</ele>
        <time>2011-01-09T14:41:17Z</time>
      </trkpt>
      <trkpt lat="49.49008" lon="1.09977">
        <ele>218</ele>
        <time>2011-01-09T14:41:20Z</time>
      </trkpt>
      <trkpt lat="49.49017" lon="1.0999">
        <ele>217</ele>
        <time>2011-01-09T14:41:23Z</time>
      </trkpt>
      <trkpt lat="49.49025" lon="1.10005">
        <ele>216</ele>
        <time>2011-01-09T14:41:26Z</time>
      </trkpt>
      <trkpt lat="49.49034" lon="1.1002">
        <ele>215</ele>
        <time>2011-01-09T14:41:29Z</time>
      </trkpt>
      <trkpt lat="49.4904" lon="1.10035">
        <ele>215</ele>
        <time>2011-01-09T14:41:32Z</time>
      </trkpt>
      <trkpt lat="49.49046" lon="1.10052">
        <ele>214</ele>
        <time>2011-01-09T14:41:35Z</time>
      </trkpt>
      <trkpt lat="49.4905" lon="1.10069">
        <ele>214</ele>
        <time>2011-01-09T14:41:38Z</time>
      </trkpt>
      <trkpt lat="49.49055" lon="1.10084">
        <ele>213</ele>
        <time>2011-01-09T14:41:41Z</time>
      </trkpt>
      <trkpt lat="49.4906" lon="1.10099">
        <ele>213</ele>
        <time>2011-01-09T14:41:44Z</time>
      </trkpt>
      <trkpt lat="49.49064" lon="1.10114">
        <ele>212</ele>
        <time>2011-01-09T14:41:47Z</time>
      </trkpt>
      <trkpt lat="49.49069" lon="1.10129">
        <ele>212</ele>
        <time>2011-01-09T14:41:50Z</time>
      </trkpt>
      <trkpt lat="49.49076" lon="1.10142">
        <ele>212</ele>
        <time>2011-01-09T14:41:53Z</time>
      </trkpt>
      <trkpt lat="49.49081" lon="1.10157">
        <ele>211</ele>
        <time>2011-01-09T14:41:56Z</time>
      </trkpt>
      <trkpt lat="49.49089" lon="1.10172">
        <ele>211</ele>
        <time>2011-01-09T14:42:00Z</time>
      </trkpt>
      <trkpt lat="49.49093" lon="1.10189">
        <ele>211</ele>
        <time>2011-01-09T14:42:04Z</time>
      </trkpt>
      <trkpt lat="49.49098" lon="1.10204">
        <ele>211</ele>
        <time>2011-01-09T14:42:08Z</time>
      </trkpt>
      <trkpt lat="49.49105" lon="1.10219">
        <ele>211</ele>
        <time>2011-01-09T14:42:12Z</time>
      </trkpt>
      <trkpt lat="49.49111" lon="1.10234">
        <ele>211</ele>
        <time>2011-01-09T14:42:16Z</time>
      </trkpt>
      <trkpt lat="49.49117" lon="1.1025">
        <ele>211</ele>
        <time>2011-01-09T14:42:20Z</time>
      </trkpt>
      <trkpt lat="49.49122" lon="1.10265">
        <ele>211</ele>
        <time>2011-01-09T14:42:24Z</time>
      </trkpt>
      <trkpt lat="49.49125" lon="1.10282">
        <ele>212</ele>
        <time>2011-01-09T14:42:28Z</time>
      </trkpt>
      <trkpt lat="49.49128" lon="1.10299">
        <ele>212</ele>
        <time>2011-01-09T14:42:32Z</time>
      </trkpt>
      <trkpt lat="49.49131" lon="1.10314">
        <ele>213</ele>
        <time>2011-01-09T14:42:35Z</time>
      </trkpt>
      <trkpt lat="49.49131" lon="1.10331">
        <ele>213</ele>
        <time>2011-01-09T14:42:39Z</time>
      </trkpt>
      <trkpt lat="49.49127" lon="1.10348">
        <ele>214</ele>
        <time>2011-01-09T14:42:43Z</time>
      </trkpt>
      <trkpt lat="49.49122" lon="1.10363">
        <ele>214</ele>
        <time>2011-01-09T14:42:47Z</time>
      </trkpt>
      <trkpt lat="49.49116" lon="1.10374">
        <ele>215</ele>
        <time>2011-01-09T14:42:52Z</time>
      </trkpt>
      <trkpt lat="49.49119" lon="1.10389">
        <ele>215</ele>
        <time>2011-01-09T14:42:58Z</time>
      </trkpt>
      <trkpt lat="49.49132" lon="1.10391">
        <ele>216</ele>
        <time>2011-01-09T14:43:02Z</time>
      </trkpt>
      <trkpt lat="49.4914" lon="1.10387">
        <ele>217</ele>
        <time>2011-01-09T14:43:04Z</time>
      </trkpt>
      <trkpt lat="49.49156" lon="1.10378">
        <ele>218</ele>
        <time>2011-01-09T14:43:06Z</time>
      </trkpt>
      <trkpt lat="49.49167" lon="1.1037">
        <ele>219</ele>
        <time>2011-01-09T14:43:08Z</time>
      </trkpt>
      <trkpt lat="49.49178" lon="1.10361">
        <ele>220</ele>
        <time>2011-01-09T14:43:10Z</time>
      </trkpt>
      <trkpt lat="49.49187" lon="1.1035">
        <ele>220</ele>
        <time>2011-01-09T14:43:12Z</time>
      </trkpt>
      <trkpt lat="49.49197" lon="1.1034">
        <ele>220</ele>
        <time>2011-01-09T14:43:14Z</time>
      </trkpt>
      <trkpt lat="49.49222" lon="1.10312">
        <ele>222</ele>
        <time>2011-01-09T14:43:20Z</time>
      </trkpt>
      <trkpt lat="49.49239" lon="1.10292">
        <ele>221</ele>
        <time>2011-01-09T14:43:25Z</time>
      </trkpt>
      <trkpt lat="49.49251" lon="1.10292">
        <ele>221</ele>
        <time>2011-01-09T14:43:29Z</time>
      </trkpt>
      <trkpt lat="49.49253" lon="1.1031">
        <ele>221</ele>
        <time>2011-01-09T14:43:33Z</time>
      </trkpt>
      <trkpt lat="49.49252" lon="1.10329">
        <ele>220</ele>
        <time>2011-01-09T14:43:37Z</time>
      </trkpt>
      <trkpt lat="49.49251" lon="1.10344">
        <ele>220</ele>
        <time>2011-01-09T14:43:40Z</time>
      </trkpt>
      <trkpt lat="49.4925" lon="1.10359">
        <ele>219</ele>
        <time>2011-01-09T14:43:43Z</time>
      </trkpt>
      <trkpt lat="49.49251" lon="1.10376">
        <ele>219</ele>
        <time>2011-01-09T14:43:46Z</time>
      </trkpt>
      <trkpt lat="49.49254" lon="1.10393">
        <ele>218</ele>
        <time>2011-01-09T14:43:49Z</time>
      </trkpt>
      <trkpt lat="49.49257" lon="1.10413">
        <ele>218</ele>
        <time>2011-01-09T14:43:52Z</time>
      </trkpt>
      <trkpt lat="49.49261" lon="1.1043">
        <ele>217</ele>
        <time>2011-01-09T14:43:55Z</time>
      </trkpt>
      <trkpt lat="49.49269" lon="1.10445">
        <ele>217</ele>
        <time>2011-01-09T14:43:58Z</time>
      </trkpt>
      <trkpt lat="49.49284" lon="1.10471">
        <ele>216</ele>
        <time>2011-01-09T14:44:05Z</time>
      </trkpt>
      <trkpt lat="49.49295" lon="1.10498">
        <ele>214</ele>
        <time>2011-01-09T14:44:12Z</time>
      </trkpt>
      <trkpt lat="49.493" lon="1.10513">
        <ele>213</ele>
        <time>2011-01-09T14:44:15Z</time>
      </trkpt>
      <trkpt lat="49.49304" lon="1.10531">
        <ele>213</ele>
        <time>2011-01-09T14:44:18Z</time>
      </trkpt>
      <trkpt lat="49.49305" lon="1.10546">
        <ele>213</ele>
        <time>2011-01-09T14:44:22Z</time>
      </trkpt>
      <trkpt lat="49.49304" lon="1.10561">
        <ele>212</ele>
        <time>2011-01-09T14:44:28Z</time>
      </trkpt>
      <trkpt lat="49.4931" lon="1.10574">
        <ele>211</ele>
        <time>2011-01-09T14:45:00Z</time>
      </trkpt>
      <trkpt lat="49.49305" lon="1.10559">
        <ele>210</ele>
        <time>2011-01-09T14:46:10Z</time>
      </trkpt>
      <trkpt lat="49.49306" lon="1.10543">
        <ele>211</ele>
        <time>2011-01-09T14:46:15Z</time>
      </trkpt>
      <trkpt lat="49.49316" lon="1.10537">
        <ele>209</ele>
        <time>2011-01-09T14:46:33Z</time>
      </trkpt>
      <trkpt lat="49.49326" lon="1.10539">
        <ele>208</ele>
        <time>2011-01-09T14:46:39Z</time>
      </trkpt>
      <trkpt lat="49.49335" lon="1.10541">
        <ele>208</ele>
        <time>2011-01-09T14:46:45Z</time>
      </trkpt>
      <trkpt lat="49.49344" lon="1.10548">
        <ele>209</ele>
        <time>2011-01-09T14:46:58Z</time>
      </trkpt>
      <trkpt lat="49.49354" lon="1.1055">
        <ele>210</ele>
        <time>2011-01-09T14:47:05Z</time>
      </trkpt>
      <trkpt lat="49.49374" lon="1.10556">
        <ele>213</ele>
        <time>2011-01-09T14:47:19Z</time>
      </trkpt>
      <trkpt lat="49.49403" lon="1.10569">
        <ele>214</ele>
        <time>2011-01-09T14:47:35Z</time>
      </trkpt>
      <trkpt lat="49.49413" lon="1.10569">
        <ele>215</ele>
        <time>2011-01-09T14:47:40Z</time>
      </trkpt>
      <trkpt lat="49.49431" lon="1.10578">
        <ele>215</ele>
        <time>2011-01-09T14:47:53Z</time>
      </trkpt>
      <trkpt lat="49.49441" lon="1.10582">
        <ele>215</ele>
        <time>2011-01-09T14:47:59Z</time>
      </trkpt>
      <trkpt lat="49.4945" lon="1.10582">
        <ele>215</ele>
        <time>2011-01-09T14:48:04Z</time>
      </trkpt>
      <trkpt lat="49.49461" lon="1.10582">
        <ele>215</ele>
        <time>2011-01-09T14:48:09Z</time>
      </trkpt>
      <trkpt lat="49.49471" lon="1.10586">
        <ele>216</ele>
        <time>2011-01-09T14:48:14Z</time>
      </trkpt>
      <trkpt lat="49.49478" lon="1.10597">
        <ele>216</ele>
        <time>2011-01-09T14:48:19Z</time>
      </trkpt>
      <trkpt lat="49.49487" lon="1.10608">
        <ele>215</ele>
        <time>2011-01-09T14:48:25Z</time>
      </trkpt>
      <trkpt lat="49.49496" lon="1.1061">
        <ele>215</ele>
        <time>2011-01-09T14:48:30Z</time>
      </trkpt>
      <trkpt lat="49.49506" lon="1.1061">
        <ele>215</ele>
        <time>2011-01-09T14:48:35Z</time>
      </trkpt>
      <trkpt lat="49.49515" lon="1.10614">
        <ele>215</ele>
        <time>2011-01-09T14:48:41Z</time>
      </trkpt>
      <trkpt lat="49.49524" lon="1.10616">
        <ele>215</ele>
        <time>2011-01-09T14:48:47Z</time>
      </trkpt>
      <trkpt lat="49.49534" lon="1.10616">
        <ele>215</ele>
        <time>2011-01-09T14:48:53Z</time>
      </trkpt>
      <trkpt lat="49.49544" lon="1.10619">
        <ele>215</ele>
        <time>2011-01-09T14:48:59Z</time>
      </trkpt>
      <trkpt lat="49.49553" lon="1.10619">
        <ele>215</ele>
        <time>2011-01-09T14:49:07Z</time>
      </trkpt>
      <trkpt lat="49.49563" lon="1.10623">
        <ele>215</ele>
        <time>2011-01-09T14:49:20Z</time>
      </trkpt>
      <trkpt lat="49.49571" lon="1.10627">
        <ele>215</ele>
        <time>2011-01-09T14:49:31Z</time>
      </trkpt>
      <trkpt lat="49.49578" lon="1.10638">
        <ele>215</ele>
        <time>2011-01-09T14:50:05Z</time>
      </trkpt>
      <trkpt lat="49.49596" lon="1.10629">
        <ele>215</ele>
        <time>2011-01-09T14:50:23Z</time>
      </trkpt>
      <trkpt lat="49.49604" lon="1.10621">
        <ele>214</ele>
        <time>2011-01-09T14:50:28Z</time>
      </trkpt>
      <trkpt lat="49.49612" lon="1.10614">
        <ele>214</ele>
        <time>2011-01-09T14:50:35Z</time>
      </trkpt>
      <trkpt lat="49.4962" lon="1.10606">
        <ele>214</ele>
        <time>2011-01-09T14:50:48Z</time>
      </trkpt>
      <trkpt lat="49.49623" lon="1.10621">
        <ele>214</ele>
        <time>2011-01-09T14:51:05Z</time>
      </trkpt>
      <trkpt lat="49.49625" lon="1.10636">
        <ele>214</ele>
        <time>2011-01-09T14:51:11Z</time>
      </trkpt>
      <trkpt lat="49.49629" lon="1.10649">
        <ele>214</ele>
        <time>2011-01-09T14:51:16Z</time>
      </trkpt>
      <trkpt lat="49.49639" lon="1.10657">
        <ele>213</ele>
        <time>2011-01-09T14:51:22Z</time>
      </trkpt>
      <trkpt lat="49.49648" lon="1.10664">
        <ele>213</ele>
        <time>2011-01-09T14:51:26Z</time>
      </trkpt>
      <trkpt lat="49.49656" lon="1.1067">
        <ele>213</ele>
        <time>2011-01-09T14:51:39Z</time>
      </trkpt>
      <trkpt lat="49.49665" lon="1.10677">
        <ele>212</ele>
        <time>2011-01-09T14:52:02Z</time>
      </trkpt>
      <trkpt lat="49.49676" lon="1.10677">
        <ele>213</ele>
        <time>2011-01-09T14:52:09Z</time>
      </trkpt>
      <trkpt lat="49.49687" lon="1.10672">
        <ele>213</ele>
        <time>2011-01-09T14:52:14Z</time>
      </trkpt>
      <trkpt lat="49.49697" lon="1.1067">
        <ele>213</ele>
        <time>2011-01-09T14:52:18Z</time>
      </trkpt>
      <trkpt lat="49.49708" lon="1.10668">
        <ele>214</ele>
        <time>2011-01-09T14:52:23Z</time>
      </trkpt>
      <trkpt lat="49.49717" lon="1.10668">
        <ele>214</ele>
        <time>2011-01-09T14:52:28Z</time>
      </trkpt>
      <trkpt lat="49.49727" lon="1.10664">
        <ele>215</ele>
        <time>2011-01-09T14:52:33Z</time>
      </trkpt>
      <trkpt lat="49.49736" lon="1.10668">
        <ele>216</ele>
        <time>2011-01-09T14:52:38Z</time>
      </trkpt>
      <trkpt lat="49.49754" lon="1.10677">
        <ele>218</ele>
        <time>2011-01-09T14:52:51Z</time>
      </trkpt>
      <trkpt lat="49.49762" lon="1.10685">
        <ele>218</ele>
        <time>2011-01-09T14:53:00Z</time>
      </trkpt>
      <trkpt lat="49.49772" lon="1.10685">
        <ele>218</ele>
        <time>2011-01-09T14:53:05Z</time>
      </trkpt>
      <trkpt lat="49.49782" lon="1.10687">
        <ele>218</ele>
        <time>2011-01-09T14:53:09Z</time>
      </trkpt>
      <trkpt lat="49.4979" lon="1.10692">
        <ele>219</ele>
        <time>2011-01-09T14:53:13Z</time>
      </trkpt>
      <trkpt lat="49.498" lon="1.10694">
        <ele>219</ele>
        <time>2011-01-09T14:53:18Z</time>
      </trkpt>
      <trkpt lat="49.49809" lon="1.10681">
        <ele>219</ele>
        <time>2011-01-09T14:53:23Z</time>
      </trkpt>
      <trkpt lat="49.49813" lon="1.10668">
        <ele>219</ele>
        <time>2011-01-09T14:53:26Z</time>
      </trkpt>
      <trkpt lat="49.49817" lon="1.10651">
        <ele>219</ele>
        <time>2011-01-09T14:53:30Z</time>
      </trkpt>
      <trkpt lat="49.49819" lon="1.10636">
        <ele>219</ele>
        <time>2011-01-09T14:53:33Z</time>
      </trkpt>
      <trkpt lat="49.49821" lon="1.10621">
        <ele>219</ele>
        <time>2011-01-09T14:53:36Z</time>
      </trkpt>
      <trkpt lat="49.49824" lon="1.10604">
        <ele>219</ele>
        <time>2011-01-09T14:53:39Z</time>
      </trkpt>
      <trkpt lat="49.49826" lon="1.10589">
        <ele>219</ele>
        <time>2011-01-09T14:53:42Z</time>
      </trkpt>
      <trkpt lat="49.49829" lon="1.10556">
        <ele>219</ele>
        <time>2011-01-09T14:53:46Z</time>
      </trkpt>
      <trkpt lat="49.49832" lon="1.10535">
        <ele>218</ele>
        <time>2011-01-09T14:53:49Z</time>
      </trkpt>
      <trkpt lat="49.49834" lon="1.10518">
        <ele>218</ele>
        <time>2011-01-09T14:53:52Z</time>
      </trkpt>
      <trkpt lat="49.4984" lon="1.10479">
        <ele>217</ele>
        <time>2011-01-09T14:53:58Z</time>
      </trkpt>
      <trkpt lat="49.49847" lon="1.10438">
        <ele>206</ele>
        <time>2011-01-09T14:54:04Z</time>
      </trkpt>
      <trkpt lat="49.4985" lon="1.10419">
        <ele>204</ele>
        <time>2011-01-09T14:54:07Z</time>
      </trkpt>
      <trkpt lat="49.49858" lon="1.1037">
        <ele>201</ele>
        <time>2011-01-09T14:54:14Z</time>
      </trkpt>
      <trkpt lat="49.49861" lon="1.10355">
        <ele>201</ele>
        <time>2011-01-09T14:54:16Z</time>
      </trkpt>
      <trkpt lat="49.49864" lon="1.1034">
        <ele>201</ele>
        <time>2011-01-09T14:54:18Z</time>
      </trkpt>
      <trkpt lat="49.49868" lon="1.10325">
        <ele>202</ele>
        <time>2011-01-09T14:54:20Z</time>
      </trkpt>
      <trkpt lat="49.49871" lon="1.10305">
        <ele>203</ele>
        <time>2011-01-09T14:54:23Z</time>
      </trkpt>
      <trkpt lat="49.49875" lon="1.10286">
        <ele>202</ele>
        <time>2011-01-09T14:54:26Z</time>
      </trkpt>
      <trkpt lat="49.49878" lon="1.10271">
        <ele>202</ele>
        <time>2011-01-09T14:54:28Z</time>
      </trkpt>
      <trkpt lat="49.49883" lon="1.10258">
        <ele>202</ele>
        <time>2011-01-09T14:54:30Z</time>
      </trkpt>
      <trkpt lat="49.49888" lon="1.10243">
        <ele>201</ele>
        <time>2011-01-09T14:54:32Z</time>
      </trkpt>
      <trkpt lat="49.49891" lon="1.10228">
        <ele>201</ele>
        <time>2011-01-09T14:54:34Z</time>
      </trkpt>
      <trkpt lat="49.49894" lon="1.10213">
        <ele>201</ele>
        <time>2011-01-09T14:54:36Z</time>
      </trkpt>
      <trkpt lat="49.49904" lon="1.10162">
        <ele>200</ele>
        <time>2011-01-09T14:54:43Z</time>
      </trkpt>
      <trkpt lat="49.49907" lon="1.10147">
        <ele>200</ele>
        <time>2011-01-09T14:54:45Z</time>
      </trkpt>
      <trkpt lat="49.49909" lon="1.10132">
        <ele>201</ele>
        <time>2011-01-09T14:54:47Z</time>
      </trkpt>
      <trkpt lat="49.49912" lon="1.10116">
        <ele>201</ele>
        <time>2011-01-09T14:54:49Z</time>
      </trkpt>
      <trkpt lat="49.49914" lon="1.10097">
        <ele>202</ele>
        <time>2011-01-09T14:54:52Z</time>
      </trkpt>
      <trkpt lat="49.49917" lon="1.10078">
        <ele>202</ele>
        <time>2011-01-09T14:54:55Z</time>
      </trkpt>
      <trkpt lat="49.49924" lon="1.10039">
        <ele>202</ele>
        <time>2011-01-09T14:55:01Z</time>
      </trkpt>
      <trkpt lat="49.49928" lon="1.1002">
        <ele>203</ele>
        <time>2011-01-09T14:55:04Z</time>
      </trkpt>
      <trkpt lat="49.49931" lon="1.10001">
        <ele>203</ele>
        <time>2011-01-09T14:55:09Z</time>
      </trkpt>
      <trkpt lat="49.49934" lon="1.09983">
        <ele>203</ele>
        <time>2011-01-09T14:55:13Z</time>
      </trkpt>
      <trkpt lat="49.49937" lon="1.09966">
        <ele>203</ele>
        <time>2011-01-09T14:55:18Z</time>
      </trkpt>
      <trkpt lat="49.49939" lon="1.09951">
        <ele>202</ele>
        <time>2011-01-09T14:55:23Z</time>
      </trkpt>
      <trkpt lat="49.49942" lon="1.09936">
        <ele>202</ele>
        <time>2011-01-09T14:55:28Z</time>
      </trkpt>
      <trkpt lat="49.49943" lon="1.09921">
        <ele>202</ele>
        <time>2011-01-09T14:55:32Z</time>
      </trkpt>
      <trkpt lat="49.49941" lon="1.09936">
        <ele>200</ele>
        <time>2011-01-09T14:55:52Z</time>
      </trkpt>
      <trkpt lat="49.49949" lon="1.09945">
        <ele>199</ele>
        <time>2011-01-09T14:56:13Z</time>
      </trkpt>
      <trkpt lat="49.49964" lon="1.09947">
        <ele>198</ele>
        <time>2011-01-09T14:56:45Z</time>
      </trkpt>
      <trkpt lat="49.49973" lon="1.09953">
        <ele>198</ele>
        <time>2011-01-09T14:56:52Z</time>
      </trkpt>
      <trkpt lat="49.49987" lon="1.09956">
        <ele>201</ele>
        <time>2011-01-09T14:57:26Z</time>
      </trkpt>
      <trkpt lat="49.49996" lon="1.0996">
        <ele>202</ele>
        <time>2011-01-09T14:57:41Z</time>
      </trkpt>
      <trkpt lat="49.50012" lon="1.09956">
        <ele>204</ele>
        <time>2011-01-09T14:58:04Z</time>
      </trkpt>
      <trkpt lat="49.50022" lon="1.09958">
        <ele>205</ele>
        <time>2011-01-09T14:58:11Z</time>
      </trkpt>
      <trkpt lat="49.50032" lon="1.0996">
        <ele>206</ele>
        <time>2011-01-09T14:58:16Z</time>
      </trkpt>
      <trkpt lat="49.50051" lon="1.09968">
        <ele>207</ele>
        <time>2011-01-09T14:58:26Z</time>
      </trkpt>
      <trkpt lat="49.5006" lon="1.09973">
        <ele>208</ele>
        <time>2011-01-09T14:58:30Z</time>
      </trkpt>
      <trkpt lat="49.50069" lon="1.09979">
        <ele>209</ele>
        <time>2011-01-09T14:58:35Z</time>
      </trkpt>
      <trkpt lat="49.50078" lon="1.09983">
        <ele>210</ele>
        <time>2011-01-09T14:58:39Z</time>
      </trkpt>
      <trkpt lat="49.50086" lon="1.0999">
        <ele>211</ele>
        <time>2011-01-09T14:58:43Z</time>
      </trkpt>
      <trkpt lat="49.50095" lon="1.09996">
        <ele>212</ele>
        <time>2011-01-09T14:58:48Z</time>
      </trkpt>
      <trkpt lat="49.50105" lon="1.10001">
        <ele>212</ele>
        <time>2011-01-09T14:58:54Z</time>
      </trkpt>
      <trkpt lat="49.50114" lon="1.10007">
        <ele>212</ele>
        <time>2011-01-09T14:58:58Z</time>
      </trkpt>
      <trkpt lat="49.50124" lon="1.10013">
        <ele>212</ele>
        <time>2011-01-09T14:59:03Z</time>
      </trkpt>
      <trkpt lat="49.50134" lon="1.10016">
        <ele>212</ele>
        <time>2011-01-09T14:59:11Z</time>
      </trkpt>
      <trkpt lat="49.50142" lon="1.1002">
        <ele>212</ele>
        <time>2011-01-09T14:59:21Z</time>
      </trkpt>
      <trkpt lat="49.50152" lon="1.10024">
        <ele>212</ele>
        <time>2011-01-09T14:59:26Z</time>
      </trkpt>
      <trkpt lat="49.50161" lon="1.10029">
        <ele>213</ele>
        <time>2011-01-09T14:59:30Z</time>
      </trkpt>
      <trkpt lat="49.50171" lon="1.10035">
        <ele>213</ele>
        <time>2011-01-09T14:59:34Z</time>
      </trkpt>
      <trkpt lat="49.5018" lon="1.10039">
        <ele>213</ele>
        <time>2011-01-09T14:59:37Z</time>
      </trkpt>
      <trkpt lat="49.50189" lon="1.10044">
        <ele>212</ele>
        <time>2011-01-09T14:59:42Z</time>
      </trkpt>
      <trkpt lat="49.502" lon="1.10046">
        <ele>212</ele>
        <time>2011-01-09T14:59:46Z</time>
      </trkpt>
      <trkpt lat="49.50209" lon="1.10041">
        <ele>210</ele>
        <time>2011-01-09T14:59:56Z</time>
      </trkpt>
      <trkpt lat="49.50217" lon="1.10048">
        <ele>204</ele>
        <time>2011-01-09T15:00:44Z</time>
      </trkpt>
      <trkpt lat="49.50227" lon="1.1005">
        <ele>201</ele>
        <time>2011-01-09T15:00:54Z</time>
      </trkpt>
      <trkpt lat="49.50237" lon="1.10052">
        <ele>196</ele>
        <time>2011-01-09T15:01:08Z</time>
      </trkpt>
      <trkpt lat="49.50245" lon="1.10056">
        <ele>194</ele>
        <time>2011-01-09T15:01:16Z</time>
      </trkpt>
      <trkpt lat="49.50254" lon="1.10061">
        <ele>192</ele>
        <time>2011-01-09T15:01:26Z</time>
      </trkpt>
      <trkpt lat="49.50259" lon="1.10074">
        <ele>190</ele>
        <time>2011-01-09T15:01:56Z</time>
      </trkpt>
      <trkpt lat="49.50269" lon="1.10074">
        <ele>188</ele>
        <time>2011-01-09T15:02:23Z</time>
      </trkpt>
      <trkpt lat="49.50279" lon="1.10074">
        <ele>185</ele>
        <time>2011-01-09T15:02:57Z</time>
      </trkpt>
      <trkpt lat="49.50288" lon="1.10084">
        <ele>184</ele>
        <time>2011-01-09T15:03:05Z</time>
      </trkpt>
      <trkpt lat="49.50299" lon="1.10086">
        <ele>182</ele>
        <time>2011-01-09T15:03:10Z</time>
      </trkpt>
      <trkpt lat="49.50309" lon="1.10091">
        <ele>181</ele>
        <time>2011-01-09T15:03:14Z</time>
      </trkpt>
      <trkpt lat="49.50317" lon="1.10095">
        <ele>179</ele>
        <time>2011-01-09T15:03:20Z</time>
      </trkpt>
      <trkpt lat="49.50325" lon="1.10106">
        <ele>176</ele>
        <time>2011-01-09T15:03:35Z</time>
      </trkpt>
      <trkpt lat="49.50334" lon="1.10104">
        <ele>175</ele>
        <time>2011-01-09T15:03:45Z</time>
      </trkpt>
      <trkpt lat="49.50343" lon="1.10099">
        <ele>173</ele>
        <time>2011-01-09T15:03:55Z</time>
      </trkpt>
      <trkpt lat="49.50354" lon="1.10101">
        <ele>172</ele>
        <time>2011-01-09T15:04:02Z</time>
      </trkpt>
      <trkpt lat="49.50362" lon="1.10106">
        <ele>171</ele>
        <time>2011-01-09T15:04:06Z</time>
      </trkpt>
      <trkpt lat="49.50371" lon="1.1011">
        <ele>170</ele>
        <time>2011-01-09T15:04:10Z</time>
      </trkpt>
      <trkpt lat="49.5038" lon="1.10112">
        <ele>169</ele>
        <time>2011-01-09T15:04:15Z</time>
      </trkpt>
      <trkpt lat="49.50392" lon="1.10116">
        <ele>169</ele>
        <time>2011-01-09T15:04:19Z</time>
      </trkpt>
      <trkpt lat="49.50403" lon="1.10119">
        <ele>168</ele>
        <time>2011-01-09T15:04:23Z</time>
      </trkpt>
      <trkpt lat="49.50415" lon="1.10121">
        <ele>166</ele>
        <time>2011-01-09T15:04:27Z</time>
      </trkpt>
      <trkpt lat="49.50423" lon="1.10125">
        <ele>164</ele>
        <time>2011-01-09T15:04:31Z</time>
      </trkpt>
      <trkpt lat="49.50433" lon="1.10127">
        <ele>162</ele>
        <time>2011-01-09T15:04:38Z</time>
      </trkpt>
      <trkpt lat="49.50443" lon="1.10132">
        <ele>160</ele>
        <time>2011-01-09T15:04:44Z</time>
      </trkpt>
      <trkpt lat="49.50452" lon="1.10136">
        <ele>158</ele>
        <time>2011-01-09T15:04:49Z</time>
      </trkpt>
      <trkpt lat="49.50465" lon="1.1014">
        <ele>156</ele>
        <time>2011-01-09T15:04:53Z</time>
      </trkpt>
      <trkpt lat="49.50476" lon="1.10144">
        <ele>155</ele>
        <time>2011-01-09T15:04:56Z</time>
      </trkpt>
      <trkpt lat="49.50487" lon="1.10149">
        <ele>154</ele>
        <time>2011-01-09T15:04:59Z</time>
      </trkpt>
      <trkpt lat="49.50495" lon="1.10153">
        <ele>152</ele>
        <time>2011-01-09T15:05:02Z</time>
      </trkpt>
      <trkpt lat="49.50505" lon="1.10159">
        <ele>151</ele>
        <time>2011-01-09T15:05:06Z</time>
      </trkpt>
      <trkpt lat="49.50515" lon="1.10164">
        <ele>151</ele>
        <time>2011-01-09T15:05:11Z</time>
      </trkpt>
      <trkpt lat="49.50523" lon="1.1017">
        <ele>150</ele>
        <time>2011-01-09T15:05:16Z</time>
      </trkpt>
      <trkpt lat="49.50532" lon="1.10179">
        <ele>149</ele>
        <time>2011-01-09T15:05:27Z</time>
      </trkpt>
      <trkpt lat="49.5054" lon="1.10185">
        <ele>146</ele>
        <time>2011-01-09T15:05:45Z</time>
      </trkpt>
      <trkpt lat="49.5055" lon="1.10189">
        <ele>144</ele>
        <time>2011-01-09T15:05:52Z</time>
      </trkpt>
      <trkpt lat="49.50559" lon="1.10181">
        <ele>142</ele>
        <time>2011-01-09T15:05:57Z</time>
      </trkpt>
      <trkpt lat="49.50565" lon="1.1017">
        <ele>140</ele>
        <time>2011-01-09T15:06:01Z</time>
      </trkpt>
      <trkpt lat="49.50572" lon="1.10159">
        <ele>138</ele>
        <time>2011-01-09T15:06:06Z</time>
      </trkpt>
      <trkpt lat="49.5058" lon="1.10151">
        <ele>137</ele>
        <time>2011-01-09T15:06:10Z</time>
      </trkpt>
      <trkpt lat="49.50588" lon="1.10138">
        <ele>136</ele>
        <time>2011-01-09T15:06:15Z</time>
      </trkpt>
      <trkpt lat="49.50595" lon="1.10127">
        <ele>135</ele>
        <time>2011-01-09T15:06:20Z</time>
      </trkpt>
      <trkpt lat="49.50603" lon="1.10116">
        <ele>134</ele>
        <time>2011-01-09T15:06:25Z</time>
      </trkpt>
      <trkpt lat="49.50609" lon="1.10106">
        <ele>133</ele>
        <time>2011-01-09T15:06:31Z</time>
      </trkpt>
      <trkpt lat="49.50613" lon="1.10091">
        <ele>133</ele>
        <time>2011-01-09T15:06:43Z</time>
      </trkpt>
      <trkpt lat="49.50621" lon="1.10082">
        <ele>134</ele>
        <time>2011-01-09T15:07:01Z</time>
      </trkpt>
      <trkpt lat="49.50628" lon="1.10074">
        <ele>135</ele>
        <time>2011-01-09T15:07:05Z</time>
      </trkpt>
      <trkpt lat="49.50635" lon="1.10063">
        <ele>134</ele>
        <time>2011-01-09T15:07:09Z</time>
      </trkpt>
      <trkpt lat="49.50641" lon="1.10052">
        <ele>134</ele>
        <time>2011-01-09T15:07:14Z</time>
      </trkpt>
      <trkpt lat="49.5065" lon="1.10041">
        <ele>134</ele>
        <time>2011-01-09T15:07:19Z</time>
      </trkpt>
      <trkpt lat="49.50657" lon="1.10031">
        <ele>133</ele>
        <time>2011-01-09T15:07:26Z</time>
      </trkpt>
      <trkpt lat="49.50665" lon="1.1002">
        <ele>133</ele>
        <time>2011-01-09T15:07:32Z</time>
      </trkpt>
      <trkpt lat="49.50671" lon="1.10007">
        <ele>133</ele>
        <time>2011-01-09T15:07:38Z</time>
      </trkpt>
      <trkpt lat="49.50679" lon="1.09994">
        <ele>132</ele>
        <time>2011-01-09T15:07:44Z</time>
      </trkpt>
      <trkpt lat="49.50685" lon="1.09981">
        <ele>132</ele>
        <time>2011-01-09T15:07:50Z</time>
      </trkpt>
      <trkpt lat="49.50689" lon="1.09966">
        <ele>133</ele>
        <time>2011-01-09T15:07:56Z</time>
      </trkpt>
      <trkpt lat="49.50694" lon="1.09951">
        <ele>133</ele>
        <time>2011-01-09T15:08:02Z</time>
      </trkpt>
      <trkpt lat="49.50697" lon="1.09936">
        <ele>134</ele>
        <time>2011-01-09T15:08:06Z</time>
      </trkpt>
      <trkpt lat="49.50698" lon="1.09919">
        <ele>135</ele>
        <time>2011-01-09T15:08:10Z</time>
      </trkpt>
      <trkpt lat="49.50699" lon="1.09904">
        <ele>136</ele>
        <time>2011-01-09T15:08:13Z</time>
      </trkpt>
      <trkpt lat="49.50702" lon="1.09887">
        <ele>138</ele>
        <time>2011-01-09T15:08:18Z</time>
      </trkpt>
      <trkpt lat="49.50704" lon="1.0987">
        <ele>139</ele>
        <time>2011-01-09T15:08:23Z</time>
      </trkpt>
      <trkpt lat="49.50707" lon="1.09855">
        <ele>140</ele>
        <time>2011-01-09T15:08:28Z</time>
      </trkpt>
      <trkpt lat="49.50709" lon="1.0984">
        <ele>142</ele>
        <time>2011-01-09T15:08:34Z</time>
      </trkpt>
      <trkpt lat="49.50713" lon="1.09825">
        <ele>143</ele>
        <time>2011-01-09T15:08:40Z</time>
      </trkpt>
      <trkpt lat="49.50717" lon="1.09812">
        <ele>144</ele>
        <time>2011-01-09T15:08:46Z</time>
      </trkpt>
      <trkpt lat="49.50721" lon="1.09795">
        <ele>145</ele>
        <time>2011-01-09T15:08:51Z</time>
      </trkpt>
      <trkpt lat="49.50723" lon="1.09777">
        <ele>145</ele>
        <time>2011-01-09T15:08:55Z</time>
      </trkpt>
      <trkpt lat="49.50726" lon="1.0976">
        <ele>146</ele>
        <time>2011-01-09T15:09:00Z</time>
      </trkpt>
      <trkpt lat="49.50731" lon="1.09745">
        <ele>145</ele>
        <time>2011-01-09T15:09:05Z</time>
      </trkpt>
      <trkpt lat="49.50738" lon="1.09735">
        <ele>145</ele>
        <time>2011-01-09T15:09:09Z</time>
      </trkpt>
      <trkpt lat="49.50744" lon="1.09722">
        <ele>144</ele>
        <time>2011-01-09T15:09:15Z</time>
      </trkpt>
      <trkpt lat="49.50758" lon="1.097">
        <ele>143</ele>
        <time>2011-01-09T15:09:41Z</time>
      </trkpt>
      <trkpt lat="49.50757" lon="1.09715">
        <ele>147</ele>
        <time>2011-01-09T15:11:08Z</time>
      </trkpt>
      <trkpt lat="49.50774" lon="1.09704">
        <ele>153</ele>
        <time>2011-01-09T15:13:15Z</time>
      </trkpt>
      <trkpt lat="49.50782" lon="1.09696">
        <ele>156</ele>
        <time>2011-01-09T15:13:23Z</time>
      </trkpt>
      <trkpt lat="49.5079" lon="1.09689">
        <ele>158</ele>
        <time>2011-01-09T15:13:30Z</time>
      </trkpt>
      <trkpt lat="49.508" lon="1.09685">
        <ele>159</ele>
        <time>2011-01-09T15:13:35Z</time>
      </trkpt>
      <trkpt lat="49.50818" lon="1.09679">
        <ele>161</ele>
        <time>2011-01-09T15:13:47Z</time>
      </trkpt>
      <trkpt lat="49.50829" lon="1.09674">
        <ele>160</ele>
        <time>2011-01-09T15:13:54Z</time>
      </trkpt>
      <trkpt lat="49.50839" lon="1.09668">
        <ele>161</ele>
        <time>2011-01-09T15:14:01Z</time>
      </trkpt>
      <trkpt lat="49.50857" lon="1.09657">
        <ele>161</ele>
        <time>2011-01-09T15:14:11Z</time>
      </trkpt>
      <trkpt lat="49.50865" lon="1.09651">
        <ele>161</ele>
        <time>2011-01-09T15:14:15Z</time>
      </trkpt>
      <trkpt lat="49.50874" lon="1.09647">
        <ele>162</ele>
        <time>2011-01-09T15:14:19Z</time>
      </trkpt>
      <trkpt lat="49.50883" lon="1.09642">
        <ele>162</ele>
        <time>2011-01-09T15:14:24Z</time>
      </trkpt>
      <trkpt lat="49.50904" lon="1.09614">
        <ele>165</ele>
        <time>2011-01-09T15:14:38Z</time>
      </trkpt>
      <trkpt lat="49.50912" lon="1.09601">
        <ele>166</ele>
        <time>2011-01-09T15:14:42Z</time>
      </trkpt>
      <trkpt lat="49.50918" lon="1.09589">
        <ele>168</ele>
        <time>2011-01-09T15:14:46Z</time>
      </trkpt>
      <trkpt lat="49.50925" lon="1.09578">
        <ele>170</ele>
        <time>2011-01-09T15:14:52Z</time>
      </trkpt>
      <trkpt lat="49.50933" lon="1.09567">
        <ele>171</ele>
        <time>2011-01-09T15:14:58Z</time>
      </trkpt>
      <trkpt lat="49.50943" lon="1.09561">
        <ele>172</ele>
        <time>2011-01-09T15:15:04Z</time>
      </trkpt>
      <trkpt lat="49.50951" lon="1.09556">
        <ele>172</ele>
        <time>2011-01-09T15:15:11Z</time>
      </trkpt>
      <trkpt lat="49.50961" lon="1.09554">
        <ele>173</ele>
        <time>2011-01-09T15:15:19Z</time>
      </trkpt>
      <trkpt lat="49.50971" lon="1.09556">
        <ele>173</ele>
        <time>2011-01-09T15:15:26Z</time>
      </trkpt>
      <trkpt lat="49.5098" lon="1.09559">
        <ele>173</ele>
        <time>2011-01-09T15:15:33Z</time>
      </trkpt>
      <trkpt lat="49.50989" lon="1.09563">
        <ele>172</ele>
        <time>2011-01-09T15:15:40Z</time>
      </trkpt>
      <trkpt lat="49.50997" lon="1.09569">
        <ele>171</ele>
        <time>2011-01-09T15:15:50Z</time>
      </trkpt>
      <trkpt lat="49.51007" lon="1.09576">
        <ele>170</ele>
        <time>2011-01-09T15:15:57Z</time>
      </trkpt>
      <trkpt lat="49.51035" lon="1.09591">
        <ele>168</ele>
        <time>2011-01-09T15:16:17Z</time>
      </trkpt>
      <trkpt lat="49.51054" lon="1.09599">
        <ele>167</ele>
        <time>2011-01-09T15:16:28Z</time>
      </trkpt>
      <trkpt lat="49.51064" lon="1.09606">
        <ele>167</ele>
        <time>2011-01-09T15:16:33Z</time>
      </trkpt>
      <trkpt lat="49.51072" lon="1.0961">
        <ele>167</ele>
        <time>2011-01-09T15:16:43Z</time>
      </trkpt>
      <trkpt lat="49.5108" lon="1.09601">
        <ele>170</ele>
        <time>2011-01-09T15:18:08Z</time>
      </trkpt>
      <trkpt lat="49.5109" lon="1.09599">
        <ele>173</ele>
        <time>2011-01-09T15:18:16Z</time>
      </trkpt>
      <trkpt lat="49.51099" lon="1.09595">
        <ele>175</ele>
        <time>2011-01-09T15:18:24Z</time>
      </trkpt>
      <trkpt lat="49.5111" lon="1.09593">
        <ele>176</ele>
        <time>2011-01-09T15:18:31Z</time>
      </trkpt>
      <trkpt lat="49.5112" lon="1.09591">
        <ele>177</ele>
        <time>2011-01-09T15:18:42Z</time>
      </trkpt>
      <trkpt lat="49.51129" lon="1.09586">
        <ele>178</ele>
        <time>2011-01-09T15:18:59Z</time>
      </trkpt>
      <trkpt lat="49.51139" lon="1.09584">
        <ele>178</ele>
        <time>2011-01-09T15:19:11Z</time>
      </trkpt>
      <trkpt lat="49.51145" lon="1.09574">
        <ele>180</ele>
        <time>2011-01-09T15:19:48Z</time>
      </trkpt>
      <trkpt lat="49.51155" lon="1.09571">
        <ele>183</ele>
        <time>2011-01-09T15:19:57Z</time>
      </trkpt>
      <trkpt lat="49.51164" lon="1.09567">
        <ele>185</ele>
        <time>2011-01-09T15:20:05Z</time>
      </trkpt>
      <trkpt lat="49.51173" lon="1.09559">
        <ele>186</ele>
        <time>2011-01-09T15:20:10Z</time>
      </trkpt>
      <trkpt lat="49.51182" lon="1.0955">
        <ele>188</ele>
        <time>2011-01-09T15:20:17Z</time>
      </trkpt>
      <trkpt lat="49.5119" lon="1.09546">
        <ele>189</ele>
        <time>2011-01-09T15:20:26Z</time>
      </trkpt>
      <trkpt lat="49.512" lon="1.09548">
        <ele>189</ele>
        <time>2011-01-09T15:20:35Z</time>
      </trkpt>
      <trkpt lat="49.5121" lon="1.0955">
        <ele>189</ele>
        <time>2011-01-09T15:20:48Z</time>
      </trkpt>
      <trkpt lat="49.51219" lon="1.09548">
        <ele>189</ele>
        <time>2011-01-09T15:21:07Z</time>
      </trkpt>
      <trkpt lat="49.51229" lon="1.09546">
        <ele>190</ele>
        <time>2011-01-09T15:21:16Z</time>
      </trkpt>
      <trkpt lat="49.51239" lon="1.0955">
        <ele>191</ele>
        <time>2011-01-09T15:21:23Z</time>
      </trkpt>
      <trkpt lat="49.51247" lon="1.09554">
        <ele>191</ele>
        <time>2011-01-09T15:21:29Z</time>
      </trkpt>
      <trkpt lat="49.51257" lon="1.09559">
        <ele>192</ele>
        <time>2011-01-09T15:21:36Z</time>
      </trkpt>
      <trkpt lat="49.51267" lon="1.09556">
        <ele>193</ele>
        <time>2011-01-09T15:21:42Z</time>
      </trkpt>
      <trkpt lat="49.51276" lon="1.09559">
        <ele>193</ele>
        <time>2011-01-09T15:21:49Z</time>
      </trkpt>
      <trkpt lat="49.51286" lon="1.09561">
        <ele>191</ele>
        <time>2011-01-09T15:21:59Z</time>
      </trkpt>
      <trkpt lat="49.51296" lon="1.09559">
        <ele>191</ele>
        <time>2011-01-09T15:22:09Z</time>
      </trkpt>
      <trkpt lat="49.51298" lon="1.09544">
        <ele>192</ele>
        <time>2011-01-09T15:22:23Z</time>
      </trkpt>
      <trkpt lat="49.51299" lon="1.09529">
        <ele>193</ele>
        <time>2011-01-09T15:22:36Z</time>
      </trkpt>
      <trkpt lat="49.51306" lon="1.0952">
        <ele>193</ele>
        <time>2011-01-09T15:22:46Z</time>
      </trkpt>
      <trkpt lat="49.51313" lon="1.09507">
        <ele>194</ele>
        <time>2011-01-09T15:22:58Z</time>
      </trkpt>
      <trkpt lat="49.51315" lon="1.09492">
        <ele>197</ele>
        <time>2011-01-09T15:23:17Z</time>
      </trkpt>
      <trkpt lat="49.51308" lon="1.09479">
        <ele>198</ele>
        <time>2011-01-09T15:23:34Z</time>
      </trkpt>
      <trkpt lat="49.51301" lon="1.09471">
        <ele>199</ele>
        <time>2011-01-09T15:23:46Z</time>
      </trkpt>
      <trkpt lat="49.51292" lon="1.09462">
        <ele>199</ele>
        <time>2011-01-09T15:23:54Z</time>
      </trkpt>
      <trkpt lat="49.51286" lon="1.09449">
        <ele>200</ele>
        <time>2011-01-09T15:24:05Z</time>
      </trkpt>
      <trkpt lat="49.5128" lon="1.09436">
        <ele>202</ele>
        <time>2011-01-09T15:24:18Z</time>
      </trkpt>
      <trkpt lat="49.51274" lon="1.09423">
        <ele>203</ele>
        <time>2011-01-09T15:24:26Z</time>
      </trkpt>
      <trkpt lat="49.51268" lon="1.09413">
        <ele>204</ele>
        <time>2011-01-09T15:24:37Z</time>
      </trkpt>
      <trkpt lat="49.5126" lon="1.09404">
        <ele>206</ele>
        <time>2011-01-09T15:24:47Z</time>
      </trkpt>
      <trkpt lat="49.51252" lon="1.09396">
        <ele>207</ele>
        <time>2011-01-09T15:24:58Z</time>
      </trkpt>
      <trkpt lat="49.51249" lon="1.0938">
        <ele>207</ele>
        <time>2011-01-09T15:25:11Z</time>
      </trkpt>
      <trkpt lat="49.51257" lon="1.09372">
        <ele>208</ele>
        <time>2011-01-09T15:25:47Z</time>
      </trkpt>
      <trkpt lat="49.51251" lon="1.09361">
        <ele>208</ele>
        <time>2011-01-09T15:26:19Z</time>
      </trkpt>
      <trkpt lat="49.51243" lon="1.0937">
        <ele>206</ele>
        <time>2011-01-09T15:27:19Z</time>
      </trkpt>
      <trkpt lat="49.51236" lon="1.09359">
        <ele>205</ele>
        <time>2011-01-09T15:27:28Z</time>
      </trkpt>
      <trkpt lat="49.51227" lon="1.09353">
        <ele>204</ele>
        <time>2011-01-09T15:27:34Z</time>
      </trkpt>
      <trkpt lat="49.51216" lon="1.0935">
        <ele>204</ele>
        <time>2011-01-09T15:27:38Z</time>
      </trkpt>
      <trkpt lat="49.51204" lon="1.0935">
        <ele>204</ele>
        <time>2011-01-09T15:27:42Z</time>
      </trkpt>
      <trkpt lat="49.51195" lon="1.09353">
        <ele>204</ele>
        <time>2011-01-09T15:27:46Z</time>
      </trkpt>
      <trkpt lat="49.51185" lon="1.09355">
        <ele>203</ele>
        <time>2011-01-09T15:27:51Z</time>
      </trkpt>
      <trkpt lat="49.51175" lon="1.09357">
        <ele>203</ele>
        <time>2011-01-09T15:27:56Z</time>
      </trkpt>
      <trkpt lat="49.51165" lon="1.09359">
        <ele>203</ele>
        <time>2011-01-09T15:28:01Z</time>
      </trkpt>
      <trkpt lat="49.51154" lon="1.09361">
        <ele>202</ele>
        <time>2011-01-09T15:28:06Z</time>
      </trkpt>
      <trkpt lat="49.51144" lon="1.09363">
        <ele>202</ele>
        <time>2011-01-09T15:28:12Z</time>
      </trkpt>
      <trkpt lat="49.51134" lon="1.09368">
        <ele>201</ele>
        <time>2011-01-09T15:28:18Z</time>
      </trkpt>
      <trkpt lat="49.51123" lon="1.0937">
        <ele>201</ele>
        <time>2011-01-09T15:28:23Z</time>
      </trkpt>
      <trkpt lat="49.51113" lon="1.09372">
        <ele>200</ele>
        <time>2011-01-09T15:28:28Z</time>
      </trkpt>
      <trkpt lat="49.51102" lon="1.09374">
        <ele>200</ele>
        <time>2011-01-09T15:28:33Z</time>
      </trkpt>
      <trkpt lat="49.51093" lon="1.09374">
        <ele>200</ele>
        <time>2011-01-09T15:28:37Z</time>
      </trkpt>
      <trkpt lat="49.51083" lon="1.09378">
        <ele>199</ele>
        <time>2011-01-09T15:28:41Z</time>
      </trkpt>
      <trkpt lat="49.51075" lon="1.09383">
        <ele>199</ele>
        <time>2011-01-09T15:28:47Z</time>
      </trkpt>
      <trkpt lat="49.51064" lon="1.09387">
        <ele>198</ele>
        <time>2011-01-09T15:28:53Z</time>
      </trkpt>
      <trkpt lat="49.51054" lon="1.09389">
        <ele>197</ele>
        <time>2011-01-09T15:28:58Z</time>
      </trkpt>
      <trkpt lat="49.51046" lon="1.09393">
        <ele>196</ele>
        <time>2011-01-09T15:29:07Z</time>
      </trkpt>
      <trkpt lat="49.51035" lon="1.09393">
        <ele>196</ele>
        <time>2011-01-09T15:29:14Z</time>
      </trkpt>
      <trkpt lat="49.51024" lon="1.09398">
        <ele>195</ele>
        <time>2011-01-09T15:29:20Z</time>
      </trkpt>
      <trkpt lat="49.51015" lon="1.094">
        <ele>195</ele>
        <time>2011-01-09T15:29:25Z</time>
      </trkpt>
      <trkpt lat="49.51004" lon="1.094">
        <ele>194</ele>
        <time>2011-01-09T15:29:32Z</time>
      </trkpt>
      <trkpt lat="49.50994" lon="1.09402">
        <ele>193</ele>
        <time>2011-01-09T15:29:38Z</time>
      </trkpt>
      <trkpt lat="49.50983" lon="1.09404">
        <ele>192</ele>
        <time>2011-01-09T15:29:45Z</time>
      </trkpt>
      <trkpt lat="49.50973" lon="1.09404">
        <ele>192</ele>
        <time>2011-01-09T15:29:50Z</time>
      </trkpt>
      <trkpt lat="49.50963" lon="1.09404">
        <ele>192</ele>
        <time>2011-01-09T15:29:53Z</time>
      </trkpt>
      <trkpt lat="49.50951" lon="1.09406">
        <ele>193</ele>
        <time>2011-01-09T15:29:57Z</time>
      </trkpt>
      <trkpt lat="49.50942" lon="1.09408">
        <ele>192</ele>
        <time>2011-01-09T15:30:01Z</time>
      </trkpt>
      <trkpt lat="49.50933" lon="1.09413">
        <ele>192</ele>
        <time>2011-01-09T15:30:05Z</time>
      </trkpt>
      <trkpt lat="49.50923" lon="1.09415">
        <ele>192</ele>
        <time>2011-01-09T15:30:09Z</time>
      </trkpt>
      <trkpt lat="49.50914" lon="1.09417">
        <ele>192</ele>
        <time>2011-01-09T15:30:15Z</time>
      </trkpt>
      <trkpt lat="49.50903" lon="1.09419">
        <ele>191</ele>
        <time>2011-01-09T15:30:21Z</time>
      </trkpt>
      <trkpt lat="49.50894" lon="1.09423">
        <ele>190</ele>
        <time>2011-01-09T15:30:26Z</time>
      </trkpt>
      <trkpt lat="49.50885" lon="1.09426">
        <ele>188</ele>
        <time>2011-01-09T15:30:37Z</time>
      </trkpt>
      <trkpt lat="49.50879" lon="1.09413">
        <ele>189</ele>
        <time>2011-01-09T15:30:50Z</time>
      </trkpt>
      <trkpt lat="49.50878" lon="1.09398">
        <ele>190</ele>
        <time>2011-01-09T15:31:10Z</time>
      </trkpt>
      <trkpt lat="49.50877" lon="1.09368">
        <ele>190</ele>
        <time>2011-01-09T15:31:21Z</time>
      </trkpt>
      <trkpt lat="49.50874" lon="1.09338">
        <ele>190</ele>
        <time>2011-01-09T15:31:32Z</time>
      </trkpt>
      <trkpt lat="49.50873" lon="1.09323">
        <ele>191</ele>
        <time>2011-01-09T15:31:48Z</time>
      </trkpt>
      <trkpt lat="49.5087" lon="1.09308">
        <ele>192</ele>
        <time>2011-01-09T15:31:54Z</time>
      </trkpt>
      <trkpt lat="49.50868" lon="1.09293">
        <ele>192</ele>
        <time>2011-01-09T15:31:59Z</time>
      </trkpt>
      <trkpt lat="49.50865" lon="1.09277">
        <ele>192</ele>
        <time>2011-01-09T15:32:05Z</time>
      </trkpt>
      <trkpt lat="49.50865" lon="1.0926">
        <ele>193</ele>
        <time>2011-01-09T15:32:11Z</time>
      </trkpt>
      <trkpt lat="49.50862" lon="1.09245">
        <ele>194</ele>
        <time>2011-01-09T15:32:19Z</time>
      </trkpt>
      <trkpt lat="49.50858" lon="1.0923">
        <ele>194</ele>
        <time>2011-01-09T15:32:24Z</time>
      </trkpt>
      <trkpt lat="49.50855" lon="1.09213">
        <ele>194</ele>
        <time>2011-01-09T15:32:30Z</time>
      </trkpt>
      <trkpt lat="49.50851" lon="1.09198">
        <ele>194</ele>
        <time>2011-01-09T15:32:36Z</time>
      </trkpt>
      <trkpt lat="49.50849" lon="1.09181">
        <ele>194</ele>
        <time>2011-01-09T15:32:42Z</time>
      </trkpt>
      <trkpt lat="49.50847" lon="1.09149">
        <ele>194</ele>
        <time>2011-01-09T15:32:54Z</time>
      </trkpt>
      <trkpt lat="49.50845" lon="1.09134">
        <ele>194</ele>
        <time>2011-01-09T15:32:59Z</time>
      </trkpt>
      <trkpt lat="49.50846" lon="1.09119">
        <ele>194</ele>
        <time>2011-01-09T15:33:10Z</time>
      </trkpt>
      <trkpt lat="49.50845" lon="1.09104">
        <ele>193</ele>
        <time>2011-01-09T15:33:18Z</time>
      </trkpt>
      <trkpt lat="49.50842" lon="1.09089">
        <ele>192</ele>
        <time>2011-01-09T15:33:24Z</time>
      </trkpt>
      <trkpt lat="49.50837" lon="1.09076">
        <ele>191</ele>
        <time>2011-01-09T15:33:29Z</time>
      </trkpt>
      <trkpt lat="49.50833" lon="1.09061">
        <ele>191</ele>
        <time>2011-01-09T15:33:34Z</time>
      </trkpt>
      <trkpt lat="49.5083" lon="1.09046">
        <ele>190</ele>
        <time>2011-01-09T15:33:40Z</time>
      </trkpt>
      <trkpt lat="49.50834" lon="1.09031">
        <ele>190</ele>
        <time>2011-01-09T15:33:44Z</time>
      </trkpt>
      <trkpt lat="49.50841" lon="1.09016">
        <ele>190</ele>
        <time>2011-01-09T15:33:48Z</time>
      </trkpt>
      <trkpt lat="49.50847" lon="1.09003">
        <ele>190</ele>
        <time>2011-01-09T15:33:53Z</time>
      </trkpt>
      <trkpt lat="49.50853" lon="1.08988">
        <ele>190</ele>
        <time>2011-01-09T15:33:58Z</time>
      </trkpt>
      <trkpt lat="49.50859" lon="1.08973">
        <ele>191</ele>
        <time>2011-01-09T15:34:03Z</time>
      </trkpt>
      <trkpt lat="49.50864" lon="1.08958">
        <ele>191</ele>
        <time>2011-01-09T15:34:07Z</time>
      </trkpt>
      <trkpt lat="49.50871" lon="1.08943">
        <ele>191</ele>
        <time>2011-01-09T15:34:11Z</time>
      </trkpt>
      <trkpt lat="49.50876" lon="1.0893">
        <ele>192</ele>
        <time>2011-01-09T15:34:15Z</time>
      </trkpt>
      <trkpt lat="49.50874" lon="1.08889">
        <ele>193</ele>
        <time>2011-01-09T15:34:32Z</time>
      </trkpt>
      <trkpt lat="49.50866" lon="1.08881">
        <ele>193</ele>
        <time>2011-01-09T15:34:36Z</time>
      </trkpt>
      <trkpt lat="49.50859" lon="1.0887">
        <ele>193</ele>
        <time>2011-01-09T15:34:40Z</time>
      </trkpt>
      <trkpt lat="49.50851" lon="1.08857">
        <ele>193</ele>
        <time>2011-01-09T15:34:44Z</time>
      </trkpt>
      <trkpt lat="49.50844" lon="1.08846">
        <ele>193</ele>
        <time>2011-01-09T15:34:49Z</time>
      </trkpt>
      <trkpt lat="49.50836" lon="1.08835">
        <ele>193</ele>
        <time>2011-01-09T15:34:56Z</time>
      </trkpt>
      <trkpt lat="49.5083" lon="1.08825">
        <ele>192</ele>
        <time>2011-01-09T15:35:01Z</time>
      </trkpt>
      <trkpt lat="49.50824" lon="1.08812">
        <ele>192</ele>
        <time>2011-01-09T15:35:05Z</time>
      </trkpt>
      <trkpt lat="49.50817" lon="1.08801">
        <ele>191</ele>
        <time>2011-01-09T15:35:09Z</time>
      </trkpt>
      <trkpt lat="49.50811" lon="1.0879">
        <ele>191</ele>
        <time>2011-01-09T15:35:14Z</time>
      </trkpt>
      <trkpt lat="49.50809" lon="1.08775">
        <ele>190</ele>
        <time>2011-01-09T15:35:20Z</time>
      </trkpt>
      <trkpt lat="49.50809" lon="1.0876">
        <ele>191</ele>
        <time>2011-01-09T15:35:26Z</time>
      </trkpt>
      <trkpt lat="49.50807" lon="1.08745">
        <ele>191</ele>
        <time>2011-01-09T15:35:53Z</time>
      </trkpt>
      <trkpt lat="49.50799" lon="1.08741">
        <ele>192</ele>
        <time>2011-01-09T15:36:30Z</time>
      </trkpt>
      <trkpt lat="49.50795" lon="1.08728">
        <ele>193</ele>
        <time>2011-01-09T15:36:34Z</time>
      </trkpt>
      <trkpt lat="49.5079" lon="1.08715">
        <ele>194</ele>
        <time>2011-01-09T15:36:38Z</time>
      </trkpt>
      <trkpt lat="49.50787" lon="1.08698">
        <ele>194</ele>
        <time>2011-01-09T15:36:43Z</time>
      </trkpt>
      <trkpt lat="49.50785" lon="1.08683">
        <ele>195</ele>
        <time>2011-01-09T15:36:48Z</time>
      </trkpt>
      <trkpt lat="49.50783" lon="1.08668">
        <ele>196</ele>
        <time>2011-01-09T15:36:52Z</time>
      </trkpt>
      <trkpt lat="49.50782" lon="1.08651">
        <ele>196</ele>
        <time>2011-01-09T15:36:56Z</time>
      </trkpt>
      <trkpt lat="49.50782" lon="1.08636">
        <ele>196</ele>
        <time>2011-01-09T15:36:59Z</time>
      </trkpt>
      <trkpt lat="49.50783" lon="1.08621">
        <ele>197</ele>
        <time>2011-01-09T15:37:03Z</time>
      </trkpt>
      <trkpt lat="49.50783" lon="1.08604">
        <ele>197</ele>
        <time>2011-01-09T15:37:07Z</time>
      </trkpt>
      <trkpt lat="49.50784" lon="1.08589">
        <ele>197</ele>
        <time>2011-01-09T15:37:10Z</time>
      </trkpt>
      <trkpt lat="49.50783" lon="1.08574">
        <ele>197</ele>
        <time>2011-01-09T15:37:13Z</time>
      </trkpt>
      <trkpt lat="49.50783" lon="1.08557">
        <ele>197</ele>
        <time>2011-01-09T15:37:16Z</time>
      </trkpt>
      <trkpt lat="49.50783" lon="1.08539">
        <ele>197</ele>
        <time>2011-01-09T15:37:19Z</time>
      </trkpt>
      <trkpt lat="49.50781" lon="1.08524">
        <ele>197</ele>
        <time>2011-01-09T15:37:21Z</time>
      </trkpt>
      <trkpt lat="49.50778" lon="1.08509">
        <ele>196</ele>
        <time>2011-01-09T15:37:23Z</time>
      </trkpt>
      <trkpt lat="49.50775" lon="1.08494">
        <ele>195</ele>
        <time>2011-01-09T15:37:25Z</time>
      </trkpt>
      <trkpt lat="49.50773" lon="1.08479">
        <ele>195</ele>
        <time>2011-01-09T15:37:27Z</time>
      </trkpt>
      <trkpt lat="49.5077" lon="1.08464">
        <ele>195</ele>
        <time>2011-01-09T15:37:30Z</time>
      </trkpt>
      <trkpt lat="49.50766" lon="1.08449">
        <ele>195</ele>
        <time>2011-01-09T15:37:34Z</time>
      </trkpt>
      <trkpt lat="49.50759" lon="1.08436">
        <ele>195</ele>
        <time>2011-01-09T15:37:38Z</time>
      </trkpt>
      <trkpt lat="49.50758" lon="1.08421">
        <ele>195</ele>
        <time>2011-01-09T15:37:42Z</time>
      </trkpt>
      <trkpt lat="49.50754" lon="1.08406">
        <ele>195</ele>
        <time>2011-01-09T15:37:46Z</time>
      </trkpt>
      <trkpt lat="49.5075" lon="1.08387">
        <ele>195</ele>
        <time>2011-01-09T15:37:51Z</time>
      </trkpt>
      <trkpt lat="49.50745" lon="1.0837">
        <ele>194</ele>
        <time>2011-01-09T15:37:56Z</time>
      </trkpt>
      <trkpt lat="49.50743" lon="1.08348">
        <ele>194</ele>
        <time>2011-01-09T15:38:02Z</time>
      </trkpt>
      <trkpt lat="49.50743" lon="1.08333">
        <ele>193</ele>
        <time>2011-01-09T15:38:09Z</time>
      </trkpt>
      <trkpt lat="49.5074" lon="1.08316">
        <ele>192</ele>
        <time>2011-01-09T15:38:27Z</time>
      </trkpt>
      <trkpt lat="49.50725" lon="1.08305">
        <ele>192</ele>
        <time>2011-01-09T15:38:37Z</time>
      </trkpt>
      <trkpt lat="49.50713" lon="1.08299">
        <ele>193</ele>
        <time>2011-01-09T15:39:48Z</time>
      </trkpt>
      <trkpt lat="49.50702" lon="1.08293">
        <ele>193</ele>
        <time>2011-01-09T15:39:52Z</time>
      </trkpt>
      <trkpt lat="49.50697" lon="1.0828">
        <ele>194</ele>
        <time>2011-01-09T15:40:13Z</time>
      </trkpt>
      <trkpt lat="49.50699" lon="1.08263">
        <ele>195</ele>
        <time>2011-01-09T15:40:22Z</time>
      </trkpt>
      <trkpt lat="49.50699" lon="1.08245">
        <ele>196</ele>
        <time>2011-01-09T15:40:28Z</time>
      </trkpt>
      <trkpt lat="49.50696" lon="1.0823">
        <ele>196</ele>
        <time>2011-01-09T15:40:34Z</time>
      </trkpt>
      <trkpt lat="49.50689" lon="1.08217">
        <ele>197</ele>
        <time>2011-01-09T15:40:40Z</time>
      </trkpt>
      <trkpt lat="49.50684" lon="1.08205">
        <ele>197</ele>
        <time>2011-01-09T15:40:44Z</time>
      </trkpt>
      <trkpt lat="49.50679" lon="1.08192">
        <ele>196</ele>
        <time>2011-01-09T15:40:48Z</time>
      </trkpt>
      <trkpt lat="49.50673" lon="1.08179">
        <ele>196</ele>
        <time>2011-01-09T15:40:53Z</time>
      </trkpt>
      <trkpt lat="49.50668" lon="1.08166">
        <ele>195</ele>
        <time>2011-01-09T15:41:00Z</time>
      </trkpt>
      <trkpt lat="49.50668" lon="1.08151">
        <ele>195</ele>
        <time>2011-01-09T15:41:15Z</time>
      </trkpt>
      <trkpt lat="49.50662" lon="1.0814">
        <ele>197</ele>
        <time>2011-01-09T15:41:46Z</time>
      </trkpt>
      <trkpt lat="49.50655" lon="1.0813">
        <ele>197</ele>
        <time>2011-01-09T15:41:53Z</time>
      </trkpt>
      <trkpt lat="49.5065" lon="1.08117">
        <ele>198</ele>
        <time>2011-01-09T15:42:00Z</time>
      </trkpt>
      <trkpt lat="49.50645" lon="1.08104">
        <ele>198</ele>
        <time>2011-01-09T15:42:06Z</time>
      </trkpt>
      <trkpt lat="49.50641" lon="1.08091">
        <ele>198</ele>
        <time>2011-01-09T15:42:11Z</time>
      </trkpt>
      <trkpt lat="49.50639" lon="1.08076">
        <ele>198</ele>
        <time>2011-01-09T15:42:15Z</time>
      </trkpt>
      <trkpt lat="49.50637" lon="1.08059">
        <ele>198</ele>
        <time>2011-01-09T15:42:20Z</time>
      </trkpt>
      <trkpt lat="49.50634" lon="1.08042">
        <ele>198</ele>
        <time>2011-01-09T15:42:26Z</time>
      </trkpt>
      <trkpt lat="49.50629" lon="1.08027">
        <ele>197</ele>
        <time>2011-01-09T15:42:31Z</time>
      </trkpt>
      <trkpt lat="49.50625" lon="1.08014">
        <ele>196</ele>
        <time>2011-01-09T15:42:36Z</time>
      </trkpt>
      <trkpt lat="49.5062" lon="1.07999">
        <ele>196</ele>
        <time>2011-01-09T15:42:39Z</time>
      </trkpt>
      <trkpt lat="49.50614" lon="1.07984">
        <ele>195</ele>
        <time>2011-01-09T15:42:43Z</time>
      </trkpt>
      <trkpt lat="49.50609" lon="1.07966">
        <ele>195</ele>
        <time>2011-01-09T15:42:47Z</time>
      </trkpt>
      <trkpt lat="49.50608" lon="1.07951">
        <ele>195</ele>
        <time>2011-01-09T15:42:50Z</time>
      </trkpt>
      <trkpt lat="49.5061" lon="1.07934">
        <ele>194</ele>
        <time>2011-01-09T15:42:53Z</time>
      </trkpt>
      <trkpt lat="49.50614" lon="1.07917">
        <ele>194</ele>
        <time>2011-01-09T15:42:56Z</time>
      </trkpt>
      <trkpt lat="49.50619" lon="1.07904">
        <ele>194</ele>
        <time>2011-01-09T15:42:59Z</time>
      </trkpt>
      <trkpt lat="49.50625" lon="1.07891">
        <ele>194</ele>
        <time>2011-01-09T15:43:04Z</time>
      </trkpt>
      <trkpt lat="49.50633" lon="1.07881">
        <ele>193</ele>
        <time>2011-01-09T15:43:09Z</time>
      </trkpt>
      <trkpt lat="49.50639" lon="1.07868">
        <ele>193</ele>
        <time>2011-01-09T15:43:13Z</time>
      </trkpt>
      <trkpt lat="49.50647" lon="1.0784">
        <ele>193</ele>
        <time>2011-01-09T15:43:56Z</time>
      </trkpt>
      <trkpt lat="49.50645" lon="1.07825">
        <ele>193</ele>
        <time>2011-01-09T15:44:00Z</time>
      </trkpt>
      <trkpt lat="49.50639" lon="1.07812">
        <ele>192</ele>
        <time>2011-01-09T15:44:04Z</time>
      </trkpt>
      <trkpt lat="49.5063" lon="1.07799">
        <ele>192</ele>
        <time>2011-01-09T15:44:08Z</time>
      </trkpt>
      <trkpt lat="49.50623" lon="1.07788">
        <ele>191</ele>
        <time>2011-01-09T15:44:11Z</time>
      </trkpt>
      <trkpt lat="49.50616" lon="1.07775">
        <ele>191</ele>
        <time>2011-01-09T15:44:14Z</time>
      </trkpt>
      <trkpt lat="49.5061" lon="1.07763">
        <ele>191</ele>
        <time>2011-01-09T15:44:17Z</time>
      </trkpt>
      <trkpt lat="49.50603" lon="1.07752">
        <ele>191</ele>
        <time>2011-01-09T15:44:20Z</time>
      </trkpt>
      <trkpt lat="49.50596" lon="1.07741">
        <ele>191</ele>
        <time>2011-01-09T15:44:22Z</time>
      </trkpt>
      <trkpt lat="49.50589" lon="1.07728">
        <ele>191</ele>
        <time>2011-01-09T15:44:25Z</time>
      </trkpt>
      <trkpt lat="49.50582" lon="1.07718">
        <ele>191</ele>
        <time>2011-01-09T15:44:28Z</time>
      </trkpt>
      <trkpt lat="49.50575" lon="1.07707">
        <ele>191</ele>
        <time>2011-01-09T15:44:32Z</time>
      </trkpt>
      <trkpt lat="49.5057" lon="1.07694">
        <ele>192</ele>
        <time>2011-01-09T15:44:38Z</time>
      </trkpt>
      <trkpt lat="49.50564" lon="1.07681">
        <ele>191</ele>
        <time>2011-01-09T15:44:43Z</time>
      </trkpt>
      <trkpt lat="49.50559" lon="1.07666">
        <ele>191</ele>
        <time>2011-01-09T15:44:48Z</time>
      </trkpt>
      <trkpt lat="49.50554" lon="1.07649">
        <ele>191</ele>
        <time>2011-01-09T15:44:53Z</time>
      </trkpt>
      <trkpt lat="49.50549" lon="1.07636">
        <ele>191</ele>
        <time>2011-01-09T15:45:03Z</time>
      </trkpt>
      <trkpt lat="49.50542" lon="1.07623">
        <ele>190</ele>
        <time>2011-01-09T15:45:08Z</time>
      </trkpt>
      <trkpt lat="49.50536" lon="1.07612">
        <ele>190</ele>
        <time>2011-01-09T15:45:13Z</time>
      </trkpt>
      <trkpt lat="49.50527" lon="1.07599">
        <ele>190</ele>
        <time>2011-01-09T15:45:18Z</time>
      </trkpt>
      <trkpt lat="49.5052" lon="1.07591">
        <ele>190</ele>
        <time>2011-01-09T15:45:21Z</time>
      </trkpt>
      <trkpt lat="49.50512" lon="1.07582">
        <ele>190</ele>
        <time>2011-01-09T15:45:25Z</time>
      </trkpt>
      <trkpt lat="49.50505" lon="1.07574">
        <ele>190</ele>
        <time>2011-01-09T15:45:29Z</time>
      </trkpt>
      <trkpt lat="49.50497" lon="1.07563">
        <ele>190</ele>
        <time>2011-01-09T15:45:33Z</time>
      </trkpt>
      <trkpt lat="49.50491" lon="1.07548">
        <ele>190</ele>
        <time>2011-01-09T15:45:37Z</time>
      </trkpt>
      <trkpt lat="49.50483" lon="1.07535">
        <ele>191</ele>
        <time>2011-01-09T15:45:41Z</time>
      </trkpt>
      <trkpt lat="49.50476" lon="1.07527">
        <ele>191</ele>
        <time>2011-01-09T15:45:46Z</time>
      </trkpt>
      <trkpt lat="49.50468" lon="1.07518">
        <ele>191</ele>
        <time>2011-01-09T15:45:49Z</time>
      </trkpt>
      <trkpt lat="49.50458" lon="1.07512">
        <ele>192</ele>
        <time>2011-01-09T15:45:52Z</time>
      </trkpt>
      <trkpt lat="49.50449" lon="1.07505">
        <ele>192</ele>
        <time>2011-01-09T15:45:54Z</time>
      </trkpt>
      <trkpt lat="49.50441" lon="1.07497">
        <ele>192</ele>
        <time>2011-01-09T15:45:57Z</time>
      </trkpt>
      <trkpt lat="49.50433" lon="1.07488">
        <ele>192</ele>
        <time>2011-01-09T15:46:00Z</time>
      </trkpt>
      <trkpt lat="49.50427" lon="1.07477">
        <ele>192</ele>
        <time>2011-01-09T15:46:03Z</time>
      </trkpt>
      <trkpt lat="49.50419" lon="1.07464">
        <ele>192</ele>
        <time>2011-01-09T15:46:07Z</time>
      </trkpt>
      <trkpt lat="49.50409" lon="1.07454">
        <ele>192</ele>
        <time>2011-01-09T15:46:11Z</time>
      </trkpt>
      <trkpt lat="49.50401" lon="1.07447">
        <ele>192</ele>
        <time>2011-01-09T15:46:13Z</time>
      </trkpt>
      <trkpt lat="49.50392" lon="1.07441">
        <ele>191</ele>
        <time>2011-01-09T15:46:15Z</time>
      </trkpt>
      <trkpt lat="49.50383" lon="1.0743">
        <ele>191</ele>
        <time>2011-01-09T15:46:18Z</time>
      </trkpt>
      <trkpt lat="49.50376" lon="1.07419">
        <ele>191</ele>
        <time>2011-01-09T15:46:22Z</time>
      </trkpt>
      <trkpt lat="49.5037" lon="1.07409">
        <ele>190</ele>
        <time>2011-01-09T15:46:26Z</time>
      </trkpt>
      <trkpt lat="49.50364" lon="1.07396">
        <ele>189</ele>
        <time>2011-01-09T15:46:30Z</time>
      </trkpt>
      <trkpt lat="49.50355" lon="1.07387">
        <ele>188</ele>
        <time>2011-01-09T15:46:45Z</time>
      </trkpt>
      <trkpt lat="49.50342" lon="1.07372">
        <ele>187</ele>
        <time>2011-01-09T15:47:04Z</time>
      </trkpt>
      <trkpt lat="49.50326" lon="1.07363">
        <ele>187</ele>
        <time>2011-01-09T15:47:19Z</time>
      </trkpt>
      <trkpt lat="49.50317" lon="1.07353">
        <ele>186</ele>
        <time>2011-01-09T15:47:40Z</time>
      </trkpt>
      <trkpt lat="49.50304" lon="1.07346">
        <ele>186</ele>
        <time>2011-01-09T15:47:46Z</time>
      </trkpt>
      <trkpt lat="49.50295" lon="1.07338">
        <ele>186</ele>
        <time>2011-01-09T15:47:53Z</time>
      </trkpt>
      <trkpt lat="49.50285" lon="1.07331">
        <ele>187</ele>
        <time>2011-01-09T15:48:16Z</time>
      </trkpt>
      <trkpt lat="49.50272" lon="1.07321">
        <ele>188</ele>
        <time>2011-01-09T15:48:28Z</time>
      </trkpt>
      <trkpt lat="49.50264" lon="1.07314">
        <ele>189</ele>
        <time>2011-01-09T15:48:38Z</time>
      </trkpt>
      <trkpt lat="49.50254" lon="1.0731">
        <ele>188</ele>
        <time>2011-01-09T15:49:08Z</time>
      </trkpt>
      <trkpt lat="49.50245" lon="1.07306">
        <ele>187</ele>
        <time>2011-01-09T15:49:12Z</time>
      </trkpt>
      <trkpt lat="49.50237" lon="1.07301">
        <ele>187</ele>
        <time>2011-01-09T15:49:15Z</time>
      </trkpt>
      <trkpt lat="49.50227" lon="1.07295">
        <ele>187</ele>
        <time>2011-01-09T15:49:20Z</time>
      </trkpt>
      <trkpt lat="49.5022" lon="1.07286">
        <ele>186</ele>
        <time>2011-01-09T15:49:25Z</time>
      </trkpt>
      <trkpt lat="49.50211" lon="1.07278">
        <ele>186</ele>
        <time>2011-01-09T15:49:30Z</time>
      </trkpt>
      <trkpt lat="49.50202" lon="1.07271">
        <ele>186</ele>
        <time>2011-01-09T15:49:35Z</time>
      </trkpt>
      <trkpt lat="49.50194" lon="1.07265">
        <ele>186</ele>
        <time>2011-01-09T15:49:40Z</time>
      </trkpt>
      <trkpt lat="49.50184" lon="1.07256">
        <ele>186</ele>
        <time>2011-01-09T15:49:45Z</time>
      </trkpt>
      <trkpt lat="49.50174" lon="1.07245">
        <ele>185</ele>
        <time>2011-01-09T15:49:49Z</time>
      </trkpt>
      <trkpt lat="49.50166" lon="1.07237">
        <ele>185</ele>
        <time>2011-01-09T15:49:53Z</time>
      </trkpt>
      <trkpt lat="49.50158" lon="1.07224">
        <ele>185</ele>
        <time>2011-01-09T15:49:57Z</time>
      </trkpt>
      <trkpt lat="49.50152" lon="1.07213">
        <ele>185</ele>
        <time>2011-01-09T15:50:01Z</time>
      </trkpt>
      <trkpt lat="49.50148" lon="1.072">
        <ele>185</ele>
        <time>2011-01-09T15:50:11Z</time>
      </trkpt>
      <trkpt lat="49.50144" lon="1.07185">
        <ele>186</ele>
        <time>2011-01-09T15:50:27Z</time>
      </trkpt>
      <trkpt lat="49.50138" lon="1.07172">
        <ele>186</ele>
        <time>2011-01-09T15:50:32Z</time>
      </trkpt>
      <trkpt lat="49.50132" lon="1.07157">
        <ele>187</ele>
        <time>2011-01-09T15:50:37Z</time>
      </trkpt>
      <trkpt lat="49.50125" lon="1.07147">
        <ele>187</ele>
        <time>2011-01-09T15:50:41Z</time>
      </trkpt>
      <trkpt lat="49.50119" lon="1.07134">
        <ele>188</ele>
        <time>2011-01-09T15:50:46Z</time>
      </trkpt>
      <trkpt lat="49.50112" lon="1.07119">
        <ele>188</ele>
        <time>2011-01-09T15:50:52Z</time>
      </trkpt>
      <trkpt lat="49.50104" lon="1.07106">
        <ele>188</ele>
        <time>2011-01-09T15:50:56Z</time>
      </trkpt>
      <trkpt lat="49.50095" lon="1.07095">
        <ele>188</ele>
        <time>2011-01-09T15:50:59Z</time>
      </trkpt>
      <trkpt lat="49.50086" lon="1.07087">
        <ele>187</ele>
        <time>2011-01-09T15:51:02Z</time>
      </trkpt>
      <trkpt lat="49.5008" lon="1.07074">
        <ele>187</ele>
        <time>2011-01-09T15:51:06Z</time>
      </trkpt>
      <trkpt lat="49.50075" lon="1.07059">
        <ele>187</ele>
        <time>2011-01-09T15:51:09Z</time>
      </trkpt>
      <trkpt lat="49.50068" lon="1.07046">
        <ele>186</ele>
        <time>2011-01-09T15:51:12Z</time>
      </trkpt>
      <trkpt lat="49.50062" lon="1.07033">
        <ele>186</ele>
        <time>2011-01-09T15:51:15Z</time>
      </trkpt>
      <trkpt lat="49.50054" lon="1.0702">
        <ele>186</ele>
        <time>2011-01-09T15:51:18Z</time>
      </trkpt>
      <trkpt lat="49.5005" lon="1.07007">
        <ele>185</ele>
        <time>2011-01-09T15:51:21Z</time>
      </trkpt>
      <trkpt lat="49.50046" lon="1.06992">
        <ele>185</ele>
        <time>2011-01-09T15:51:25Z</time>
      </trkpt>
      <trkpt lat="49.50041" lon="1.06979">
        <ele>184</ele>
        <time>2011-01-09T15:51:28Z</time>
      </trkpt>
      <trkpt lat="49.50033" lon="1.06964">
        <ele>184</ele>
        <time>2011-01-09T15:51:32Z</time>
      </trkpt>
      <trkpt lat="49.50024" lon="1.06954">
        <ele>184</ele>
        <time>2011-01-09T15:51:35Z</time>
      </trkpt>
      <trkpt lat="49.50018" lon="1.06943">
        <ele>183</ele>
        <time>2011-01-09T15:51:38Z</time>
      </trkpt>
      <trkpt lat="49.50014" lon="1.06928">
        <ele>183</ele>
        <time>2011-01-09T15:51:43Z</time>
      </trkpt>
      <trkpt lat="49.5001" lon="1.06913">
        <ele>182</ele>
        <time>2011-01-09T15:51:48Z</time>
      </trkpt>
      <trkpt lat="49.50006" lon="1.06898">
        <ele>182</ele>
        <time>2011-01-09T15:51:52Z</time>
      </trkpt>
      <trkpt lat="49.50002" lon="1.06885">
        <ele>182</ele>
        <time>2011-01-09T15:51:56Z</time>
      </trkpt>
      <trkpt lat="49.49998" lon="1.0687">
        <ele>182</ele>
        <time>2011-01-09T15:52:01Z</time>
      </trkpt>
      <trkpt lat="49.49992" lon="1.06857">
        <ele>182</ele>
        <time>2011-01-09T15:52:06Z</time>
      </trkpt>
      <trkpt lat="49.49988" lon="1.06844">
        <ele>182</ele>
        <time>2011-01-09T15:52:10Z</time>
      </trkpt>
      <trkpt lat="49.49986" lon="1.06827">
        <ele>182</ele>
        <time>2011-01-09T15:52:14Z</time>
      </trkpt>
      <trkpt lat="49.49981" lon="1.0681">
        <ele>182</ele>
        <time>2011-01-09T15:52:19Z</time>
      </trkpt>
      <trkpt lat="49.49977" lon="1.06793">
        <ele>182</ele>
        <time>2011-01-09T15:52:24Z</time>
      </trkpt>
      <trkpt lat="49.49972" lon="1.0678">
        <ele>183</ele>
        <time>2011-01-09T15:52:28Z</time>
      </trkpt>
      <trkpt lat="49.49966" lon="1.06767">
        <ele>183</ele>
        <time>2011-01-09T15:52:32Z</time>
      </trkpt>
      <trkpt lat="49.49962" lon="1.06754">
        <ele>183</ele>
        <time>2011-01-09T15:52:36Z</time>
      </trkpt>
      <trkpt lat="49.49957" lon="1.06739">
        <ele>183</ele>
        <time>2011-01-09T15:52:41Z</time>
      </trkpt>
      <trkpt lat="49.49952" lon="1.06726">
        <ele>183</ele>
        <time>2011-01-09T15:52:45Z</time>
      </trkpt>
      <trkpt lat="49.49948" lon="1.06713">
        <ele>183</ele>
        <time>2011-01-09T15:52:49Z</time>
      </trkpt>
      <trkpt lat="49.49944" lon="1.06698">
        <ele>183</ele>
        <time>2011-01-09T15:52:54Z</time>
      </trkpt>
      <trkpt lat="49.49939" lon="1.06685">
        <ele>183</ele>
        <time>2011-01-09T15:52:58Z</time>
      </trkpt>
      <trkpt lat="49.49934" lon="1.06673">
        <ele>183</ele>
        <time>2011-01-09T15:53:02Z</time>
      </trkpt>
      <trkpt lat="49.49918" lon="1.06647">
        <ele>184</ele>
        <time>2011-01-09T15:53:12Z</time>
      </trkpt>
      <trkpt lat="49.49913" lon="1.06634">
        <ele>184</ele>
        <time>2011-01-09T15:53:15Z</time>
      </trkpt>
      <trkpt lat="49.49906" lon="1.06621">
        <ele>184</ele>
        <time>2011-01-09T15:53:18Z</time>
      </trkpt>
      <trkpt lat="49.499" lon="1.06608">
        <ele>184</ele>
        <time>2011-01-09T15:53:22Z</time>
      </trkpt>
      <trkpt lat="49.49892" lon="1.066">
        <ele>183</ele>
        <time>2011-01-09T15:53:26Z</time>
      </trkpt>
      <trkpt lat="49.49884" lon="1.06593">
        <ele>183</ele>
        <time>2011-01-09T15:53:30Z</time>
      </trkpt>
      <trkpt lat="49.49874" lon="1.06585">
        <ele>184</ele>
        <time>2011-01-09T15:53:34Z</time>
      </trkpt>
      <trkpt lat="49.49867" lon="1.06576">
        <ele>184</ele>
        <time>2011-01-09T15:53:37Z</time>
      </trkpt>
      <trkpt lat="49.4986" lon="1.06565">
        <ele>184</ele>
        <time>2011-01-09T15:53:40Z</time>
      </trkpt>
      <trkpt lat="49.49852" lon="1.06555">
        <ele>184</ele>
        <time>2011-01-09T15:53:45Z</time>
      </trkpt>
      <trkpt lat="49.49843" lon="1.06542">
        <ele>184</ele>
        <time>2011-01-09T15:53:51Z</time>
      </trkpt>
      <trkpt lat="49.49833" lon="1.06533">
        <ele>183</ele>
        <time>2011-01-09T15:53:55Z</time>
      </trkpt>
      <trkpt lat="49.49828" lon="1.06518">
        <ele>183</ele>
        <time>2011-01-09T15:54:01Z</time>
      </trkpt>
      <trkpt lat="49.49833" lon="1.06505">
        <ele>183</ele>
        <time>2011-01-09T15:54:10Z</time>
      </trkpt>
      <trkpt lat="49.49831" lon="1.0649">
        <ele>183</ele>
        <time>2011-01-09T15:54:30Z</time>
      </trkpt>
      <trkpt lat="49.49841" lon="1.06488">
        <ele>183</ele>
        <time>2011-01-09T15:54:41Z</time>
      </trkpt>
      <trkpt lat="49.49834" lon="1.06477">
        <ele>184</ele>
        <time>2011-01-09T15:54:56Z</time>
      </trkpt>
      <trkpt lat="49.49826" lon="1.06471">
        <ele>185</ele>
        <time>2011-01-09T15:55:00Z</time>
      </trkpt>
      <trkpt lat="49.49815" lon="1.06467">
        <ele>185</ele>
        <time>2011-01-09T15:55:04Z</time>
      </trkpt>
      <trkpt lat="49.49805" lon="1.06458">
        <ele>185</ele>
        <time>2011-01-09T15:55:07Z</time>
      </trkpt>
      <trkpt lat="49.49795" lon="1.06449">
        <ele>185</ele>
        <time>2011-01-09T15:55:10Z</time>
      </trkpt>
      <trkpt lat="49.49785" lon="1.06441">
        <ele>185</ele>
        <time>2011-01-09T15:55:13Z</time>
      </trkpt>
      <trkpt lat="49.49775" lon="1.06432">
        <ele>185</ele>
        <time>2011-01-09T15:55:16Z</time>
      </trkpt>
      <trkpt lat="49.49766" lon="1.06426">
        <ele>185</ele>
        <time>2011-01-09T15:55:19Z</time>
      </trkpt>
      <trkpt lat="49.49756" lon="1.06417">
        <ele>185</ele>
        <time>2011-01-09T15:55:22Z</time>
      </trkpt>
      <trkpt lat="49.49745" lon="1.06406">
        <ele>184</ele>
        <time>2011-01-09T15:55:25Z</time>
      </trkpt>
      <trkpt lat="49.49736" lon="1.06398">
        <ele>184</ele>
        <time>2011-01-09T15:55:28Z</time>
      </trkpt>
      <trkpt lat="49.49725" lon="1.06389">
        <ele>184</ele>
        <time>2011-01-09T15:55:32Z</time>
      </trkpt>
      <trkpt lat="49.49715" lon="1.06383">
        <ele>184</ele>
        <time>2011-01-09T15:55:35Z</time>
      </trkpt>
      <trkpt lat="49.49703" lon="1.06374">
        <ele>182</ele>
        <time>2011-01-09T15:55:38Z</time>
      </trkpt>
      <trkpt lat="49.49695" lon="1.06366">
        <ele>181</ele>
        <time>2011-01-09T15:55:40Z</time>
      </trkpt>
      <trkpt lat="49.49685" lon="1.06359">
        <ele>180</ele>
        <time>2011-01-09T15:55:42Z</time>
      </trkpt>
      <trkpt lat="49.49676" lon="1.06351">
        <ele>179</ele>
        <time>2011-01-09T15:55:44Z</time>
      </trkpt>
      <trkpt lat="49.49667" lon="1.06344">
        <ele>179</ele>
        <time>2011-01-09T15:55:46Z</time>
      </trkpt>
      <trkpt lat="49.49658" lon="1.06338">
        <ele>179</ele>
        <time>2011-01-09T15:55:48Z</time>
      </trkpt>
      <trkpt lat="49.49649" lon="1.06329">
        <ele>178</ele>
        <time>2011-01-09T15:55:50Z</time>
      </trkpt>
      <trkpt lat="49.49639" lon="1.06321">
        <ele>178</ele>
        <time>2011-01-09T15:55:52Z</time>
      </trkpt>
      <trkpt lat="49.49629" lon="1.06314">
        <ele>179</ele>
        <time>2011-01-09T15:55:54Z</time>
      </trkpt>
      <trkpt lat="49.4962" lon="1.06306">
        <ele>179</ele>
        <time>2011-01-09T15:55:56Z</time>
      </trkpt>
      <trkpt lat="49.4961" lon="1.06297">
        <ele>179</ele>
        <time>2011-01-09T15:55:58Z</time>
      </trkpt>
      <trkpt lat="49.49599" lon="1.06288">
        <ele>179</ele>
        <time>2011-01-09T15:56:00Z</time>
      </trkpt>
      <trkpt lat="49.49589" lon="1.06278">
        <ele>179</ele>
        <time>2011-01-09T15:56:02Z</time>
      </trkpt>
      <trkpt lat="49.49577" lon="1.06271">
        <ele>179</ele>
        <time>2011-01-09T15:56:04Z</time>
      </trkpt>
      <trkpt lat="49.49566" lon="1.06263">
        <ele>179</ele>
        <time>2011-01-09T15:56:06Z</time>
      </trkpt>
      <trkpt lat="49.49555" lon="1.06254">
        <ele>179</ele>
        <time>2011-01-09T15:56:08Z</time>
      </trkpt>
      <trkpt lat="49.49546" lon="1.06246">
        <ele>180</ele>
        <time>2011-01-09T15:56:10Z</time>
      </trkpt>
      <trkpt lat="49.49538" lon="1.06237">
        <ele>180</ele>
        <time>2011-01-09T15:56:12Z</time>
      </trkpt>
      <trkpt lat="49.4953" lon="1.06228">
        <ele>180</ele>
        <time>2011-01-09T15:56:14Z</time>
      </trkpt>
      <trkpt lat="49.49521" lon="1.0622">
        <ele>181</ele>
        <time>2011-01-09T15:56:16Z</time>
      </trkpt>
      <trkpt lat="49.49514" lon="1.06211">
        <ele>180</ele>
        <time>2011-01-09T15:56:18Z</time>
      </trkpt>
      <trkpt lat="49.49506" lon="1.06203">
        <ele>178</ele>
        <time>2011-01-09T15:56:20Z</time>
      </trkpt>
      <trkpt lat="49.49495" lon="1.06192">
        <ele>176</ele>
        <time>2011-01-09T15:56:23Z</time>
      </trkpt>
      <trkpt lat="49.49488" lon="1.06183">
        <ele>176</ele>
        <time>2011-01-09T15:56:25Z</time>
      </trkpt>
      <trkpt lat="49.49478" lon="1.06173">
        <ele>176</ele>
        <time>2011-01-09T15:56:28Z</time>
      </trkpt>
      <trkpt lat="49.49468" lon="1.06162">
        <ele>176</ele>
        <time>2011-01-09T15:56:31Z</time>
      </trkpt>
      <trkpt lat="49.4946" lon="1.06151">
        <ele>176</ele>
        <time>2011-01-09T15:56:34Z</time>
      </trkpt>
      <trkpt lat="49.49451" lon="1.06143">
        <ele>176</ele>
        <time>2011-01-09T15:56:37Z</time>
      </trkpt>
      <trkpt lat="49.49443" lon="1.06132">
        <ele>175</ele>
        <time>2011-01-09T15:56:40Z</time>
      </trkpt>
      <trkpt lat="49.49433" lon="1.06121">
        <ele>175</ele>
        <time>2011-01-09T15:56:43Z</time>
      </trkpt>
      <trkpt lat="49.49425" lon="1.0611">
        <ele>173</ele>
        <time>2011-01-09T15:56:46Z</time>
      </trkpt>
      <trkpt lat="49.49415" lon="1.06097">
        <ele>171</ele>
        <time>2011-01-09T15:56:49Z</time>
      </trkpt>
      <trkpt lat="49.49406" lon="1.06089">
        <ele>170</ele>
        <time>2011-01-09T15:56:52Z</time>
      </trkpt>
      <trkpt lat="49.49398" lon="1.06078">
        <ele>169</ele>
        <time>2011-01-09T15:56:55Z</time>
      </trkpt>
      <trkpt lat="49.4939" lon="1.06067">
        <ele>169</ele>
        <time>2011-01-09T15:56:58Z</time>
      </trkpt>
      <trkpt lat="49.49382" lon="1.06059">
        <ele>169</ele>
        <time>2011-01-09T15:57:01Z</time>
      </trkpt>
      <trkpt lat="49.49374" lon="1.06048">
        <ele>169</ele>
        <time>2011-01-09T15:57:04Z</time>
      </trkpt>
      <trkpt lat="49.49367" lon="1.06035">
        <ele>169</ele>
        <time>2011-01-09T15:57:07Z</time>
      </trkpt>
      <trkpt lat="49.4936" lon="1.06022">
        <ele>170</ele>
        <time>2011-01-09T15:57:10Z</time>
      </trkpt>
      <trkpt lat="49.49355" lon="1.06007">
        <ele>170</ele>
        <time>2011-01-09T15:57:14Z</time>
      </trkpt>
      <trkpt lat="49.49349" lon="1.05992">
        <ele>171</ele>
        <time>2011-01-09T15:57:18Z</time>
      </trkpt>
      <trkpt lat="49.49346" lon="1.05973">
        <ele>171</ele>
        <time>2011-01-09T15:57:22Z</time>
      </trkpt>
      <trkpt lat="49.49343" lon="1.05958">
        <ele>172</ele>
        <time>2011-01-09T15:57:26Z</time>
      </trkpt>
      <trkpt lat="49.49342" lon="1.05941">
        <ele>172</ele>
        <time>2011-01-09T15:57:30Z</time>
      </trkpt>
      <trkpt lat="49.49341" lon="1.05924">
        <ele>173</ele>
        <time>2011-01-09T15:57:33Z</time>
      </trkpt>
      <trkpt lat="49.4934" lon="1.05904">
        <ele>173</ele>
        <time>2011-01-09T15:57:36Z</time>
      </trkpt>
      <trkpt lat="49.4934" lon="1.05887">
        <ele>173</ele>
        <time>2011-01-09T15:57:40Z</time>
      </trkpt>
      <trkpt lat="49.49339" lon="1.0587">
        <ele>175</ele>
        <time>2011-01-09T15:57:43Z</time>
      </trkpt>
      <trkpt lat="49.49339" lon="1.05853">
        <ele>176</ele>
        <time>2011-01-09T15:57:46Z</time>
      </trkpt>
      <trkpt lat="49.4934" lon="1.05838">
        <ele>176</ele>
        <time>2011-01-09T15:57:48Z</time>
      </trkpt>
      <trkpt lat="49.49341" lon="1.05823">
        <ele>175</ele>
        <time>2011-01-09T15:57:50Z</time>
      </trkpt>
      <trkpt lat="49.49343" lon="1.05808">
        <ele>175</ele>
        <time>2011-01-09T15:57:52Z</time>
      </trkpt>
      <trkpt lat="49.49345" lon="1.05793">
        <ele>176</ele>
        <time>2011-01-09T15:57:54Z</time>
      </trkpt>
      <trkpt lat="49.49347" lon="1.05776">
        <ele>176</ele>
        <time>2011-01-09T15:57:56Z</time>
      </trkpt>
      <trkpt lat="49.49349" lon="1.05758">
        <ele>175</ele>
        <time>2011-01-09T15:57:58Z</time>
      </trkpt>
      <trkpt lat="49.49352" lon="1.05741">
        <ele>174</ele>
        <time>2011-01-09T15:58:00Z</time>
      </trkpt>
      <trkpt lat="49.49353" lon="1.05722">
        <ele>173</ele>
        <time>2011-01-09T15:58:02Z</time>
      </trkpt>
      <trkpt lat="49.4935" lon="1.05703">
        <ele>173</ele>
        <time>2011-01-09T15:58:04Z</time>
      </trkpt>
      <trkpt lat="49.49346" lon="1.05683">
        <ele>174</ele>
        <time>2011-01-09T15:58:06Z</time>
      </trkpt>
      <trkpt lat="49.49341" lon="1.05664">
        <ele>174</ele>
        <time>2011-01-09T15:58:08Z</time>
      </trkpt>
      <trkpt lat="49.49335" lon="1.05647">
        <ele>173</ele>
        <time>2011-01-09T15:58:10Z</time>
      </trkpt>
      <trkpt lat="49.4933" lon="1.0563">
        <ele>173</ele>
        <time>2011-01-09T15:58:12Z</time>
      </trkpt>
      <trkpt lat="49.49325" lon="1.05617">
        <ele>172</ele>
        <time>2011-01-09T15:58:14Z</time>
      </trkpt>
      <trkpt lat="49.49318" lon="1.05602">
        <ele>173</ele>
        <time>2011-01-09T15:58:17Z</time>
      </trkpt>
      <trkpt lat="49.49309" lon="1.05593">
        <ele>173</ele>
        <time>2011-01-09T15:58:20Z</time>
      </trkpt>
      <trkpt lat="49.49301" lon="1.05582">
        <ele>174</ele>
        <time>2011-01-09T15:58:22Z</time>
      </trkpt>
      <trkpt lat="49.49293" lon="1.0557">
        <ele>174</ele>
        <time>2011-01-09T15:58:24Z</time>
      </trkpt>
      <trkpt lat="49.49285" lon="1.05559">
        <ele>174</ele>
        <time>2011-01-09T15:58:26Z</time>
      </trkpt>
      <trkpt lat="49.49279" lon="1.05548">
        <ele>174</ele>
        <time>2011-01-09T15:58:28Z</time>
      </trkpt>
      <trkpt lat="49.49271" lon="1.05531">
        <ele>173</ele>
        <time>2011-01-09T15:58:31Z</time>
      </trkpt>
      <trkpt lat="49.49267" lon="1.05518">
        <ele>173</ele>
        <time>2011-01-09T15:58:33Z</time>
      </trkpt>
      <trkpt lat="49.49261" lon="1.05505">
        <ele>173</ele>
        <time>2011-01-09T15:58:36Z</time>
      </trkpt>
      <trkpt lat="49.49256" lon="1.05492">
        <ele>173</ele>
        <time>2011-01-09T15:58:39Z</time>
      </trkpt>
      <trkpt lat="49.49252" lon="1.05479">
        <ele>173</ele>
        <time>2011-01-09T15:58:42Z</time>
      </trkpt>
      <trkpt lat="49.49247" lon="1.05467">
        <ele>173</ele>
        <time>2011-01-09T15:58:45Z</time>
      </trkpt>
      <trkpt lat="49.49242" lon="1.05454">
        <ele>173</ele>
        <time>2011-01-09T15:58:48Z</time>
      </trkpt>
      <trkpt lat="49.49237" lon="1.05441">
        <ele>173</ele>
        <time>2011-01-09T15:58:51Z</time>
      </trkpt>
      <trkpt lat="49.49228" lon="1.0543">
        <ele>173</ele>
        <time>2011-01-09T15:58:54Z</time>
      </trkpt>
      <trkpt lat="49.49221" lon="1.05422">
        <ele>173</ele>
        <time>2011-01-09T15:58:56Z</time>
      </trkpt>
      <trkpt lat="49.49211" lon="1.05415">
        <ele>173</ele>
        <time>2011-01-09T15:58:58Z</time>
      </trkpt>
      <trkpt lat="49.49202" lon="1.05407">
        <ele>174</ele>
        <time>2011-01-09T15:59:00Z</time>
      </trkpt>
      <trkpt lat="49.49192" lon="1.05398">
        <ele>174</ele>
        <time>2011-01-09T15:59:02Z</time>
      </trkpt>
      <trkpt lat="49.49181" lon="1.05389">
        <ele>175</ele>
        <time>2011-01-09T15:59:04Z</time>
      </trkpt>
      <trkpt lat="49.4917" lon="1.05379">
        <ele>175</ele>
        <time>2011-01-09T15:59:06Z</time>
      </trkpt>
      <trkpt lat="49.49158" lon="1.05368">
        <ele>175</ele>
        <time>2011-01-09T15:59:08Z</time>
      </trkpt>
      <trkpt lat="49.49148" lon="1.05357">
        <ele>174</ele>
        <time>2011-01-09T15:59:10Z</time>
      </trkpt>
      <trkpt lat="49.49138" lon="1.05349">
        <ele>172</ele>
        <time>2011-01-09T15:59:12Z</time>
      </trkpt>
      <trkpt lat="49.49128" lon="1.05342">
        <ele>169</ele>
        <time>2011-01-09T15:59:14Z</time>
      </trkpt>
      <trkpt lat="49.4912" lon="1.05336">
        <ele>168</ele>
        <time>2011-01-09T15:59:16Z</time>
      </trkpt>
      <trkpt lat="49.49111" lon="1.05331">
        <ele>167</ele>
        <time>2011-01-09T15:59:19Z</time>
      </trkpt>
      <trkpt lat="49.49104" lon="1.05323">
        <ele>166</ele>
        <time>2011-01-09T15:59:22Z</time>
      </trkpt>
      <trkpt lat="49.49093" lon="1.05312">
        <ele>161</ele>
        <time>2011-01-09T15:59:25Z</time>
      </trkpt>
      <trkpt lat="49.49082" lon="1.05304">
        <ele>155</ele>
        <time>2011-01-09T15:59:27Z</time>
      </trkpt>
      <trkpt lat="49.49073" lon="1.05297">
        <ele>151</ele>
        <time>2011-01-09T15:59:29Z</time>
      </trkpt>
      <trkpt lat="49.49064" lon="1.05284">
        <ele>150</ele>
        <time>2011-01-09T15:59:33Z</time>
      </trkpt>
      <trkpt lat="49.49069" lon="1.05269">
        <ele>149</ele>
        <time>2011-01-09T15:59:39Z</time>
      </trkpt>
      <trkpt lat="49.49059" lon="1.05239">
        <ele>146</ele>
        <time>2011-01-09T15:59:50Z</time>
      </trkpt>
      <trkpt lat="49.49059" lon="1.0522">
        <ele>142</ele>
        <time>2011-01-09T16:00:06Z</time>
      </trkpt>
      <trkpt lat="49.49059" lon="1.05198">
        <ele>138</ele>
        <time>2011-01-09T16:00:20Z</time>
      </trkpt>
      <trkpt lat="49.49052" lon="1.05181">
        <ele>134</ele>
        <time>2011-01-09T16:00:43Z</time>
      </trkpt>
      <trkpt lat="49.4906" lon="1.0517">
        <ele>130</ele>
        <time>2011-01-09T16:00:56Z</time>
      </trkpt>
      <trkpt lat="49.49051" lon="1.05162">
        <ele>128</ele>
        <time>2011-01-09T16:01:13Z</time>
      </trkpt>
      <trkpt lat="49.4904" lon="1.05153">
        <ele>127</ele>
        <time>2011-01-09T16:01:17Z</time>
      </trkpt>
      <trkpt lat="49.49033" lon="1.0514">
        <ele>126</ele>
        <time>2011-01-09T16:01:20Z</time>
      </trkpt>
      <trkpt lat="49.49029" lon="1.05128">
        <ele>125</ele>
        <time>2011-01-09T16:01:23Z</time>
      </trkpt>
      <trkpt lat="49.49019" lon="1.05121">
        <ele>124</ele>
        <time>2011-01-09T16:01:27Z</time>
      </trkpt>
      <trkpt lat="49.49009" lon="1.05119">
        <ele>118</ele>
        <time>2011-01-09T16:01:29Z</time>
      </trkpt>
      <trkpt lat="49.49" lon="1.05119">
        <ele>114</ele>
        <time>2011-01-09T16:01:31Z</time>
      </trkpt>
      <trkpt lat="49.48989" lon="1.05119">
        <ele>111</ele>
        <time>2011-01-09T16:01:33Z</time>
      </trkpt>
      <trkpt lat="49.48976" lon="1.05119">
        <ele>109</ele>
        <time>2011-01-09T16:01:35Z</time>
      </trkpt>
      <trkpt lat="49.48962" lon="1.05121">
        <ele>108</ele>
        <time>2011-01-09T16:01:37Z</time>
      </trkpt>
      <trkpt lat="49.48948" lon="1.05121">
        <ele>108</ele>
        <time>2011-01-09T16:01:39Z</time>
      </trkpt>
      <trkpt lat="49.48933" lon="1.05123">
        <ele>107</ele>
        <time>2011-01-09T16:01:41Z</time>
      </trkpt>
      <trkpt lat="49.48922" lon="1.05121">
        <ele>106</ele>
        <time>2011-01-09T16:01:43Z</time>
      </trkpt>
      <trkpt lat="49.48915" lon="1.05108">
        <ele>105</ele>
        <time>2011-01-09T16:01:45Z</time>
      </trkpt>
      <trkpt lat="49.48911" lon="1.05095">
        <ele>103</ele>
        <time>2011-01-09T16:01:47Z</time>
      </trkpt>
      <trkpt lat="49.48906" lon="1.05083">
        <ele>102</ele>
        <time>2011-01-09T16:01:49Z</time>
      </trkpt>
      <trkpt lat="49.48895" lon="1.05074">
        <ele>101</ele>
        <time>2011-01-09T16:01:52Z</time>
      </trkpt>
      <trkpt lat="49.48883" lon="1.05074">
        <ele>101</ele>
        <time>2011-01-09T16:01:54Z</time>
      </trkpt>
      <trkpt lat="49.4887" lon="1.05074">
        <ele>100</ele>
        <time>2011-01-09T16:01:56Z</time>
      </trkpt>
      <trkpt lat="49.48858" lon="1.05074">
        <ele>101</ele>
        <time>2011-01-09T16:01:58Z</time>
      </trkpt>
      <trkpt lat="49.48845" lon="1.05074">
        <ele>100</ele>
        <time>2011-01-09T16:02:00Z</time>
      </trkpt>
      <trkpt lat="49.48835" lon="1.05074">
        <ele>100</ele>
        <time>2011-01-09T16:02:02Z</time>
      </trkpt>
      <trkpt lat="49.48824" lon="1.05074">
        <ele>99</ele>
        <time>2011-01-09T16:02:06Z</time>
      </trkpt>
      <trkpt lat="49.48815" lon="1.0507">
        <ele>97</ele>
        <time>2011-01-09T16:02:08Z</time>
      </trkpt>
      <trkpt lat="49.48805" lon="1.05063">
        <ele>96</ele>
        <time>2011-01-09T16:02:10Z</time>
      </trkpt>
      <trkpt lat="49.48796" lon="1.05055">
        <ele>95</ele>
        <time>2011-01-09T16:02:12Z</time>
      </trkpt>
      <trkpt lat="49.48785" lon="1.05042">
        <ele>94</ele>
        <time>2011-01-09T16:02:14Z</time>
      </trkpt>
      <trkpt lat="49.48775" lon="1.05031">
        <ele>93</ele>
        <time>2011-01-09T16:02:16Z</time>
      </trkpt>
      <trkpt lat="49.48766" lon="1.05022">
        <ele>92</ele>
        <time>2011-01-09T16:02:18Z</time>
      </trkpt>
      <trkpt lat="49.48754" lon="1.05018">
        <ele>92</ele>
        <time>2011-01-09T16:02:20Z</time>
      </trkpt>
      <trkpt lat="49.48741" lon="1.05014">
        <ele>92</ele>
        <time>2011-01-09T16:02:22Z</time>
      </trkpt>
      <trkpt lat="49.48727" lon="1.05012">
        <ele>91</ele>
        <time>2011-01-09T16:02:24Z</time>
      </trkpt>
      <trkpt lat="49.48712" lon="1.05005">
        <ele>91</ele>
        <time>2011-01-09T16:02:26Z</time>
      </trkpt>
      <trkpt lat="49.48699" lon="1.05001">
        <ele>91</ele>
        <time>2011-01-09T16:02:28Z</time>
      </trkpt>
      <trkpt lat="49.48687" lon="1.04995">
        <ele>91</ele>
        <time>2011-01-09T16:02:30Z</time>
      </trkpt>
      <trkpt lat="49.48679" lon="1.0499">
        <ele>91</ele>
        <time>2011-01-09T16:02:33Z</time>
      </trkpt>
      <trkpt lat="49.4867" lon="1.04982">
        <ele>90</ele>
        <time>2011-01-09T16:02:35Z</time>
      </trkpt>
      <trkpt lat="49.4866" lon="1.04973">
        <ele>88</ele>
        <time>2011-01-09T16:02:37Z</time>
      </trkpt>
      <trkpt lat="49.48651" lon="1.0496">
        <ele>87</ele>
        <time>2011-01-09T16:02:39Z</time>
      </trkpt>
      <trkpt lat="49.48641" lon="1.04945">
        <ele>86</ele>
        <time>2011-01-09T16:02:41Z</time>
      </trkpt>
      <trkpt lat="49.48633" lon="1.0493">
        <ele>85</ele>
        <time>2011-01-09T16:02:43Z</time>
      </trkpt>
      <trkpt lat="49.48624" lon="1.04915">
        <ele>83</ele>
        <time>2011-01-09T16:02:45Z</time>
      </trkpt>
      <trkpt lat="49.48614" lon="1.04898">
        <ele>83</ele>
        <time>2011-01-09T16:02:47Z</time>
      </trkpt>
      <trkpt lat="49.48605" lon="1.04883">
        <ele>82</ele>
        <time>2011-01-09T16:02:49Z</time>
      </trkpt>
      <trkpt lat="49.48598" lon="1.04872">
        <ele>82</ele>
        <time>2011-01-09T16:02:51Z</time>
      </trkpt>
      <trkpt lat="49.48594" lon="1.04859">
        <ele>82</ele>
        <time>2011-01-09T16:02:55Z</time>
      </trkpt>
      <trkpt lat="49.48595" lon="1.04844">
        <ele>82</ele>
        <time>2011-01-09T16:02:58Z</time>
      </trkpt>
      <trkpt lat="49.48587" lon="1.04831">
        <ele>81</ele>
        <time>2011-01-09T16:03:02Z</time>
      </trkpt>
      <trkpt lat="49.48574" lon="1.04831">
        <ele>78</ele>
        <time>2011-01-09T16:03:05Z</time>
      </trkpt>
      <trkpt lat="49.48562" lon="1.04834">
        <ele>75</ele>
        <time>2011-01-09T16:03:07Z</time>
      </trkpt>
      <trkpt lat="49.48549" lon="1.04834">
        <ele>73</ele>
        <time>2011-01-09T16:03:09Z</time>
      </trkpt>
      <trkpt lat="49.48535" lon="1.04836">
        <ele>71</ele>
        <time>2011-01-09T16:03:11Z</time>
      </trkpt>
      <trkpt lat="49.48521" lon="1.04836">
        <ele>70</ele>
        <time>2011-01-09T16:03:13Z</time>
      </trkpt>
      <trkpt lat="49.48507" lon="1.04838">
        <ele>69</ele>
        <time>2011-01-09T16:03:15Z</time>
      </trkpt>
      <trkpt lat="49.48493" lon="1.04838">
        <ele>69</ele>
        <time>2011-01-09T16:03:17Z</time>
      </trkpt>
      <trkpt lat="49.48479" lon="1.0484">
        <ele>68</ele>
        <time>2011-01-09T16:03:19Z</time>
      </trkpt>
      <trkpt lat="49.4847" lon="1.0484">
        <ele>67</ele>
        <time>2011-01-09T16:03:21Z</time>
      </trkpt>
      <trkpt lat="49.4846" lon="1.04844">
        <ele>67</ele>
        <time>2011-01-09T16:03:24Z</time>
      </trkpt>
      <trkpt lat="49.48454" lon="1.04857">
        <ele>67</ele>
        <time>2011-01-09T16:03:27Z</time>
      </trkpt>
      <trkpt lat="49.48448" lon="1.04872">
        <ele>68</ele>
        <time>2011-01-09T16:03:30Z</time>
      </trkpt>
      <trkpt lat="49.48441" lon="1.04887">
        <ele>70</ele>
        <time>2011-01-09T16:03:33Z</time>
      </trkpt>
      <trkpt lat="49.48433" lon="1.04898">
        <ele>72</ele>
        <time>2011-01-09T16:03:35Z</time>
      </trkpt>
      <trkpt lat="49.48426" lon="1.04909">
        <ele>73</ele>
        <time>2011-01-09T16:03:37Z</time>
      </trkpt>
      <trkpt lat="49.48419" lon="1.04919">
        <ele>74</ele>
        <time>2011-01-09T16:03:39Z</time>
      </trkpt>
      <trkpt lat="49.48413" lon="1.04932">
        <ele>75</ele>
        <time>2011-01-09T16:03:41Z</time>
      </trkpt>
      <trkpt lat="49.48405" lon="1.04943">
        <ele>75</ele>
        <time>2011-01-09T16:03:43Z</time>
      </trkpt>
      <trkpt lat="49.48399" lon="1.04956">
        <ele>76</ele>
        <time>2011-01-09T16:03:45Z</time>
      </trkpt>
      <trkpt lat="49.48392" lon="1.04969">
        <ele>76</ele>
        <time>2011-01-09T16:03:47Z</time>
      </trkpt>
      <trkpt lat="49.48389" lon="1.04984">
        <ele>77</ele>
        <time>2011-01-09T16:03:49Z</time>
      </trkpt>
      <trkpt lat="49.48387" lon="1.04999">
        <ele>77</ele>
        <time>2011-01-09T16:03:51Z</time>
      </trkpt>
      <trkpt lat="49.48388" lon="1.05018">
        <ele>77</ele>
        <time>2011-01-09T16:03:54Z</time>
      </trkpt>
      <trkpt lat="49.48389" lon="1.05033">
        <ele>77</ele>
        <time>2011-01-09T16:03:57Z</time>
      </trkpt>
      <trkpt lat="49.48393" lon="1.05059">
        <ele>77</ele>
        <time>2011-01-09T16:04:05Z</time>
      </trkpt>
      <trkpt lat="49.48393" lon="1.05074">
        <ele>77</ele>
        <time>2011-01-09T16:04:10Z</time>
      </trkpt>
      <trkpt lat="49.48375" lon="1.05108">
        <ele>76</ele>
        <time>2011-01-09T16:04:19Z</time>
      </trkpt>
      <trkpt lat="49.48362" lon="1.05119">
        <ele>73</ele>
        <time>2011-01-09T16:04:21Z</time>
      </trkpt>
      <trkpt lat="49.48352" lon="1.05125">
        <ele>70</ele>
        <time>2011-01-09T16:04:23Z</time>
      </trkpt>
      <trkpt lat="49.48341" lon="1.0513">
        <ele>67</ele>
        <time>2011-01-09T16:04:25Z</time>
      </trkpt>
      <trkpt lat="49.48332" lon="1.05136">
        <ele>65</ele>
        <time>2011-01-09T16:04:27Z</time>
      </trkpt>
      <trkpt lat="49.4833" lon="1.05158">
        <ele>64</ele>
        <time>2011-01-09T16:04:30Z</time>
      </trkpt>
      <trkpt lat="49.4833" lon="1.05175">
        <ele>65</ele>
        <time>2011-01-09T16:04:32Z</time>
      </trkpt>
      <trkpt lat="49.48331" lon="1.05192">
        <ele>66</ele>
        <time>2011-01-09T16:04:34Z</time>
      </trkpt>
      <trkpt lat="49.4833" lon="1.05209">
        <ele>68</ele>
        <time>2011-01-09T16:04:36Z</time>
      </trkpt>
      <trkpt lat="49.48329" lon="1.05228">
        <ele>69</ele>
        <time>2011-01-09T16:04:38Z</time>
      </trkpt>
      <trkpt lat="49.48328" lon="1.05246">
        <ele>71</ele>
        <time>2011-01-09T16:04:40Z</time>
      </trkpt>
      <trkpt lat="49.48328" lon="1.05263">
        <ele>72</ele>
        <time>2011-01-09T16:04:42Z</time>
      </trkpt>
      <trkpt lat="49.48328" lon="1.05278">
        <ele>72</ele>
        <time>2011-01-09T16:04:44Z</time>
      </trkpt>
      <trkpt lat="49.48329" lon="1.05295">
        <ele>72</ele>
        <time>2011-01-09T16:04:46Z</time>
      </trkpt>
      <trkpt lat="49.4833" lon="1.05312">
        <ele>72</ele>
        <time>2011-01-09T16:04:48Z</time>
      </trkpt>
      <trkpt lat="49.48331" lon="1.05329">
        <ele>72</ele>
        <time>2011-01-09T16:04:50Z</time>
      </trkpt>
      <trkpt lat="49.48331" lon="1.05346">
        <ele>72</ele>
        <time>2011-01-09T16:04:52Z</time>
      </trkpt>
      <trkpt lat="49.48331" lon="1.05364">
        <ele>73</ele>
        <time>2011-01-09T16:04:54Z</time>
      </trkpt>
      <trkpt lat="49.48331" lon="1.05381">
        <ele>73</ele>
        <time>2011-01-09T16:04:56Z</time>
      </trkpt>
      <trkpt lat="49.48331" lon="1.05398">
        <ele>73</ele>
        <time>2011-01-09T16:04:58Z</time>
      </trkpt>
      <trkpt lat="49.4833" lon="1.05415">
        <ele>73</ele>
        <time>2011-01-09T16:05:00Z</time>
      </trkpt>
      <trkpt lat="49.4833" lon="1.05432">
        <ele>73</ele>
        <time>2011-01-09T16:05:02Z</time>
      </trkpt>
      <trkpt lat="49.48329" lon="1.05449">
        <ele>73</ele>
        <time>2011-01-09T16:05:04Z</time>
      </trkpt>
      <trkpt lat="49.48329" lon="1.05464">
        <ele>73</ele>
        <time>2011-01-09T16:05:06Z</time>
      </trkpt>
      <trkpt lat="49.48329" lon="1.05479">
        <ele>74</ele>
        <time>2011-01-09T16:05:08Z</time>
      </trkpt>
      <trkpt lat="49.48328" lon="1.05494">
        <ele>75</ele>
        <time>2011-01-09T16:05:10Z</time>
      </trkpt>
      <trkpt lat="49.48328" lon="1.0551">
        <ele>75</ele>
        <time>2011-01-09T16:05:12Z</time>
      </trkpt>
      <trkpt lat="49.48327" lon="1.05529">
        <ele>75</ele>
        <time>2011-01-09T16:05:15Z</time>
      </trkpt>
      <trkpt lat="49.48318" lon="1.05537">
        <ele>75</ele>
        <time>2011-01-09T16:05:18Z</time>
      </trkpt>
      <trkpt lat="49.4831" lon="1.05542">
        <ele>75</ele>
        <time>2011-01-09T16:05:20Z</time>
      </trkpt>
      <trkpt lat="49.48297" lon="1.05542">
        <ele>76</ele>
        <time>2011-01-09T16:05:23Z</time>
      </trkpt>
      <trkpt lat="49.48287" lon="1.05542">
        <ele>76</ele>
        <time>2011-01-09T16:05:25Z</time>
      </trkpt>
      <trkpt lat="49.48278" lon="1.05542">
        <ele>76</ele>
        <time>2011-01-09T16:05:27Z</time>
      </trkpt>
      <trkpt lat="49.48271" lon="1.05529">
        <ele>73</ele>
        <time>2011-01-09T16:05:30Z</time>
      </trkpt>
      <trkpt lat="49.48269" lon="1.05514">
        <ele>72</ele>
        <time>2011-01-09T16:05:32Z</time>
      </trkpt>
      <trkpt lat="49.4826" lon="1.05507">
        <ele>70</ele>
        <time>2011-01-09T16:05:34Z</time>
      </trkpt>
      <trkpt lat="49.48251" lon="1.05505">
        <ele>70</ele>
        <time>2011-01-09T16:05:36Z</time>
      </trkpt>
      <trkpt lat="49.48241" lon="1.05505">
        <ele>69</ele>
        <time>2011-01-09T16:05:38Z</time>
      </trkpt>
      <trkpt lat="49.48231" lon="1.05505">
        <ele>68</ele>
        <time>2011-01-09T16:05:40Z</time>
      </trkpt>
      <trkpt lat="49.48219" lon="1.05505">
        <ele>68</ele>
        <time>2011-01-09T16:05:43Z</time>
      </trkpt>
      <trkpt lat="49.48209" lon="1.05499">
        <ele>67</ele>
        <time>2011-01-09T16:05:46Z</time>
      </trkpt>
      <trkpt lat="49.48207" lon="1.05482">
        <ele>67</ele>
        <time>2011-01-09T16:05:49Z</time>
      </trkpt>
      <trkpt lat="49.48205" lon="1.05467">
        <ele>67</ele>
        <time>2011-01-09T16:05:52Z</time>
      </trkpt>
    </trkseg>
  </trk>
</gpx>